<?xml version="1.0" encoding="utf-8"?>
<gpx xmlns:xsi="http://www.w3.org/2001/XMLSchema-instance" xmlns:xsd="http://www.w3.org/2001/XMLSchema" version="1.1" creator="Shapelink.com" xmlns="http://www.topografix.com/GPX/1/1" xmlns:gpxtpx="http://www.garmin.com/xmlschemas/TrackPointExtension/v1">
  <metadata>
    <name>Längdskidåkning 17.44 km, 2012-02-27</name>
    <desc></desc>
    <author><name>Dennis Rehn</name></author> 
    <time>2012-02-27T18:06:28Z</time>
  </metadata>
  <trk>
    <name>Längdskidåkning 17.44 km, 2012-02-27</name>
    <trkseg>
      <trkpt lat="59.990447524" lon="23.4075190778">
        <ele>15.4</ele>
        <time>2012-02-27T18:06:28Z</time>
      </trkpt>
      <trkpt lat="59.9904690655" lon="23.4078372548">
        <ele>15.4</ele>
        <time>2012-02-27T18:06:33Z</time>
      </trkpt>
      <trkpt lat="59.9905073707" lon="23.4080439524">
        <ele>15.4</ele>
        <time>2012-02-27T18:06:36Z</time>
      </trkpt>
      <trkpt lat="59.9906252203" lon="23.4082955771">
        <ele>15.4</ele>
        <time>2012-02-27T18:06:40Z</time>
      </trkpt>
      <trkpt lat="59.990794367" lon="23.4086315236">
        <ele>15.4</ele>
        <time>2012-02-27T18:06:44Z</time>
      </trkpt>
      <trkpt lat="59.990841138" lon="23.4087235569">
        <ele>15.4</ele>
        <time>2012-02-27T18:06:45Z</time>
      </trkpt>
      <trkpt lat="59.9910274676" lon="23.4089913586">
        <ele>15.4</ele>
        <time>2012-02-27T18:06:49Z</time>
      </trkpt>
      <trkpt lat="59.9910750768" lon="23.4090521273">
        <ele>15.4</ele>
        <time>2012-02-27T18:06:50Z</time>
      </trkpt>
      <trkpt lat="59.9913728857" lon="23.4090959647">
        <ele>14.4</ele>
        <time>2012-02-27T18:06:56Z</time>
      </trkpt>
      <trkpt lat="59.9914160525" lon="23.4090703161">
        <ele>14.2</ele>
        <time>2012-02-27T18:06:57Z</time>
      </trkpt>
      <trkpt lat="59.9915041463" lon="23.4089965553">
        <ele>13.6</ele>
        <time>2012-02-27T18:06:59Z</time>
      </trkpt>
      <trkpt lat="59.9916206547" lon="23.4088627802">
        <ele>13</ele>
        <time>2012-02-27T18:07:02Z</time>
      </trkpt>
      <trkpt lat="59.9917302061" lon="23.4087259038">
        <ele>12.2</ele>
        <time>2012-02-27T18:07:05Z</time>
      </trkpt>
      <trkpt lat="59.991803883" lon="23.4085936374">
        <ele>11.2</ele>
        <time>2012-02-27T18:07:08Z</time>
      </trkpt>
      <trkpt lat="59.9918408472" lon="23.4082949065">
        <ele>10.2</ele>
        <time>2012-02-27T18:07:13Z</time>
      </trkpt>
      <trkpt lat="59.9918431103" lon="23.4082343054">
        <ele>10.2</ele>
        <time>2012-02-27T18:07:14Z</time>
      </trkpt>
      <trkpt lat="59.9918093313" lon="23.408055268">
        <ele>9.6</ele>
        <time>2012-02-27T18:07:17Z</time>
      </trkpt>
      <trkpt lat="59.9917902205" lon="23.4080039707">
        <ele>9.2</ele>
        <time>2012-02-27T18:07:18Z</time>
      </trkpt>
      <trkpt lat="59.9916877937" lon="23.4078183117">
        <ele>8.2</ele>
        <time>2012-02-27T18:07:23Z</time>
      </trkpt>
      <trkpt lat="59.9916566969" lon="23.4077438804">
        <ele>8</ele>
        <time>2012-02-27T18:07:25Z</time>
      </trkpt>
      <trkpt lat="59.9915903122" lon="23.4075458161">
        <ele>7.6</ele>
        <time>2012-02-27T18:07:30Z</time>
      </trkpt>
      <trkpt lat="59.9915498276" lon="23.4073716402">
        <ele>7.2</ele>
        <time>2012-02-27T18:07:35Z</time>
      </trkpt>
      <trkpt lat="59.9915011288" lon="23.4070926068">
        <ele>7</ele>
        <time>2012-02-27T18:07:43Z</time>
      </trkpt>
      <trkpt lat="59.9914993686" lon="23.4069615138">
        <ele>7</ele>
        <time>2012-02-27T18:07:47Z</time>
      </trkpt>
      <trkpt lat="59.9915017155" lon="23.4068707379">
        <ele>6.8</ele>
        <time>2012-02-27T18:07:51Z</time>
      </trkpt>
      <trkpt lat="59.9915061579" lon="23.4068316782">
        <ele>6.8</ele>
        <time>2012-02-27T18:07:53Z</time>
      </trkpt>
      <trkpt lat="59.9915389312" lon="23.4067102245">
        <ele>7</ele>
        <time>2012-02-27T18:08:00Z</time>
      </trkpt>
      <trkpt lat="59.9915767335" lon="23.4065980747">
        <ele>7.8</ele>
        <time>2012-02-27T18:08:05Z</time>
      </trkpt>
      <trkpt lat="59.9916367479" lon="23.4063954003">
        <ele>8.8</ele>
        <time>2012-02-27T18:08:10Z</time>
      </trkpt>
      <trkpt lat="59.9916964271" lon="23.4061722741">
        <ele>10</ele>
        <time>2012-02-27T18:08:15Z</time>
      </trkpt>
      <trkpt lat="59.9917398453" lon="23.4059587033">
        <ele>11.4</ele>
        <time>2012-02-27T18:08:20Z</time>
      </trkpt>
      <trkpt lat="59.9917527534" lon="23.4059126029">
        <ele>11.6</ele>
        <time>2012-02-27T18:08:21Z</time>
      </trkpt>
      <trkpt lat="59.9918624725" lon="23.4057882155">
        <ele>13</ele>
        <time>2012-02-27T18:08:26Z</time>
      </trkpt>
      <trkpt lat="59.9919576071" lon="23.4056854534">
        <ele>13.8</ele>
        <time>2012-02-27T18:08:30Z</time>
      </trkpt>
      <trkpt lat="59.9920559268" lon="23.4054466531">
        <ele>15</ele>
        <time>2012-02-27T18:08:36Z</time>
      </trkpt>
      <trkpt lat="59.9921979161" lon="23.4051244528">
        <ele>16.2</ele>
        <time>2012-02-27T18:08:43Z</time>
      </trkpt>
      <trkpt lat="59.9923112394" lon="23.4049926894">
        <ele>17.6</ele>
        <time>2012-02-27T18:08:47Z</time>
      </trkpt>
      <trkpt lat="59.9924620298" lon="23.4048559806">
        <ele>18.2</ele>
        <time>2012-02-27T18:08:52Z</time>
      </trkpt>
      <trkpt lat="59.9925299232" lon="23.4046483609">
        <ele>18.6</ele>
        <time>2012-02-27T18:08:56Z</time>
      </trkpt>
      <trkpt lat="59.9926243034" lon="23.4044704132">
        <ele>19</ele>
        <time>2012-02-27T18:09:00Z</time>
      </trkpt>
      <trkpt lat="59.9927412309" lon="23.4043552459">
        <ele>19.2</ele>
        <time>2012-02-27T18:09:04Z</time>
      </trkpt>
      <trkpt lat="59.9928036761" lon="23.4043170244">
        <ele>19.2</ele>
        <time>2012-02-27T18:09:06Z</time>
      </trkpt>
      <trkpt lat="59.9929185081" lon="23.4041187925">
        <ele>19.4</ele>
        <time>2012-02-27T18:09:11Z</time>
      </trkpt>
      <trkpt lat="59.9929589927" lon="23.4037967599">
        <ele>19</ele>
        <time>2012-02-27T18:09:15Z</time>
      </trkpt>
      <trkpt lat="59.9929728228" lon="23.4036959256">
        <ele>18.8</ele>
        <time>2012-02-27T18:09:16Z</time>
      </trkpt>
      <trkpt lat="59.9930397104" lon="23.4033307262">
        <ele>18.4</ele>
        <time>2012-02-27T18:09:19Z</time>
      </trkpt>
      <trkpt lat="59.9930819551" lon="23.4030633436">
        <ele>18</ele>
        <time>2012-02-27T18:09:21Z</time>
      </trkpt>
      <trkpt lat="59.9930920972" lon="23.4025661293">
        <ele>17</ele>
        <time>2012-02-27T18:09:26Z</time>
      </trkpt>
      <trkpt lat="59.9930918458" lon="23.4024966434">
        <ele>16.8</ele>
        <time>2012-02-27T18:09:27Z</time>
      </trkpt>
      <trkpt lat="59.9930900856" lon="23.4024299234">
        <ele>16.6</ele>
        <time>2012-02-27T18:09:28Z</time>
      </trkpt>
      <trkpt lat="59.9930660295" lon="23.4022058752">
        <ele>16</ele>
        <time>2012-02-27T18:09:33Z</time>
      </trkpt>
      <trkpt lat="59.993034346" lon="23.4019011932">
        <ele>15.6</ele>
        <time>2012-02-27T18:09:40Z</time>
      </trkpt>
      <trkpt lat="59.9929994772" lon="23.4016355708">
        <ele>15.4</ele>
        <time>2012-02-27T18:09:45Z</time>
      </trkpt>
      <trkpt lat="59.992993107" lon="23.4013971895">
        <ele>15.4</ele>
        <time>2012-02-27T18:09:49Z</time>
      </trkpt>
      <trkpt lat="59.9929853118" lon="23.4011022305">
        <ele>15.6</ele>
        <time>2012-02-27T18:09:54Z</time>
      </trkpt>
      <trkpt lat="59.9929693024" lon="23.4008214368">
        <ele>16.2</ele>
        <time>2012-02-27T18:09:58Z</time>
      </trkpt>
      <trkpt lat="59.99296025" lon="23.4005851511">
        <ele>16.6</ele>
        <time>2012-02-27T18:10:02Z</time>
      </trkpt>
      <trkpt lat="59.9929533768" lon="23.4003755197">
        <ele>16.8</ele>
        <time>2012-02-27T18:10:07Z</time>
      </trkpt>
      <trkpt lat="59.9929132275" lon="23.4001379767">
        <ele>18</ele>
        <time>2012-02-27T18:10:13Z</time>
      </trkpt>
      <trkpt lat="59.9928159136" lon="23.3999498869">
        <ele>18.6</ele>
        <time>2012-02-27T18:10:18Z</time>
      </trkpt>
      <trkpt lat="59.9926903528" lon="23.3998389943">
        <ele>18.8</ele>
        <time>2012-02-27T18:10:22Z</time>
      </trkpt>
      <trkpt lat="59.9925900214" lon="23.399769676">
        <ele>19</ele>
        <time>2012-02-27T18:10:25Z</time>
      </trkpt>
      <trkpt lat="59.9924238084" lon="23.399634476">
        <ele>19.2</ele>
        <time>2012-02-27T18:10:29Z</time>
      </trkpt>
      <trkpt lat="59.9922258279" lon="23.3993411933">
        <ele>19.2</ele>
        <time>2012-02-27T18:10:33Z</time>
      </trkpt>
      <trkpt lat="59.9920556753" lon="23.3990492517">
        <ele>19.2</ele>
        <time>2012-02-27T18:10:36Z</time>
      </trkpt>
      <trkpt lat="59.9920000195" lon="23.3989651812">
        <ele>19.2</ele>
        <time>2012-02-27T18:10:37Z</time>
      </trkpt>
      <trkpt lat="59.9917958364" lon="23.3987645186">
        <ele>19.4</ele>
        <time>2012-02-27T18:10:40Z</time>
      </trkpt>
      <trkpt lat="59.9916998637" lon="23.3987490959">
        <ele>19.4</ele>
        <time>2012-02-27T18:10:42Z</time>
      </trkpt>
      <trkpt lat="59.9914809284" lon="23.3988500978">
        <ele>19.4</ele>
        <time>2012-02-27T18:10:46Z</time>
      </trkpt>
      <trkpt lat="59.9913313953" lon="23.3989712162">
        <ele>19.4</ele>
        <time>2012-02-27T18:10:50Z</time>
      </trkpt>
      <trkpt lat="59.9912695369" lon="23.399014383">
        <ele>19.4</ele>
        <time>2012-02-27T18:10:52Z</time>
      </trkpt>
      <trkpt lat="59.9912176529" lon="23.3990914965">
        <ele>19.4</ele>
        <time>2012-02-27T18:10:54Z</time>
      </trkpt>
      <trkpt lat="59.9910593189" lon="23.3992151295">
        <ele>19.4</ele>
        <time>2012-02-27T18:10:59Z</time>
      </trkpt>
      <trkpt lat="59.9908947822" lon="23.3991980304">
        <ele>19.4</ele>
        <time>2012-02-27T18:11:04Z</time>
      </trkpt>
      <trkpt lat="59.9908678763" lon="23.3991846194">
        <ele>19.4</ele>
        <time>2012-02-27T18:11:05Z</time>
      </trkpt>
      <trkpt lat="59.9907945346" lon="23.3990684463">
        <ele>19.4</ele>
        <time>2012-02-27T18:11:09Z</time>
      </trkpt>
      <trkpt lat="59.9906570715" lon="23.3988004769">
        <ele>19.4</ele>
        <time>2012-02-27T18:11:17Z</time>
      </trkpt>
      <trkpt lat="59.9905533874" lon="23.3987019896">
        <ele>19.4</ele>
        <time>2012-02-27T18:11:22Z</time>
      </trkpt>
      <trkpt lat="59.9904769444" lon="23.3986759219">
        <ele>19.4</ele>
        <time>2012-02-27T18:11:26Z</time>
      </trkpt>
      <trkpt lat="59.990341912" lon="23.398757813">
        <ele>19.4</ele>
        <time>2012-02-27T18:11:31Z</time>
      </trkpt>
      <trkpt lat="59.9902072149" lon="23.3988937675">
        <ele>19.4</ele>
        <time>2012-02-27T18:11:36Z</time>
      </trkpt>
      <trkpt lat="59.9900764573" lon="23.3990443902">
        <ele>19.4</ele>
        <time>2012-02-27T18:11:42Z</time>
      </trkpt>
      <trkpt lat="59.9899988409" lon="23.3992119444">
        <ele>20.2</ele>
        <time>2012-02-27T18:11:46Z</time>
      </trkpt>
      <trkpt lat="59.9898632217" lon="23.3994084161">
        <ele>20.8</ele>
        <time>2012-02-27T18:11:52Z</time>
      </trkpt>
      <trkpt lat="59.9897820849" lon="23.3995341446">
        <ele>21</ele>
        <time>2012-02-27T18:11:56Z</time>
      </trkpt>
      <trkpt lat="59.9896915604" lon="23.3996757149">
        <ele>21.2</ele>
        <time>2012-02-27T18:12:00Z</time>
      </trkpt>
      <trkpt lat="59.9896146146" lon="23.3997892058">
        <ele>21.8</ele>
        <time>2012-02-27T18:12:03Z</time>
      </trkpt>
      <trkpt lat="59.989504644" lon="23.3999351347">
        <ele>22.4</ele>
        <time>2012-02-27T18:12:07Z</time>
      </trkpt>
      <trkpt lat="59.989479666" lon="23.399971596">
        <ele>22.4</ele>
        <time>2012-02-27T18:12:08Z</time>
      </trkpt>
      <trkpt lat="59.98940557" lon="23.4001508848">
        <ele>23.2</ele>
        <time>2012-02-27T18:12:12Z</time>
      </trkpt>
      <trkpt lat="59.9893248523" lon="23.4004932016">
        <ele>24.4</ele>
        <time>2012-02-27T18:12:18Z</time>
      </trkpt>
      <trkpt lat="59.989299036" lon="23.4008434812">
        <ele>24.8</ele>
        <time>2012-02-27T18:12:22Z</time>
      </trkpt>
      <trkpt lat="59.9893452203" lon="23.401092256">
        <ele>25</ele>
        <time>2012-02-27T18:12:24Z</time>
      </trkpt>
      <trkpt lat="59.989472709" lon="23.4015546854">
        <ele>25.2</ele>
        <time>2012-02-27T18:12:28Z</time>
      </trkpt>
      <trkpt lat="59.989488467" lon="23.4016286976">
        <ele>25.2</ele>
        <time>2012-02-27T18:12:29Z</time>
      </trkpt>
      <trkpt lat="59.9894940828" lon="23.4016699366">
        <ele>25.2</ele>
        <time>2012-02-27T18:12:30Z</time>
      </trkpt>
      <trkpt lat="59.9894999502" lon="23.4017977605">
        <ele>26.2</ele>
        <time>2012-02-27T18:12:36Z</time>
      </trkpt>
      <trkpt lat="59.9893953441" lon="23.4021293485">
        <ele>27</ele>
        <time>2012-02-27T18:12:43Z</time>
      </trkpt>
      <trkpt lat="59.9892644188" lon="23.4025049414">
        <ele>27.2</ele>
        <time>2012-02-27T18:12:47Z</time>
      </trkpt>
      <trkpt lat="59.989231897" lon="23.4026141576">
        <ele>27.4</ele>
        <time>2012-02-27T18:12:48Z</time>
      </trkpt>
      <trkpt lat="59.9891287996" lon="23.4030076878">
        <ele>27.4</ele>
        <time>2012-02-27T18:12:51Z</time>
      </trkpt>
      <trkpt lat="59.9890416279" lon="23.4033278764">
        <ele>27.4</ele>
        <time>2012-02-27T18:12:53Z</time>
      </trkpt>
      <trkpt lat="59.9889599882" lon="23.4036333128">
        <ele>27.6</ele>
        <time>2012-02-27T18:12:55Z</time>
      </trkpt>
      <trkpt lat="59.988986475" lon="23.4038478056">
        <ele>27.6</ele>
        <time>2012-02-27T18:12:58Z</time>
      </trkpt>
      <trkpt lat="59.989037856" lon="23.4037844385">
        <ele>27.6</ele>
        <time>2012-02-27T18:13:00Z</time>
      </trkpt>
      <trkpt lat="59.9890938471" lon="23.4036566145">
        <ele>27.6</ele>
        <time>2012-02-27T18:13:02Z</time>
      </trkpt>
      <trkpt lat="59.9892544443" lon="23.4034131203">
        <ele>27.2</ele>
        <time>2012-02-27T18:13:06Z</time>
      </trkpt>
      <trkpt lat="59.9893709527" lon="23.4032624976">
        <ele>26.8</ele>
        <time>2012-02-27T18:13:10Z</time>
      </trkpt>
      <trkpt lat="59.9894073302" lon="23.4032438897">
        <ele>26.6</ele>
        <time>2012-02-27T18:13:11Z</time>
      </trkpt>
      <trkpt lat="59.9894422827" lon="23.4032299758">
        <ele>26.2</ele>
        <time>2012-02-27T18:13:12Z</time>
      </trkpt>
      <trkpt lat="59.9896179673" lon="23.403366936">
        <ele>25.2</ele>
        <time>2012-02-27T18:13:16Z</time>
      </trkpt>
      <trkpt lat="59.9896960028" lon="23.4034559518">
        <ele>24.6</ele>
        <time>2012-02-27T18:13:18Z</time>
      </trkpt>
      <trkpt lat="59.9897577774" lon="23.4035323947">
        <ele>23.8</ele>
        <time>2012-02-27T18:13:20Z</time>
      </trkpt>
      <trkpt lat="59.9898104158" lon="23.4035687722">
        <ele>22.8</ele>
        <time>2012-02-27T18:13:24Z</time>
      </trkpt>
      <trkpt lat="59.9898180433" lon="23.403573466">
        <ele>22.6</ele>
        <time>2012-02-27T18:13:25Z</time>
      </trkpt>
      <trkpt lat="59.9898307838" lon="23.4035812612">
        <ele>22.2</ele>
        <time>2012-02-27T18:13:27Z</time>
      </trkpt>
      <trkpt lat="59.9898711845" lon="23.4036199856">
        <ele>21.4</ele>
        <time>2012-02-27T18:13:33Z</time>
      </trkpt>
      <trkpt lat="59.9899211407" lon="23.403655441">
        <ele>21</ele>
        <time>2012-02-27T18:13:40Z</time>
      </trkpt>
      <trkpt lat="59.9899670735" lon="23.4036872922">
        <ele>21.4</ele>
        <time>2012-02-27T18:13:46Z</time>
      </trkpt>
      <trkpt lat="59.9900199633" lon="23.4037137791">
        <ele>22.4</ele>
        <time>2012-02-27T18:13:52Z</time>
      </trkpt>
      <trkpt lat="59.9900737751" lon="23.4037692672">
        <ele>23.6</ele>
        <time>2012-02-27T18:13:58Z</time>
      </trkpt>
      <trkpt lat="59.9900815702" lon="23.4037753022">
        <ele>23.8</ele>
        <time>2012-02-27T18:13:59Z</time>
      </trkpt>
      <trkpt lat="59.9901524811" lon="23.4038305389">
        <ele>24.8</ele>
        <time>2012-02-27T18:14:04Z</time>
      </trkpt>
      <trkpt lat="59.9901732682" lon="23.4038585345">
        <ele>25</ele>
        <time>2012-02-27T18:14:05Z</time>
      </trkpt>
      <trkpt lat="59.990347947" lon="23.4039820837">
        <ele>26</ele>
        <time>2012-02-27T18:14:10Z</time>
      </trkpt>
      <trkpt lat="59.9905556505" lon="23.4040505638">
        <ele>26.4</ele>
        <time>2012-02-27T18:14:14Z</time>
      </trkpt>
      <trkpt lat="59.9906687223" lon="23.4040518211">
        <ele>26.2</ele>
        <time>2012-02-27T18:14:16Z</time>
      </trkpt>
      <trkpt lat="59.9908725701" lon="23.4042749473">
        <ele>25.8</ele>
        <time>2012-02-27T18:14:20Z</time>
      </trkpt>
      <trkpt lat="59.9909049243" lon="23.4045106463">
        <ele>25.4</ele>
        <time>2012-02-27T18:14:22Z</time>
      </trkpt>
      <trkpt lat="59.990931914" lon="23.4050102075">
        <ele>24.6</ele>
        <time>2012-02-27T18:14:26Z</time>
      </trkpt>
      <trkpt lat="59.9909109592" lon="23.4054140475">
        <ele>24</ele>
        <time>2012-02-27T18:14:30Z</time>
      </trkpt>
      <trkpt lat="59.9909024935" lon="23.4055007163">
        <ele>23.8</ele>
        <time>2012-02-27T18:14:31Z</time>
      </trkpt>
      <trkpt lat="59.9908992246" lon="23.4056677676">
        <ele>23.8</ele>
        <time>2012-02-27T18:14:33Z</time>
      </trkpt>
      <trkpt lat="59.9909163236" lon="23.4058079129">
        <ele>23.4</ele>
        <time>2012-02-27T18:14:37Z</time>
      </trkpt>
      <trkpt lat="59.9909327522" lon="23.4058266046">
        <ele>23.2</ele>
        <time>2012-02-27T18:14:43Z</time>
      </trkpt>
      <trkpt lat="59.9909988015" lon="23.4059514111">
        <ele>23</ele>
        <time>2012-02-27T18:14:47Z</time>
      </trkpt>
      <trkpt lat="59.9910642642" lon="23.406039421">
        <ele>23</ele>
        <time>2012-02-27T18:14:49Z</time>
      </trkpt>
      <trkpt lat="59.99120047" lon="23.4060015348">
        <ele>23</ele>
        <time>2012-02-27T18:14:53Z</time>
      </trkpt>
      <trkpt lat="59.9914049884" lon="23.4058872895">
        <ele>23</ele>
        <time>2012-02-27T18:14:59Z</time>
      </trkpt>
      <trkpt lat="59.9915544377" lon="23.4058414405">
        <ele>23</ele>
        <time>2012-02-27T18:15:05Z</time>
      </trkpt>
      <trkpt lat="59.9916842733" lon="23.4057961783">
        <ele>23</ele>
        <time>2012-02-27T18:15:10Z</time>
      </trkpt>
      <trkpt lat="59.9918262627" lon="23.4057269438">
        <ele>23</ele>
        <time>2012-02-27T18:15:15Z</time>
      </trkpt>
      <trkpt lat="59.9919486384" lon="23.4056033946">
        <ele>23</ele>
        <time>2012-02-27T18:15:20Z</time>
      </trkpt>
      <trkpt lat="59.9920417614" lon="23.4054338288">
        <ele>23</ele>
        <time>2012-02-27T18:15:25Z</time>
      </trkpt>
      <trkpt lat="59.9921234011" lon="23.4052176596">
        <ele>23</ele>
        <time>2012-02-27T18:15:30Z</time>
      </trkpt>
      <trkpt lat="59.9922045379" lon="23.4050620915">
        <ele>23</ele>
        <time>2012-02-27T18:15:34Z</time>
      </trkpt>
      <trkpt lat="59.992308641" lon="23.40496922">
        <ele>23</ele>
        <time>2012-02-27T18:15:38Z</time>
      </trkpt>
      <trkpt lat="59.992440656" lon="23.4048660388">
        <ele>23</ele>
        <time>2012-02-27T18:15:42Z</time>
      </trkpt>
      <trkpt lat="59.9925086332" lon="23.4047253906">
        <ele>23</ele>
        <time>2012-02-27T18:15:46Z</time>
      </trkpt>
      <trkpt lat="59.9925354553" lon="23.4046619396">
        <ele>23</ele>
        <time>2012-02-27T18:15:47Z</time>
      </trkpt>
      <trkpt lat="59.9926030134" lon="23.4045132447">
        <ele>23</ele>
        <time>2012-02-27T18:15:51Z</time>
      </trkpt>
      <trkpt lat="59.9927080386" lon="23.4043944732">
        <ele>23</ele>
        <time>2012-02-27T18:15:55Z</time>
      </trkpt>
      <trkpt lat="59.9928198531" lon="23.4042971593">
        <ele>23</ele>
        <time>2012-02-27T18:15:59Z</time>
      </trkpt>
      <trkpt lat="59.9929125569" lon="23.4041657311">
        <ele>23</ele>
        <time>2012-02-27T18:16:03Z</time>
      </trkpt>
      <trkpt lat="59.9929401334" lon="23.4040654836">
        <ele>23</ele>
        <time>2012-02-27T18:16:05Z</time>
      </trkpt>
      <trkpt lat="59.992994029" lon="23.4036676786">
        <ele>23</ele>
        <time>2012-02-27T18:16:10Z</time>
      </trkpt>
      <trkpt lat="59.9930594917" lon="23.4033063349">
        <ele>23</ele>
        <time>2012-02-27T18:16:13Z</time>
      </trkpt>
      <trkpt lat="59.993099641" lon="23.4030559675">
        <ele>22.6</ele>
        <time>2012-02-27T18:16:15Z</time>
      </trkpt>
      <trkpt lat="59.9931122138" lon="23.4025901015">
        <ele>21.8</ele>
        <time>2012-02-27T18:16:20Z</time>
      </trkpt>
      <trkpt lat="59.9931078552" lon="23.4025249742">
        <ele>21.8</ele>
        <time>2012-02-27T18:16:21Z</time>
      </trkpt>
      <trkpt lat="59.9931028261" lon="23.4024573322">
        <ele>21.6</ele>
        <time>2012-02-27T18:16:22Z</time>
      </trkpt>
      <trkpt lat="59.9930747467" lon="23.4022156821">
        <ele>21.2</ele>
        <time>2012-02-27T18:16:27Z</time>
      </trkpt>
      <trkpt lat="59.9930532052" lon="23.4019795639">
        <ele>21</ele>
        <time>2012-02-27T18:16:32Z</time>
      </trkpt>
      <trkpt lat="59.9930150676" lon="23.4016920648">
        <ele>21</ele>
        <time>2012-02-27T18:16:38Z</time>
      </trkpt>
      <trkpt lat="59.9929941966" lon="23.4014004585">
        <ele>20.8</ele>
        <time>2012-02-27T18:16:44Z</time>
      </trkpt>
      <trkpt lat="59.9930032491" lon="23.4010909987">
        <ele>20.8</ele>
        <time>2012-02-27T18:16:50Z</time>
      </trkpt>
      <trkpt lat="59.9929893351" lon="23.4007582373">
        <ele>20.8</ele>
        <time>2012-02-27T18:16:55Z</time>
      </trkpt>
      <trkpt lat="59.9929826296" lon="23.4005389668">
        <ele>20.8</ele>
        <time>2012-02-27T18:16:59Z</time>
      </trkpt>
      <trkpt lat="59.9929801989" lon="23.4003452611">
        <ele>21.4</ele>
        <time>2012-02-27T18:17:03Z</time>
      </trkpt>
      <trkpt lat="59.9929430671" lon="23.4001473644">
        <ele>22</ele>
        <time>2012-02-27T18:17:08Z</time>
      </trkpt>
      <trkpt lat="59.9928615112" lon="23.3999671536">
        <ele>22.2</ele>
        <time>2012-02-27T18:17:13Z</time>
      </trkpt>
      <trkpt lat="59.9927366209" lon="23.3998348034">
        <ele>23.4</ele>
        <time>2012-02-27T18:17:20Z</time>
      </trkpt>
      <trkpt lat="59.9926530533" lon="23.3997717715">
        <ele>24</ele>
        <time>2012-02-27T18:17:24Z</time>
      </trkpt>
      <trkpt lat="59.9925079626" lon="23.3996751282">
        <ele>24.2</ele>
        <time>2012-02-27T18:17:29Z</time>
      </trkpt>
      <trkpt lat="59.9923376424" lon="23.3994825959">
        <ele>24.4</ele>
        <time>2012-02-27T18:17:33Z</time>
      </trkpt>
      <trkpt lat="59.9921852595" lon="23.399223679">
        <ele>24.6</ele>
        <time>2012-02-27T18:17:36Z</time>
      </trkpt>
      <trkpt lat="59.9920227344" lon="23.3989706295">
        <ele>24.6</ele>
        <time>2012-02-27T18:17:39Z</time>
      </trkpt>
      <trkpt lat="59.9919607922" lon="23.3988969526">
        <ele>24.6</ele>
        <time>2012-02-27T18:17:40Z</time>
      </trkpt>
      <trkpt lat="59.9917674218" lon="23.3987637642">
        <ele>24.8</ele>
        <time>2012-02-27T18:17:43Z</time>
      </trkpt>
      <trkpt lat="59.9915465587" lon="23.3988783448">
        <ele>24.8</ele>
        <time>2012-02-27T18:17:48Z</time>
      </trkpt>
      <trkpt lat="59.9914813475" lon="23.3989429692">
        <ele>24.8</ele>
        <time>2012-02-27T18:17:50Z</time>
      </trkpt>
      <trkpt lat="59.991415382" lon="23.3989942664">
        <ele>24.8</ele>
        <time>2012-02-27T18:17:52Z</time>
      </trkpt>
      <trkpt lat="59.9912978677" lon="23.3990977829">
        <ele>24.8</ele>
        <time>2012-02-27T18:17:56Z</time>
      </trkpt>
      <trkpt lat="59.9912068403" lon="23.3991708731">
        <ele>24.8</ele>
        <time>2012-02-27T18:17:59Z</time>
      </trkpt>
      <trkpt lat="59.9910588159" lon="23.3992265289">
        <ele>24.8</ele>
        <time>2012-02-27T18:18:04Z</time>
      </trkpt>
      <trkpt lat="59.9909196764" lon="23.3991912411">
        <ele>24.8</ele>
        <time>2012-02-27T18:18:08Z</time>
      </trkpt>
      <trkpt lat="59.9908134777" lon="23.3990897363">
        <ele>24.4</ele>
        <time>2012-02-27T18:18:12Z</time>
      </trkpt>
      <trkpt lat="59.9907388788" lon="23.3989331624">
        <ele>23.8</ele>
        <time>2012-02-27T18:18:17Z</time>
      </trkpt>
      <trkpt lat="59.9906165869" lon="23.3987370259">
        <ele>23.2</ele>
        <time>2012-02-27T18:18:24Z</time>
      </trkpt>
      <trkpt lat="59.9905189378" lon="23.3986838009">
        <ele>23</ele>
        <time>2012-02-27T18:18:29Z</time>
      </trkpt>
      <trkpt lat="59.9903962267" lon="23.3987451564">
        <ele>23</ele>
        <time>2012-02-27T18:18:34Z</time>
      </trkpt>
      <trkpt lat="59.9902966498" lon="23.3988556298">
        <ele>23</ele>
        <time>2012-02-27T18:18:38Z</time>
      </trkpt>
      <trkpt lat="59.9900652255" lon="23.3991026444">
        <ele>22.8</ele>
        <time>2012-02-27T18:18:47Z</time>
      </trkpt>
      <trkpt lat="59.9899551712" lon="23.3992962663">
        <ele>22.8</ele>
        <time>2012-02-27T18:18:52Z</time>
      </trkpt>
      <trkpt lat="59.9898387466" lon="23.3994432848">
        <ele>22.8</ele>
        <time>2012-02-27T18:18:57Z</time>
      </trkpt>
      <trkpt lat="59.9897351463" lon="23.399584436">
        <ele>22.8</ele>
        <time>2012-02-27T18:19:02Z</time>
      </trkpt>
      <trkpt lat="59.98961671" lon="23.3997441112">
        <ele>22.8</ele>
        <time>2012-02-27T18:19:07Z</time>
      </trkpt>
      <trkpt lat="59.9895498225" lon="23.3998555905">
        <ele>22.8</ele>
        <time>2012-02-27T18:19:10Z</time>
      </trkpt>
      <trkpt lat="59.9894586274" lon="23.4000005135">
        <ele>22.8</ele>
        <time>2012-02-27T18:19:14Z</time>
      </trkpt>
      <trkpt lat="59.9893831065" lon="23.4002496236">
        <ele>22.8</ele>
        <time>2012-02-27T18:19:19Z</time>
      </trkpt>
      <trkpt lat="59.9893266963" lon="23.4005004939">
        <ele>22.8</ele>
        <time>2012-02-27T18:19:24Z</time>
      </trkpt>
      <trkpt lat="59.9892927496" lon="23.4008316627">
        <ele>22.8</ele>
        <time>2012-02-27T18:19:28Z</time>
      </trkpt>
      <trkpt lat="59.9893774068" lon="23.4012216725">
        <ele>23</ele>
        <time>2012-02-27T18:19:31Z</time>
      </trkpt>
      <trkpt lat="59.98946483" lon="23.4015635702">
        <ele>23.6</ele>
        <time>2012-02-27T18:19:34Z</time>
      </trkpt>
      <trkpt lat="59.9894743016" lon="23.4016267698">
        <ele>23.6</ele>
        <time>2012-02-27T18:19:35Z</time>
      </trkpt>
      <trkpt lat="59.9894764809" lon="23.4016628958">
        <ele>23.8</ele>
        <time>2012-02-27T18:19:36Z</time>
      </trkpt>
      <trkpt lat="59.9894743016" lon="23.4017498161">
        <ele>24.2</ele>
        <time>2012-02-27T18:19:40Z</time>
      </trkpt>
      <trkpt lat="59.989458795" lon="23.4018755446">
        <ele>24.4</ele>
        <time>2012-02-27T18:19:45Z</time>
      </trkpt>
      <trkpt lat="59.9893918237" lon="23.4021366407">
        <ele>25</ele>
        <time>2012-02-27T18:19:50Z</time>
      </trkpt>
      <trkpt lat="59.9892541929" lon="23.4024638701">
        <ele>25.6</ele>
        <time>2012-02-27T18:19:54Z</time>
      </trkpt>
      <trkpt lat="59.9891543644" lon="23.4027806221">
        <ele>26</ele>
        <time>2012-02-27T18:19:57Z</time>
      </trkpt>
      <trkpt lat="59.9890363473" lon="23.4032309816">
        <ele>26.2</ele>
        <time>2012-02-27T18:20:00Z</time>
      </trkpt>
      <trkpt lat="59.9889511034" lon="23.4035404414">
        <ele>26</ele>
        <time>2012-02-27T18:20:02Z</time>
      </trkpt>
      <trkpt lat="59.9889404584" lon="23.4038188043">
        <ele>25.6</ele>
        <time>2012-02-27T18:20:05Z</time>
      </trkpt>
      <trkpt lat="59.9890172366" lon="23.4037727876">
        <ele>25.4</ele>
        <time>2012-02-27T18:20:08Z</time>
      </trkpt>
      <trkpt lat="59.9890701263" lon="23.4036634038">
        <ele>25.4</ele>
        <time>2012-02-27T18:20:10Z</time>
      </trkpt>
      <trkpt lat="59.9891857966" lon="23.4034843665">
        <ele>24.8</ele>
        <time>2012-02-27T18:20:13Z</time>
      </trkpt>
      <trkpt lat="59.9892638321" lon="23.4033771619">
        <ele>24.4</ele>
        <time>2012-02-27T18:20:15Z</time>
      </trkpt>
      <trkpt lat="59.9893313902" lon="23.4032898226">
        <ele>24.2</ele>
        <time>2012-02-27T18:20:17Z</time>
      </trkpt>
      <trkpt lat="59.9894591303" lon="23.4032360108">
        <ele>23.6</ele>
        <time>2012-02-27T18:20:21Z</time>
      </trkpt>
      <trkpt lat="59.9895852779" lon="23.4033246913">
        <ele>22.8</ele>
        <time>2012-02-27T18:20:24Z</time>
      </trkpt>
      <trkpt lat="59.9896256787" lon="23.403357213">
        <ele>22.6</ele>
        <time>2012-02-27T18:20:25Z</time>
      </trkpt>
      <trkpt lat="59.9897591185" lon="23.4035009626">
        <ele>22</ele>
        <time>2012-02-27T18:20:29Z</time>
      </trkpt>
      <trkpt lat="59.9898000222" lon="23.4035386812">
        <ele>21.6</ele>
        <time>2012-02-27T18:20:32Z</time>
      </trkpt>
      <trkpt lat="59.9898042131" lon="23.4035444647">
        <ele>21.4</ele>
        <time>2012-02-27T18:20:33Z</time>
      </trkpt>
      <trkpt lat="59.9898356453" lon="23.4035737175">
        <ele>20.2</ele>
        <time>2012-02-27T18:20:38Z</time>
      </trkpt>
      <trkpt lat="59.9898497269" lon="23.4035841111">
        <ele>20</ele>
        <time>2012-02-27T18:20:40Z</time>
      </trkpt>
      <trkpt lat="59.9898957435" lon="23.4036362465">
        <ele>19.2</ele>
        <time>2012-02-27T18:20:47Z</time>
      </trkpt>
      <trkpt lat="59.9899398323" lon="23.4036663375">
        <ele>19.8</ele>
        <time>2012-02-27T18:20:53Z</time>
      </trkpt>
      <trkpt lat="59.9900112461" lon="23.4037357396">
        <ele>21</ele>
        <time>2012-02-27T18:21:01Z</time>
      </trkpt>
      <trkpt lat="59.9900720987" lon="23.4037729553">
        <ele>22.2</ele>
        <time>2012-02-27T18:21:07Z</time>
      </trkpt>
      <trkpt lat="59.9901350467" lon="23.4038223247">
        <ele>23.2</ele>
        <time>2012-02-27T18:21:11Z</time>
      </trkpt>
      <trkpt lat="59.9902265771" lon="23.4039099993">
        <ele>24</ele>
        <time>2012-02-27T18:21:15Z</time>
      </trkpt>
      <trkpt lat="59.9903571671" lon="23.4039770545">
        <ele>24.2</ele>
        <time>2012-02-27T18:21:18Z</time>
      </trkpt>
      <trkpt lat="59.9905510404" lon="23.4040455347">
        <ele>24.6</ele>
        <time>2012-02-27T18:21:22Z</time>
      </trkpt>
      <trkpt lat="59.9907680478" lon="23.404059281">
        <ele>24.8</ele>
        <time>2012-02-27T18:21:26Z</time>
      </trkpt>
      <trkpt lat="59.9908281461" lon="23.4040952393">
        <ele>24.8</ele>
        <time>2012-02-27T18:21:27Z</time>
      </trkpt>
      <trkpt lat="59.990901823" lon="23.404286179">
        <ele>25</ele>
        <time>2012-02-27T18:21:29Z</time>
      </trkpt>
      <trkpt lat="59.9909185029" lon="23.4044095606">
        <ele>25</ele>
        <time>2012-02-27T18:21:30Z</time>
      </trkpt>
      <trkpt lat="59.9909571435" lon="23.4049218623">
        <ele>25</ele>
        <time>2012-02-27T18:21:34Z</time>
      </trkpt>
      <trkpt lat="59.9909603286" lon="23.4050455791">
        <ele>25</ele>
        <time>2012-02-27T18:21:35Z</time>
      </trkpt>
      <trkpt lat="59.9909350991" lon="23.4055386025">
        <ele>24.6</ele>
        <time>2012-02-27T18:21:40Z</time>
      </trkpt>
      <trkpt lat="59.9909463308" lon="23.4056422866">
        <ele>24.4</ele>
        <time>2012-02-27T18:21:41Z</time>
      </trkpt>
      <trkpt lat="59.990974494" lon="23.4058189771">
        <ele>24.4</ele>
        <time>2012-02-27T18:21:43Z</time>
      </trkpt>
      <trkpt lat="59.9911159805" lon="23.4060828393">
        <ele>24</ele>
        <time>2012-02-27T18:21:47Z</time>
      </trkpt>
      <trkpt lat="59.9911608237" lon="23.4060829231">
        <ele>23.8</ele>
        <time>2012-02-27T18:21:48Z</time>
      </trkpt>
      <trkpt lat="59.991442204" lon="23.4059521654">
        <ele>23.4</ele>
        <time>2012-02-27T18:21:56Z</time>
      </trkpt>
      <trkpt lat="59.9914698643" lon="23.4059441188">
        <ele>23.4</ele>
        <time>2012-02-27T18:21:57Z</time>
      </trkpt>
      <trkpt lat="59.9914986981" lon="23.4059335576">
        <ele>23.4</ele>
        <time>2012-02-27T18:21:58Z</time>
      </trkpt>
      <trkpt lat="59.9916296233" lon="23.405887541">
        <ele>23.4</ele>
        <time>2012-02-27T18:22:03Z</time>
      </trkpt>
      <trkpt lat="59.9917754684" lon="23.4058316337">
        <ele>23.2</ele>
        <time>2012-02-27T18:22:08Z</time>
      </trkpt>
      <trkpt lat="59.9918917253" lon="23.4057612258">
        <ele>23.2</ele>
        <time>2012-02-27T18:22:12Z</time>
      </trkpt>
      <trkpt lat="59.99199147" lon="23.4056548595">
        <ele>23.2</ele>
        <time>2012-02-27T18:22:16Z</time>
      </trkpt>
      <trkpt lat="59.9920695893" lon="23.4054769955">
        <ele>23.2</ele>
        <time>2012-02-27T18:22:21Z</time>
      </trkpt>
      <trkpt lat="59.9921420089" lon="23.4052728125">
        <ele>23.2</ele>
        <time>2012-02-27T18:22:26Z</time>
      </trkpt>
      <trkpt lat="59.9921906239" lon="23.4051628419">
        <ele>23.2</ele>
        <time>2012-02-27T18:22:30Z</time>
      </trkpt>
      <trkpt lat="59.9922020233" lon="23.405147503">
        <ele>23.2</ele>
        <time>2012-02-27T18:22:31Z</time>
      </trkpt>
      <trkpt lat="59.9922779633" lon="23.4050448248">
        <ele>23.2</ele>
        <time>2012-02-27T18:22:35Z</time>
      </trkpt>
      <trkpt lat="59.9924792965" lon="23.4048392168">
        <ele>23.2</ele>
        <time>2012-02-27T18:22:41Z</time>
      </trkpt>
      <trkpt lat="59.9925259837" lon="23.4047388854">
        <ele>23.2</ele>
        <time>2012-02-27T18:22:43Z</time>
      </trkpt>
      <trkpt lat="59.992642073" lon="23.4044443455">
        <ele>23.2</ele>
        <time>2012-02-27T18:22:49Z</time>
      </trkpt>
      <trkpt lat="59.992671242" lon="23.4044021845">
        <ele>23.2</ele>
        <time>2012-02-27T18:22:50Z</time>
      </trkpt>
      <trkpt lat="59.9927616827" lon="23.4043317765">
        <ele>23.2</ele>
        <time>2012-02-27T18:22:53Z</time>
      </trkpt>
      <trkpt lat="59.992879197" lon="23.4042009351">
        <ele>23.2</ele>
        <time>2012-02-27T18:22:57Z</time>
      </trkpt>
      <trkpt lat="59.9929556399" lon="23.4038708559">
        <ele>23.2</ele>
        <time>2012-02-27T18:23:03Z</time>
      </trkpt>
      <trkpt lat="59.9930121339" lon="23.4034866296">
        <ele>23.2</ele>
        <time>2012-02-27T18:23:07Z</time>
      </trkpt>
      <trkpt lat="59.9930791891" lon="23.4031087735">
        <ele>23.2</ele>
        <time>2012-02-27T18:23:10Z</time>
      </trkpt>
      <trkpt lat="59.9930940251" lon="23.40298908">
        <ele>23.2</ele>
        <time>2012-02-27T18:23:11Z</time>
      </trkpt>
      <trkpt lat="59.9931039157" lon="23.4026100505">
        <ele>23.2</ele>
        <time>2012-02-27T18:23:15Z</time>
      </trkpt>
      <trkpt lat="59.993096372" lon="23.4024145007">
        <ele>23.2</ele>
        <time>2012-02-27T18:23:18Z</time>
      </trkpt>
      <trkpt lat="59.9930974617" lon="23.4023676459">
        <ele>23.2</ele>
        <time>2012-02-27T18:23:19Z</time>
      </trkpt>
      <trkpt lat="59.9930924325" lon="23.402276367">
        <ele>22.8</ele>
        <time>2012-02-27T18:23:21Z</time>
      </trkpt>
      <trkpt lat="59.9930802788" lon="23.4020456133">
        <ele>22.2</ele>
        <time>2012-02-27T18:23:26Z</time>
      </trkpt>
      <trkpt lat="59.993076004" lon="23.4020034524">
        <ele>22</ele>
        <time>2012-02-27T18:23:27Z</time>
      </trkpt>
      <trkpt lat="59.9930419735" lon="23.4017768058">
        <ele>21.6</ele>
        <time>2012-02-27T18:23:32Z</time>
      </trkpt>
      <trkpt lat="59.9930030815" lon="23.4014233411">
        <ele>21.4</ele>
        <time>2012-02-27T18:23:39Z</time>
      </trkpt>
      <trkpt lat="59.993011631" lon="23.4011649271">
        <ele>21.4</ele>
        <time>2012-02-27T18:23:44Z</time>
      </trkpt>
      <trkpt lat="59.9930052608" lon="23.4007923516">
        <ele>21.2</ele>
        <time>2012-02-27T18:23:50Z</time>
      </trkpt>
      <trkpt lat="59.9930019918" lon="23.4005688902">
        <ele>21.2</ele>
        <time>2012-02-27T18:23:54Z</time>
      </trkpt>
      <trkpt lat="59.9929978847" lon="23.4004336063">
        <ele>21.2</ele>
        <time>2012-02-27T18:23:57Z</time>
      </trkpt>
      <trkpt lat="59.9929516166" lon="23.4001943031">
        <ele>21.2</ele>
        <time>2012-02-27T18:24:03Z</time>
      </trkpt>
      <trkpt lat="59.9929418098" lon="23.4001611107">
        <ele>21.2</ele>
        <time>2012-02-27T18:24:04Z</time>
      </trkpt>
      <trkpt lat="59.9928672109" lon="23.4000093145">
        <ele>21.2</ele>
        <time>2012-02-27T18:24:10Z</time>
      </trkpt>
      <trkpt lat="59.992773585" lon="23.3999101567">
        <ele>21.2</ele>
        <time>2012-02-27T18:24:15Z</time>
      </trkpt>
      <trkpt lat="59.9926730022" lon="23.3998271758">
        <ele>21.2</ele>
        <time>2012-02-27T18:24:20Z</time>
      </trkpt>
      <trkpt lat="59.9925387242" lon="23.3997389983">
        <ele>21.2</ele>
        <time>2012-02-27T18:24:25Z</time>
      </trkpt>
      <trkpt lat="59.9923768697" lon="23.399577479">
        <ele>21.2</ele>
        <time>2012-02-27T18:24:29Z</time>
      </trkpt>
      <trkpt lat="59.9921860977" lon="23.399264918">
        <ele>21.2</ele>
        <time>2012-02-27T18:24:33Z</time>
      </trkpt>
      <trkpt lat="59.9920159451" lon="23.3989957752">
        <ele>21.2</ele>
        <time>2012-02-27T18:24:36Z</time>
      </trkpt>
      <trkpt lat="59.9919533323" lon="23.398918997">
        <ele>21.2</ele>
        <time>2012-02-27T18:24:37Z</time>
      </trkpt>
      <trkpt lat="59.99171361" lon="23.3987979623">
        <ele>21.2</ele>
        <time>2012-02-27T18:24:41Z</time>
      </trkpt>
      <trkpt lat="59.9916665875" lon="23.3988030753">
        <ele>21.2</ele>
        <time>2012-02-27T18:24:42Z</time>
      </trkpt>
      <trkpt lat="59.9916162961" lon="23.3988257902">
        <ele>21.2</ele>
        <time>2012-02-27T18:24:43Z</time>
      </trkpt>
      <trkpt lat="59.9914996201" lon="23.3989241938">
        <ele>21.2</ele>
        <time>2012-02-27T18:24:46Z</time>
      </trkpt>
      <trkpt lat="59.9914287092" lon="23.3989847111">
        <ele>21.2</ele>
        <time>2012-02-27T18:24:48Z</time>
      </trkpt>
      <trkpt lat="59.991278757" lon="23.3990897363">
        <ele>21.2</ele>
        <time>2012-02-27T18:24:52Z</time>
      </trkpt>
      <trkpt lat="59.9912143002" lon="23.399147739">
        <ele>21</ele>
        <time>2012-02-27T18:24:54Z</time>
      </trkpt>
      <trkpt lat="59.9911209258" lon="23.399215381">
        <ele>20.4</ele>
        <time>2012-02-27T18:24:57Z</time>
      </trkpt>
      <trkpt lat="59.9910028248" lon="23.3992319771">
        <ele>20</ele>
        <time>2012-02-27T18:25:01Z</time>
      </trkpt>
      <trkpt lat="59.9908704746" lon="23.399174142">
        <ele>19.6</ele>
        <time>2012-02-27T18:25:05Z</time>
      </trkpt>
      <trkpt lat="59.9907827162" lon="23.3990500061">
        <ele>19.4</ele>
        <time>2012-02-27T18:25:09Z</time>
      </trkpt>
      <trkpt lat="59.9906734162" lon="23.3988162349">
        <ele>19.4</ele>
        <time>2012-02-27T18:25:15Z</time>
      </trkpt>
      <trkpt lat="59.9905616016" lon="23.3986975472">
        <ele>19.2</ele>
        <time>2012-02-27T18:25:20Z</time>
      </trkpt>
      <trkpt lat="59.9904423272" lon="23.3986886624">
        <ele>19.2</ele>
        <time>2012-02-27T18:25:25Z</time>
      </trkpt>
      <trkpt lat="59.9903085521" lon="23.3988341721">
        <ele>19.2</ele>
        <time>2012-02-27T18:25:30Z</time>
      </trkpt>
      <trkpt lat="59.9902078016" lon="23.3989428854">
        <ele>19.2</ele>
        <time>2012-02-27T18:25:34Z</time>
      </trkpt>
      <trkpt lat="59.9901074703" lon="23.3990507604">
        <ele>19.2</ele>
        <time>2012-02-27T18:25:38Z</time>
      </trkpt>
      <trkpt lat="59.990032117" lon="23.3991520976">
        <ele>19.2</ele>
        <time>2012-02-27T18:25:41Z</time>
      </trkpt>
      <trkpt lat="59.9899457834" lon="23.3992758983">
        <ele>19.8</ele>
        <time>2012-02-27T18:25:45Z</time>
      </trkpt>
      <trkpt lat="59.989823743" lon="23.3994374175">
        <ele>20.4</ele>
        <time>2012-02-27T18:25:50Z</time>
      </trkpt>
      <trkpt lat="59.9895971802" lon="23.3997686702">
        <ele>21</ele>
        <time>2012-02-27T18:26:00Z</time>
      </trkpt>
      <trkpt lat="59.9894558614" lon="23.3999568438">
        <ele>21</ele>
        <time>2012-02-27T18:26:06Z</time>
      </trkpt>
      <trkpt lat="59.9893890576" lon="23.4001425029">
        <ele>21.8</ele>
        <time>2012-02-27T18:26:10Z</time>
      </trkpt>
      <trkpt lat="59.9893454718" lon="23.4003431656">
        <ele>22.2</ele>
        <time>2012-02-27T18:26:14Z</time>
      </trkpt>
      <trkpt lat="59.9892904865" lon="23.4006369512">
        <ele>22.6</ele>
        <time>2012-02-27T18:26:19Z</time>
      </trkpt>
      <trkpt lat="59.9893104354" lon="23.4009643482">
        <ele>22.8</ele>
        <time>2012-02-27T18:26:22Z</time>
      </trkpt>
      <trkpt lat="59.9894081684" lon="23.4013387677">
        <ele>23</ele>
        <time>2012-02-27T18:26:25Z</time>
      </trkpt>
      <trkpt lat="59.9894691886" lon="23.4016162086">
        <ele>23</ele>
        <time>2012-02-27T18:26:28Z</time>
      </trkpt>
      <trkpt lat="59.9894768161" lon="23.4016628958">
        <ele>23</ele>
        <time>2012-02-27T18:26:29Z</time>
      </trkpt>
      <trkpt lat="59.9894838569" lon="23.4017880375">
        <ele>23.2</ele>
        <time>2012-02-27T18:26:34Z</time>
      </trkpt>
      <trkpt lat="59.9894819291" lon="23.4018173742">
        <ele>23.2</ele>
        <time>2012-02-27T18:26:35Z</time>
      </trkpt>
      <trkpt lat="59.9894032231" lon="23.4021200446">
        <ele>24.2</ele>
        <time>2012-02-27T18:26:41Z</time>
      </trkpt>
      <trkpt lat="59.9892603955" lon="23.4024325218">
        <ele>24.6</ele>
        <time>2012-02-27T18:26:45Z</time>
      </trkpt>
      <trkpt lat="59.9891661829" lon="23.4027449991">
        <ele>24.8</ele>
        <time>2012-02-27T18:26:48Z</time>
      </trkpt>
      <trkpt lat="59.98905638" lon="23.4031605737">
        <ele>25</ele>
        <time>2012-02-27T18:26:51Z</time>
      </trkpt>
      <trkpt lat="59.9889680348" lon="23.4034779962">
        <ele>25</ele>
        <time>2012-02-27T18:26:53Z</time>
      </trkpt>
      <trkpt lat="59.988933669" lon="23.4036168005">
        <ele>24.8</ele>
        <time>2012-02-27T18:26:54Z</time>
      </trkpt>
      <trkpt lat="59.9889525283" lon="23.4038303713">
        <ele>24.4</ele>
        <time>2012-02-27T18:26:57Z</time>
      </trkpt>
      <trkpt lat="59.9890110339" lon="23.403774464">
        <ele>24.2</ele>
        <time>2012-02-27T18:26:59Z</time>
      </trkpt>
      <trkpt lat="59.9890734791" lon="23.4036511663">
        <ele>24</ele>
        <time>2012-02-27T18:27:01Z</time>
      </trkpt>
      <trkpt lat="59.9891563761" lon="23.4035164691">
        <ele>23.8</ele>
        <time>2012-02-27T18:27:03Z</time>
      </trkpt>
      <trkpt lat="59.9893028079" lon="23.4033031498">
        <ele>23</ele>
        <time>2012-02-27T18:27:07Z</time>
      </trkpt>
      <trkpt lat="59.9894504131" lon="23.4032260363">
        <ele>22.4</ele>
        <time>2012-02-27T18:27:11Z</time>
      </trkpt>
      <trkpt lat="59.9895383393" lon="23.4032635034">
        <ele>22.2</ele>
        <time>2012-02-27T18:27:13Z</time>
      </trkpt>
      <trkpt lat="59.9896721144" lon="23.403410941">
        <ele>21.8</ele>
        <time>2012-02-27T18:27:16Z</time>
      </trkpt>
      <trkpt lat="59.9898094099" lon="23.4035722088">
        <ele>21.2</ele>
        <time>2012-02-27T18:27:20Z</time>
      </trkpt>
      <trkpt lat="59.9898206417" lon="23.403584614">
        <ele>21</ele>
        <time>2012-02-27T18:27:21Z</time>
      </trkpt>
      <trkpt lat="59.9898358967" lon="23.4035862065">
        <ele>20.4</ele>
        <time>2012-02-27T18:27:25Z</time>
      </trkpt>
      <trkpt lat="59.9898679994" lon="23.4036116037">
        <ele>19.8</ele>
        <time>2012-02-27T18:27:31Z</time>
      </trkpt>
      <trkpt lat="59.9898829192" lon="23.4036261044">
        <ele>19.6</ele>
        <time>2012-02-27T18:27:34Z</time>
      </trkpt>
      <trkpt lat="59.9899771317" lon="23.4036965962">
        <ele>20.4</ele>
        <time>2012-02-27T18:27:47Z</time>
      </trkpt>
      <trkpt lat="59.9900184545" lon="23.4037164613">
        <ele>21.6</ele>
        <time>2012-02-27T18:27:52Z</time>
      </trkpt>
      <trkpt lat="59.9900696679" lon="23.403758706">
        <ele>22.8</ele>
        <time>2012-02-27T18:27:58Z</time>
      </trkpt>
      <trkpt lat="59.9901349629" lon="23.4038140266">
        <ele>24.4</ele>
        <time>2012-02-27T18:28:06Z</time>
      </trkpt>
      <trkpt lat="59.9902228052" lon="23.4039081553">
        <ele>25.6</ele>
        <time>2012-02-27T18:28:12Z</time>
      </trkpt>
      <trkpt lat="59.9903862523" lon="23.4040244961">
        <ele>26.6</ele>
        <time>2012-02-27T18:28:17Z</time>
      </trkpt>
      <trkpt lat="59.9905858253" lon="23.4040813254">
        <ele>27</ele>
        <time>2012-02-27T18:28:22Z</time>
      </trkpt>
      <trkpt lat="59.9907259707" lon="23.4040845943">
        <ele>27.2</ele>
        <time>2012-02-27T18:28:25Z</time>
      </trkpt>
      <trkpt lat="59.9909017391" lon="23.4043421701">
        <ele>27.4</ele>
        <time>2012-02-27T18:28:29Z</time>
      </trkpt>
      <trkpt lat="59.9909148149" lon="23.4044557448">
        <ele>27.2</ele>
        <time>2012-02-27T18:28:30Z</time>
      </trkpt>
      <trkpt lat="59.9909479234" lon="23.4049256342">
        <ele>26.6</ele>
        <time>2012-02-27T18:28:34Z</time>
      </trkpt>
      <trkpt lat="59.990952282" lon="23.4050428131">
        <ele>26.6</ele>
        <time>2012-02-27T18:28:35Z</time>
      </trkpt>
      <trkpt lat="59.9909350991" lon="23.4055211682">
        <ele>26.2</ele>
        <time>2012-02-27T18:28:40Z</time>
      </trkpt>
      <trkpt lat="59.9909342609" lon="23.4056070826">
        <ele>26.2</ele>
        <time>2012-02-27T18:28:41Z</time>
      </trkpt>
      <trkpt lat="59.9909423913" lon="23.4057762294">
        <ele>26</ele>
        <time>2012-02-27T18:28:43Z</time>
      </trkpt>
      <trkpt lat="59.991130565" lon="23.4060866949">
        <ele>25.4</ele>
        <time>2012-02-27T18:28:48Z</time>
      </trkpt>
      <trkpt lat="59.9912075947" lon="23.4060799056">
        <ele>25.2</ele>
        <time>2012-02-27T18:28:50Z</time>
      </trkpt>
      <trkpt lat="59.9913396934" lon="23.4060035465">
        <ele>24.6</ele>
        <time>2012-02-27T18:28:54Z</time>
      </trkpt>
      <trkpt lat="59.9914947586" lon="23.4059407661">
        <ele>24.2</ele>
        <time>2012-02-27T18:29:00Z</time>
      </trkpt>
      <trkpt lat="59.9916181401" lon="23.4058998624">
        <ele>23.8</ele>
        <time>2012-02-27T18:29:05Z</time>
      </trkpt>
      <trkpt lat="59.9917590399" lon="23.4058493195">
        <ele>23.8</ele>
        <time>2012-02-27T18:29:10Z</time>
      </trkpt>
      <trkpt lat="59.9918483909" lon="23.4057965974">
        <ele>23.8</ele>
        <time>2012-02-27T18:29:13Z</time>
      </trkpt>
      <trkpt lat="59.9919996004" lon="23.4056274506">
        <ele>23.6</ele>
        <time>2012-02-27T18:29:19Z</time>
      </trkpt>
      <trkpt lat="59.9920783903" lon="23.4054263689">
        <ele>23.6</ele>
        <time>2012-02-27T18:29:24Z</time>
      </trkpt>
      <trkpt lat="59.9921528215" lon="23.4052430567">
        <ele>23.6</ele>
        <time>2012-02-27T18:29:28Z</time>
      </trkpt>
      <trkpt lat="59.9922370596" lon="23.4051215192">
        <ele>23.6</ele>
        <time>2012-02-27T18:29:32Z</time>
      </trkpt>
      <trkpt lat="59.9923716729" lon="23.4049961259">
        <ele>23.6</ele>
        <time>2012-02-27T18:29:37Z</time>
      </trkpt>
      <trkpt lat="59.9924822302" lon="23.4048589981">
        <ele>23.6</ele>
        <time>2012-02-27T18:29:41Z</time>
      </trkpt>
      <trkpt lat="59.9925741796" lon="23.4046075411">
        <ele>23.6</ele>
        <time>2012-02-27T18:29:46Z</time>
      </trkpt>
      <trkpt lat="59.9926929512" lon="23.4044300962">
        <ele>23.6</ele>
        <time>2012-02-27T18:29:50Z</time>
      </trkpt>
      <trkpt lat="59.9928051848" lon="23.4043316927">
        <ele>23.6</ele>
        <time>2012-02-27T18:29:54Z</time>
      </trkpt>
      <trkpt lat="59.9928532131" lon="23.4042826586">
        <ele>23.6</ele>
        <time>2012-02-27T18:29:56Z</time>
      </trkpt>
      <trkpt lat="59.9929403849" lon="23.4039802397">
        <ele>23.6</ele>
        <time>2012-02-27T18:30:02Z</time>
      </trkpt>
      <trkpt lat="59.9929480962" lon="23.4039032938">
        <ele>23.6</ele>
        <time>2012-02-27T18:30:03Z</time>
      </trkpt>
      <trkpt lat="59.9930059313" lon="23.4035249348">
        <ele>23.6</ele>
        <time>2012-02-27T18:30:07Z</time>
      </trkpt>
      <trkpt lat="59.9930730703" lon="23.4031454862">
        <ele>23.6</ele>
        <time>2012-02-27T18:30:10Z</time>
      </trkpt>
      <trkpt lat="59.9930893312" lon="23.4030234458">
        <ele>23.6</ele>
        <time>2012-02-27T18:30:11Z</time>
      </trkpt>
      <trkpt lat="59.9930907561" lon="23.4025660455">
        <ele>22.8</ele>
        <time>2012-02-27T18:30:16Z</time>
      </trkpt>
      <trkpt lat="59.9930884092" lon="23.4024963919">
        <ele>22.8</ele>
        <time>2012-02-27T18:30:17Z</time>
      </trkpt>
      <trkpt lat="59.9930843021" lon="23.402438473">
        <ele>22.6</ele>
        <time>2012-02-27T18:30:18Z</time>
      </trkpt>
      <trkpt lat="59.9930687956" lon="23.402311571">
        <ele>22.4</ele>
        <time>2012-02-27T18:30:21Z</time>
      </trkpt>
      <trkpt lat="59.9930431469" lon="23.402015187">
        <ele>21.8</ele>
        <time>2012-02-27T18:30:28Z</time>
      </trkpt>
      <trkpt lat="59.9930056799" lon="23.4017505704">
        <ele>21.8</ele>
        <time>2012-02-27T18:30:34Z</time>
      </trkpt>
      <trkpt lat="59.9929819591" lon="23.401466424">
        <ele>21.6</ele>
        <time>2012-02-27T18:30:40Z</time>
      </trkpt>
      <trkpt lat="59.992988497" lon="23.4012403642">
        <ele>21.6</ele>
        <time>2012-02-27T18:30:45Z</time>
      </trkpt>
      <trkpt lat="59.9929862338" lon="23.400932497">
        <ele>21.6</ele>
        <time>2012-02-27T18:30:51Z</time>
      </trkpt>
      <trkpt lat="59.9929730743" lon="23.4006604205">
        <ele>21.6</ele>
        <time>2012-02-27T18:30:55Z</time>
      </trkpt>
      <trkpt lat="59.9929687995" lon="23.4003932894">
        <ele>21.6</ele>
        <time>2012-02-27T18:31:01Z</time>
      </trkpt>
      <trkpt lat="59.9929480962" lon="23.4002496236">
        <ele>22.2</ele>
        <time>2012-02-27T18:31:06Z</time>
      </trkpt>
      <trkpt lat="59.9929158259" lon="23.4001365518">
        <ele>22.8</ele>
        <time>2012-02-27T18:31:11Z</time>
      </trkpt>
      <trkpt lat="59.99288892" lon="23.4000830752">
        <ele>23.2</ele>
        <time>2012-02-27T18:31:18Z</time>
      </trkpt>
      <trkpt lat="59.9927986469" lon="23.399938236">
        <ele>24.2</ele>
        <time>2012-02-27T18:31:24Z</time>
      </trkpt>
      <trkpt lat="59.9926940408" lon="23.3998420956">
        <ele>24.8</ele>
        <time>2012-02-27T18:31:30Z</time>
      </trkpt>
      <trkpt lat="59.9926811327" lon="23.3998268406">
        <ele>25</ele>
        <time>2012-02-27T18:31:31Z</time>
      </trkpt>
      <trkpt lat="59.9926186875" lon="23.3997677482">
        <ele>25.2</ele>
        <time>2012-02-27T18:31:34Z</time>
      </trkpt>
      <trkpt lat="59.9924401531" lon="23.3996323805">
        <ele>25.4</ele>
        <time>2012-02-27T18:31:39Z</time>
      </trkpt>
      <trkpt lat="59.9923033605" lon="23.3994447936">
        <ele>25.4</ele>
        <time>2012-02-27T18:31:42Z</time>
      </trkpt>
      <trkpt lat="59.9921560905" lon="23.3991834459">
        <ele>25.4</ele>
        <time>2012-02-27T18:31:45Z</time>
      </trkpt>
      <trkpt lat="59.9919804058" lon="23.3989306478">
        <ele>25.4</ele>
        <time>2012-02-27T18:31:48Z</time>
      </trkpt>
      <trkpt lat="59.9919164519" lon="23.3988621677">
        <ele>25.4</ele>
        <time>2012-02-27T18:31:49Z</time>
      </trkpt>
      <trkpt lat="59.9918516599" lon="23.3987987167">
        <ele>25.6</ele>
        <time>2012-02-27T18:31:50Z</time>
      </trkpt>
      <trkpt lat="59.9917493169" lon="23.3987603276">
        <ele>25.6</ele>
        <time>2012-02-27T18:31:52Z</time>
      </trkpt>
      <trkpt lat="59.9916007058" lon="23.3988135527">
        <ele>25.6</ele>
        <time>2012-02-27T18:31:55Z</time>
      </trkpt>
      <trkpt lat="59.9914692776" lon="23.3989205057">
        <ele>25.2</ele>
        <time>2012-02-27T18:31:59Z</time>
      </trkpt>
      <trkpt lat="59.9913093509" lon="23.3990651773">
        <ele>24.4</ele>
        <time>2012-02-27T18:32:04Z</time>
      </trkpt>
      <trkpt lat="59.9911863046" lon="23.3991609824">
        <ele>24.2</ele>
        <time>2012-02-27T18:32:08Z</time>
      </trkpt>
      <trkpt lat="59.9910268809" lon="23.3992123635">
        <ele>23.8</ele>
        <time>2012-02-27T18:32:13Z</time>
      </trkpt>
      <trkpt lat="59.9908726539" lon="23.3991350824">
        <ele>23.8</ele>
        <time>2012-02-27T18:32:18Z</time>
      </trkpt>
      <trkpt lat="59.9908106279" lon="23.3990409536">
        <ele>23.6</ele>
        <time>2012-02-27T18:32:22Z</time>
      </trkpt>
      <trkpt lat="59.9907469254" lon="23.3989096931">
        <ele>23.6</ele>
        <time>2012-02-27T18:32:26Z</time>
      </trkpt>
      <trkpt lat="59.9906622683" lon="23.3987477548">
        <ele>23.6</ele>
        <time>2012-02-27T18:32:31Z</time>
      </trkpt>
      <trkpt lat="59.9905792036" lon="23.3986667018">
        <ele>23.6</ele>
        <time>2012-02-27T18:32:36Z</time>
      </trkpt>
      <trkpt lat="59.9904713286" lon="23.3986883271">
        <ele>23.8</ele>
        <time>2012-02-27T18:32:41Z</time>
      </trkpt>
      <trkpt lat="59.990310899" lon="23.3988490919">
        <ele>24.4</ele>
        <time>2012-02-27T18:32:47Z</time>
      </trkpt>
      <trkpt lat="59.9901884394" lon="23.3989629181">
        <ele>25</ele>
        <time>2012-02-27T18:32:52Z</time>
      </trkpt>
      <trkpt lat="59.990111326" lon="23.3990466533">
        <ele>25</ele>
        <time>2012-02-27T18:32:55Z</time>
      </trkpt>
      <trkpt lat="59.990000182" lon="23.3992167221">
        <ele>25.2</ele>
        <time>2012-02-27T18:33:00Z</time>
      </trkpt>
      <trkpt lat="59.9899211407" lon="23.3993389302">
        <ele>25.4</ele>
        <time>2012-02-27T18:33:04Z</time>
      </trkpt>
      <trkpt lat="59.9898416802" lon="23.3994463861">
        <ele>25.4</ele>
        <time>2012-02-27T18:33:08Z</time>
      </trkpt>
      <trkpt lat="59.9897519101" lon="23.3995676722">
        <ele>25.6</ele>
        <time>2012-02-27T18:33:12Z</time>
      </trkpt>
      <trkpt lat="59.989636659" lon="23.39971687">
        <ele>26.4</ele>
        <time>2012-02-27T18:33:17Z</time>
      </trkpt>
      <trkpt lat="59.9895230842" lon="23.3998744498">
        <ele>27</ele>
        <time>2012-02-27T18:33:22Z</time>
      </trkpt>
      <trkpt lat="59.9894223338" lon="23.4000491286">
        <ele>27.2</ele>
        <time>2012-02-27T18:33:27Z</time>
      </trkpt>
      <trkpt lat="59.9893596372" lon="23.4003064529">
        <ele>27.4</ele>
        <time>2012-02-27T18:33:32Z</time>
      </trkpt>
      <trkpt lat="59.9892957671" lon="23.4006251327">
        <ele>27.4</ele>
        <time>2012-02-27T18:33:38Z</time>
      </trkpt>
      <trkpt lat="59.9893109383" lon="23.4009372747">
        <ele>27.4</ele>
        <time>2012-02-27T18:33:41Z</time>
      </trkpt>
      <trkpt lat="59.9894090904" lon="23.4013132867">
        <ele>27.6</ele>
        <time>2012-02-27T18:33:44Z</time>
      </trkpt>
      <trkpt lat="59.9894847789" lon="23.4016007021">
        <ele>27.6</ele>
        <time>2012-02-27T18:33:47Z</time>
      </trkpt>
      <trkpt lat="59.9894945019" lon="23.4016779832">
        <ele>27.6</ele>
        <time>2012-02-27T18:33:49Z</time>
      </trkpt>
      <trkpt lat="59.9895129421" lon="23.401766999">
        <ele>27.8</ele>
        <time>2012-02-27T18:33:55Z</time>
      </trkpt>
      <trkpt lat="59.9894806718" lon="23.4019507302">
        <ele>28.8</ele>
        <time>2012-02-27T18:34:02Z</time>
      </trkpt>
      <trkpt lat="59.989396769" lon="23.4021954817">
        <ele>29</ele>
        <time>2012-02-27T18:34:07Z</time>
      </trkpt>
      <trkpt lat="59.9892646702" lon="23.4025534726">
        <ele>29.2</ele>
        <time>2012-02-27T18:34:11Z</time>
      </trkpt>
      <trkpt lat="59.9891631654" lon="23.4029003157">
        <ele>29.4</ele>
        <time>2012-02-27T18:34:14Z</time>
      </trkpt>
      <trkpt lat="59.9890480819" lon="23.4033187401">
        <ele>29.4</ele>
        <time>2012-02-27T18:34:17Z</time>
      </trkpt>
      <trkpt lat="59.9889481697" lon="23.4036567821">
        <ele>29.4</ele>
        <time>2012-02-27T18:34:20Z</time>
      </trkpt>
      <trkpt lat="59.9889351778" lon="23.4037321354">
        <ele>29.4</ele>
        <time>2012-02-27T18:34:21Z</time>
      </trkpt>
      <trkpt lat="59.9889928452" lon="23.4038291978">
        <ele>29.6</ele>
        <time>2012-02-27T18:34:24Z</time>
      </trkpt>
      <trkpt lat="59.9890246126" lon="23.4037867016">
        <ele>29.6</ele>
        <time>2012-02-27T18:34:25Z</time>
      </trkpt>
      <trkpt lat="59.9890927575" lon="23.4036548543">
        <ele>29.6</ele>
        <time>2012-02-27T18:34:27Z</time>
      </trkpt>
      <trkpt lat="59.9891336611" lon="23.4035867933">
        <ele>29.4</ele>
        <time>2012-02-27T18:34:28Z</time>
      </trkpt>
      <trkpt lat="59.9892983655" lon="23.4033512619">
        <ele>28.8</ele>
        <time>2012-02-27T18:34:32Z</time>
      </trkpt>
      <trkpt lat="59.9893313063" lon="23.4033093524">
        <ele>28.6</ele>
        <time>2012-02-27T18:34:33Z</time>
      </trkpt>
      <trkpt lat="59.9895418597" lon="23.4032944326">
        <ele>27.4</ele>
        <time>2012-02-27T18:34:40Z</time>
      </trkpt>
      <trkpt lat="59.989620901" lon="23.4033708755">
        <ele>27</ele>
        <time>2012-02-27T18:34:42Z</time>
      </trkpt>
      <trkpt lat="59.9897753794" lon="23.4035164691">
        <ele>26.4</ele>
        <time>2012-02-27T18:34:47Z</time>
      </trkpt>
      <trkpt lat="59.9897918918" lon="23.4035270303">
        <ele>26.2</ele>
        <time>2012-02-27T18:34:48Z</time>
      </trkpt>
      <trkpt lat="59.9898214799" lon="23.4035384297">
        <ele>26</ele>
        <time>2012-02-27T18:34:51Z</time>
      </trkpt>
      <trkpt lat="59.9898494754" lon="23.4035605579">
        <ele>25.8</ele>
        <time>2012-02-27T18:34:55Z</time>
      </trkpt>
      <trkpt lat="59.9898865234" lon="23.4035932473">
        <ele>25.6</ele>
        <time>2012-02-27T18:35:02Z</time>
      </trkpt>
      <trkpt lat="59.9899125911" lon="23.4036139506">
        <ele>25.6</ele>
        <time>2012-02-27T18:35:07Z</time>
      </trkpt>
      <trkpt lat="59.989948298" lon="23.4036416109">
        <ele>25.4</ele>
        <time>2012-02-27T18:35:13Z</time>
      </trkpt>
      <trkpt lat="59.9899934764" lon="23.403666589">
        <ele>25.6</ele>
        <time>2012-02-27T18:35:19Z</time>
      </trkpt>
      <trkpt lat="59.99004184" lon="23.4037011224">
        <ele>26.6</ele>
        <time>2012-02-27T18:35:25Z</time>
      </trkpt>
      <trkpt lat="59.9900793071" lon="23.4037487316">
        <ele>27</ele>
        <time>2012-02-27T18:35:30Z</time>
      </trkpt>
      <trkpt lat="59.9901458594" lon="23.4037974304">
        <ele>28</ele>
        <time>2012-02-27T18:35:36Z</time>
      </trkpt>
      <trkpt lat="59.990257171" lon="23.4039107537">
        <ele>28.8</ele>
        <time>2012-02-27T18:35:42Z</time>
      </trkpt>
      <trkpt lat="59.9904834823" lon="23.4040355602">
        <ele>29.2</ele>
        <time>2012-02-27T18:35:48Z</time>
      </trkpt>
      <trkpt lat="59.9906985619" lon="23.4040522402">
        <ele>29.4</ele>
        <time>2012-02-27T18:35:53Z</time>
      </trkpt>
      <trkpt lat="59.9907498591" lon="23.4040540842">
        <ele>29.4</ele>
        <time>2012-02-27T18:35:54Z</time>
      </trkpt>
      <trkpt lat="59.9908946983" lon="23.4042608657">
        <ele>29.4</ele>
        <time>2012-02-27T18:35:57Z</time>
      </trkpt>
      <trkpt lat="59.9909120489" lon="23.404375111">
        <ele>29.4</ele>
        <time>2012-02-27T18:35:58Z</time>
      </trkpt>
      <trkpt lat="59.9909527849" lon="23.4048313378">
        <ele>29</ele>
        <time>2012-02-27T18:36:02Z</time>
      </trkpt>
      <trkpt lat="59.990952282" lon="23.4052713875">
        <ele>28.6</ele>
        <time>2012-02-27T18:36:06Z</time>
      </trkpt>
      <trkpt lat="59.9909626755" lon="23.40578151">
        <ele>28</ele>
        <time>2012-02-27T18:36:12Z</time>
      </trkpt>
      <trkpt lat="59.9909869831" lon="23.4058644908">
        <ele>28</ele>
        <time>2012-02-27T18:36:13Z</time>
      </trkpt>
      <trkpt lat="59.9910179961" lon="23.4059443703">
        <ele>28</ele>
        <time>2012-02-27T18:36:14Z</time>
      </trkpt>
      <trkpt lat="59.9911309003" lon="23.4060685062">
        <ele>27.8</ele>
        <time>2012-02-27T18:36:17Z</time>
      </trkpt>
      <trkpt lat="59.9912473249" lon="23.4060358168">
        <ele>27</ele>
        <time>2012-02-27T18:36:21Z</time>
      </trkpt>
      <trkpt lat="59.9913228458" lon="23.4059715276">
        <ele>26.6</ele>
        <time>2012-02-27T18:36:24Z</time>
      </trkpt>
      <trkpt lat="59.9913729696" lon="23.4059481421">
        <ele>26.4</ele>
        <time>2012-02-27T18:36:26Z</time>
      </trkpt>
      <trkpt lat="59.9914876339" lon="23.4059062326">
        <ele>26</ele>
        <time>2012-02-27T18:36:31Z</time>
      </trkpt>
      <trkpt lat="59.9915996161" lon="23.4058738785">
        <ele>25.8</ele>
        <time>2012-02-27T18:36:36Z</time>
      </trkpt>
      <trkpt lat="59.9917131071" lon="23.4058384231">
        <ele>25.8</ele>
        <time>2012-02-27T18:36:41Z</time>
      </trkpt>
      <trkpt lat="59.99189885" lon="23.4057153768">
        <ele>25.6</ele>
        <time>2012-02-27T18:36:49Z</time>
      </trkpt>
      <trkpt lat="59.9919958285" lon="23.4055776622">
        <ele>25.6</ele>
        <time>2012-02-27T18:36:54Z</time>
      </trkpt>
      <trkpt lat="59.9920676614" lon="23.405435086">
        <ele>25.6</ele>
        <time>2012-02-27T18:36:58Z</time>
      </trkpt>
      <trkpt lat="59.9921443558" lon="23.40524247">
        <ele>25.6</ele>
        <time>2012-02-27T18:37:03Z</time>
      </trkpt>
      <trkpt lat="59.9922367243" lon="23.4050998939">
        <ele>25.6</ele>
        <time>2012-02-27T18:37:08Z</time>
      </trkpt>
      <trkpt lat="59.9923634587" lon="23.4050018256">
        <ele>25.6</ele>
        <time>2012-02-27T18:37:13Z</time>
      </trkpt>
      <trkpt lat="59.9924927914" lon="23.4049599161">
        <ele>25.6</ele>
        <time>2012-02-27T18:37:18Z</time>
      </trkpt>
      <trkpt lat="59.9926429112" lon="23.4050146499">
        <ele>25.6</ele>
        <time>2012-02-27T18:37:25Z</time>
      </trkpt>
      <trkpt lat="59.9928286541" lon="23.4050336768">
        <ele>25.6</ele>
        <time>2012-02-27T18:37:30Z</time>
      </trkpt>
      <trkpt lat="59.9930465835" lon="23.4049486844">
        <ele>25.6</ele>
        <time>2012-02-27T18:37:34Z</time>
      </trkpt>
      <trkpt lat="59.9933117868" lon="23.4044989954">
        <ele>24.8</ele>
        <time>2012-02-27T18:37:39Z</time>
      </trkpt>
      <trkpt lat="59.9933398662" lon="23.4043826547">
        <ele>24.6</ele>
        <time>2012-02-27T18:37:40Z</time>
      </trkpt>
      <trkpt lat="59.99338999" lon="23.4040991788">
        <ele>24.2</ele>
        <time>2012-02-27T18:37:43Z</time>
      </trkpt>
      <trkpt lat="59.9934271218" lon="23.403829114">
        <ele>23.2</ele>
        <time>2012-02-27T18:37:47Z</time>
      </trkpt>
      <trkpt lat="59.9934338273" lon="23.4037297885">
        <ele>22.8</ele>
        <time>2012-02-27T18:37:49Z</time>
      </trkpt>
      <trkpt lat="59.9934716297" lon="23.4034811813">
        <ele>22</ele>
        <time>2012-02-27T18:37:54Z</time>
      </trkpt>
      <trkpt lat="59.9935194903" lon="23.403182199">
        <ele>21.6</ele>
        <time>2012-02-27T18:38:00Z</time>
      </trkpt>
      <trkpt lat="59.9935684406" lon="23.4029199293">
        <ele>21.4</ele>
        <time>2012-02-27T18:38:05Z</time>
      </trkpt>
      <trkpt lat="59.9936195702" lon="23.4027195181">
        <ele>21.2</ele>
        <time>2012-02-27T18:38:09Z</time>
      </trkpt>
      <trkpt lat="59.9936567858" lon="23.4025548137">
        <ele>21.2</ele>
        <time>2012-02-27T18:38:12Z</time>
      </trkpt>
      <trkpt lat="59.9937264394" lon="23.4023127445">
        <ele>21.2</ele>
        <time>2012-02-27T18:38:17Z</time>
      </trkpt>
      <trkpt lat="59.9937908124" lon="23.40207956">
        <ele>21</ele>
        <time>2012-02-27T18:38:22Z</time>
      </trkpt>
      <trkpt lat="59.9938574485" lon="23.4018512371">
        <ele>21</ele>
        <time>2012-02-27T18:38:27Z</time>
      </trkpt>
      <trkpt lat="59.9939385015" lon="23.4016503229">
        <ele>21</ele>
        <time>2012-02-27T18:38:32Z</time>
      </trkpt>
      <trkpt lat="59.994053585" lon="23.4015028853">
        <ele>21</ele>
        <time>2012-02-27T18:38:37Z</time>
      </trkpt>
      <trkpt lat="59.994188785" lon="23.4013757319">
        <ele>21</ele>
        <time>2012-02-27T18:38:43Z</time>
      </trkpt>
      <trkpt lat="59.994374947" lon="23.4012153023">
        <ele>21</ele>
        <time>2012-02-27T18:38:49Z</time>
      </trkpt>
      <trkpt lat="59.994524564" lon="23.4010900767">
        <ele>21</ele>
        <time>2012-02-27T18:38:54Z</time>
      </trkpt>
      <trkpt lat="59.9946690679" lon="23.4009604087">
        <ele>21</ele>
        <time>2012-02-27T18:39:00Z</time>
      </trkpt>
      <trkpt lat="59.9947872527" lon="23.4008119653">
        <ele>21</ele>
        <time>2012-02-27T18:39:05Z</time>
      </trkpt>
      <trkpt lat="59.9948706526" lon="23.4006998155">
        <ele>21</ele>
        <time>2012-02-27T18:39:09Z</time>
      </trkpt>
      <trkpt lat="59.9949345227" lon="23.4005926948">
        <ele>21</ele>
        <time>2012-02-27T18:39:13Z</time>
      </trkpt>
      <trkpt lat="59.9949569862" lon="23.4005061936">
        <ele>21</ele>
        <time>2012-02-27T18:39:18Z</time>
      </trkpt>
      <trkpt lat="59.994989005" lon="23.4004357018">
        <ele>21.8</ele>
        <time>2012-02-27T18:39:25Z</time>
      </trkpt>
      <trkpt lat="59.9950013264" lon="23.4004025095">
        <ele>22</ele>
        <time>2012-02-27T18:39:27Z</time>
      </trkpt>
      <trkpt lat="59.9950537133" lon="23.4002705784">
        <ele>23.6</ele>
        <time>2012-02-27T18:39:35Z</time>
      </trkpt>
      <trkpt lat="59.9950843072" lon="23.400169325">
        <ele>25</ele>
        <time>2012-02-27T18:39:41Z</time>
      </trkpt>
      <trkpt lat="59.9951060164" lon="23.4000664791">
        <ele>26</ele>
        <time>2012-02-27T18:39:46Z</time>
      </trkpt>
      <trkpt lat="59.9951337604" lon="23.3999308599">
        <ele>27.4</ele>
        <time>2012-02-27T18:39:53Z</time>
      </trkpt>
      <trkpt lat="59.9951465009" lon="23.3997892897">
        <ele>28.4</ele>
        <time>2012-02-27T18:39:59Z</time>
      </trkpt>
      <trkpt lat="59.9951457466" lon="23.3997224859">
        <ele>28.6</ele>
        <time>2012-02-27T18:40:02Z</time>
      </trkpt>
      <trkpt lat="59.9951359397" lon="23.3996448695">
        <ele>29</ele>
        <time>2012-02-27T18:40:06Z</time>
      </trkpt>
      <trkpt lat="59.9950956228" lon="23.3994790755">
        <ele>30.4</ele>
        <time>2012-02-27T18:40:14Z</time>
      </trkpt>
      <trkpt lat="59.9950490194" lon="23.3993831028">
        <ele>30.8</ele>
        <time>2012-02-27T18:40:18Z</time>
      </trkpt>
      <trkpt lat="59.9949821319" lon="23.3992602241">
        <ele>31.2</ele>
        <time>2012-02-27T18:40:23Z</time>
      </trkpt>
      <trkpt lat="59.994910299" lon="23.3992094298">
        <ele>31.2</ele>
        <time>2012-02-27T18:40:25Z</time>
      </trkpt>
      <trkpt lat="59.9948735863" lon="23.3991800093">
        <ele>31.2</ele>
        <time>2012-02-27T18:40:26Z</time>
      </trkpt>
      <trkpt lat="59.9947427448" lon="23.3990812706">
        <ele>31.4</ele>
        <time>2012-02-27T18:40:30Z</time>
      </trkpt>
      <trkpt lat="59.9946679783" lon="23.3989679473">
        <ele>31.4</ele>
        <time>2012-02-27T18:40:34Z</time>
      </trkpt>
      <trkpt lat="59.994609305" lon="23.3987038336">
        <ele>31.6</ele>
        <time>2012-02-27T18:40:39Z</time>
      </trkpt>
      <trkpt lat="59.9945679822" lon="23.3984558132">
        <ele>31.6</ele>
        <time>2012-02-27T18:40:43Z</time>
      </trkpt>
      <trkpt lat="59.9945057885" lon="23.3982584194">
        <ele>30.8</ele>
        <time>2012-02-27T18:40:48Z</time>
      </trkpt>
      <trkpt lat="59.9943985002" lon="23.3981268236">
        <ele>30.4</ele>
        <time>2012-02-27T18:40:52Z</time>
      </trkpt>
      <trkpt lat="59.994219379" lon="23.3979073855">
        <ele>30</ele>
        <time>2012-02-27T18:40:57Z</time>
      </trkpt>
      <trkpt lat="59.9941043793" lon="23.3975782283">
        <ele>29.8</ele>
        <time>2012-02-27T18:41:03Z</time>
      </trkpt>
      <trkpt lat="59.9940305348" lon="23.3972335645">
        <ele>29.4</ele>
        <time>2012-02-27T18:41:07Z</time>
      </trkpt>
      <trkpt lat="59.9939027108" lon="23.3968251145">
        <ele>28.8</ele>
        <time>2012-02-27T18:41:10Z</time>
      </trkpt>
      <trkpt lat="59.9937730428" lon="23.3964859829">
        <ele>28.2</ele>
        <time>2012-02-27T18:41:12Z</time>
      </trkpt>
      <trkpt lat="59.9936448835" lon="23.3961889283">
        <ele>27.6</ele>
        <time>2012-02-27T18:41:14Z</time>
      </trkpt>
      <trkpt lat="59.9934750663" lon="23.3958430911">
        <ele>26.4</ele>
        <time>2012-02-27T18:41:17Z</time>
      </trkpt>
      <trkpt lat="59.993333496" lon="23.3955710147">
        <ele>25.2</ele>
        <time>2012-02-27T18:41:21Z</time>
      </trkpt>
      <trkpt lat="59.9933181571" lon="23.3955441088">
        <ele>25</ele>
        <time>2012-02-27T18:41:22Z</time>
      </trkpt>
      <trkpt lat="59.9932912512" lon="23.3954997685">
        <ele>24.4</ele>
        <time>2012-02-27T18:41:26Z</time>
      </trkpt>
      <trkpt lat="59.9932316559" lon="23.395404131">
        <ele>23.8</ele>
        <time>2012-02-27T18:41:30Z</time>
      </trkpt>
      <trkpt lat="59.9931049215" lon="23.3952070726">
        <ele>23.4</ele>
        <time>2012-02-27T18:41:37Z</time>
      </trkpt>
      <trkpt lat="59.9929320868" lon="23.3949418692">
        <ele>23.2</ele>
        <time>2012-02-27T18:41:46Z</time>
      </trkpt>
      <trkpt lat="59.992846759" lon="23.3947917494">
        <ele>23</ele>
        <time>2012-02-27T18:41:51Z</time>
      </trkpt>
      <trkpt lat="59.9928366169" lon="23.3947650112">
        <ele>23</ele>
        <time>2012-02-27T18:41:52Z</time>
      </trkpt>
      <trkpt lat="59.9927736689" lon="23.3946267098">
        <ele>23.4</ele>
        <time>2012-02-27T18:41:57Z</time>
      </trkpt>
      <trkpt lat="59.9926811327" lon="23.3944553">
        <ele>24.2</ele>
        <time>2012-02-27T18:42:03Z</time>
      </trkpt>
      <trkpt lat="59.9925915302" lon="23.3942945351">
        <ele>24.8</ele>
        <time>2012-02-27T18:42:08Z</time>
      </trkpt>
      <trkpt lat="59.9925405682" lon="23.394189929">
        <ele>25.4</ele>
        <time>2012-02-27T18:42:11Z</time>
      </trkpt>
      <trkpt lat="59.9924433382" lon="23.3940124842">
        <ele>26.2</ele>
        <time>2012-02-27T18:42:16Z</time>
      </trkpt>
      <trkpt lat="59.9923813959" lon="23.3938516355">
        <ele>27</ele>
        <time>2012-02-27T18:42:20Z</time>
      </trkpt>
      <trkpt lat="59.9923209624" lon="23.3936648868">
        <ele>27.8</ele>
        <time>2012-02-27T18:42:25Z</time>
      </trkpt>
      <trkpt lat="59.9922710063" lon="23.393461039">
        <ele>28.4</ele>
        <time>2012-02-27T18:42:30Z</time>
      </trkpt>
      <trkpt lat="59.9922266661" lon="23.3932508209">
        <ele>29.6</ele>
        <time>2012-02-27T18:42:35Z</time>
      </trkpt>
      <trkpt lat="59.9921730219" lon="23.3930497391">
        <ele>30</ele>
        <time>2012-02-27T18:42:39Z</time>
      </trkpt>
      <trkpt lat="59.9921006861" lon="23.392825691">
        <ele>31.2</ele>
        <time>2012-02-27T18:42:45Z</time>
      </trkpt>
      <trkpt lat="59.9920150231" lon="23.3926954362">
        <ele>32</ele>
        <time>2012-02-27T18:42:50Z</time>
      </trkpt>
      <trkpt lat="59.991875213" lon="23.3925758265">
        <ele>32.8</ele>
        <time>2012-02-27T18:42:55Z</time>
      </trkpt>
      <trkpt lat="59.9917561062" lon="23.3926499225">
        <ele>33.6</ele>
        <time>2012-02-27T18:42:59Z</time>
      </trkpt>
      <trkpt lat="59.9917289488" lon="23.3926904071">
        <ele>33.8</ele>
        <time>2012-02-27T18:43:00Z</time>
      </trkpt>
      <trkpt lat="59.9916212414" lon="23.3928801733">
        <ele>34.4</ele>
        <time>2012-02-27T18:43:05Z</time>
      </trkpt>
      <trkpt lat="59.9915432898" lon="23.3929328955">
        <ele>34.6</ele>
        <time>2012-02-27T18:43:09Z</time>
      </trkpt>
      <trkpt lat="59.9914156334" lon="23.3929810076">
        <ele>34.8</ele>
        <time>2012-02-27T18:43:14Z</time>
      </trkpt>
      <trkpt lat="59.9912410384" lon="23.3931099212">
        <ele>35</ele>
        <time>2012-02-27T18:43:20Z</time>
      </trkpt>
      <trkpt lat="59.9910559661" lon="23.3931177163">
        <ele>35.2</ele>
        <time>2012-02-27T18:43:25Z</time>
      </trkpt>
      <trkpt lat="59.9908581533" lon="23.3931741265">
        <ele>35.2</ele>
        <time>2012-02-27T18:43:29Z</time>
      </trkpt>
      <trkpt lat="59.9906391342" lon="23.3933197201">
        <ele>35.2</ele>
        <time>2012-02-27T18:43:33Z</time>
      </trkpt>
      <trkpt lat="59.9905874179" lon="23.3933700954">
        <ele>35.2</ele>
        <time>2012-02-27T18:43:34Z</time>
      </trkpt>
      <trkpt lat="59.9904338615" lon="23.3941594189">
        <ele>34.2</ele>
        <time>2012-02-27T18:43:43Z</time>
      </trkpt>
      <trkpt lat="59.9904304249" lon="23.3942344369">
        <ele>34</ele>
        <time>2012-02-27T18:43:44Z</time>
      </trkpt>
      <trkpt lat="59.990410476" lon="23.39440065">
        <ele>33.8</ele>
        <time>2012-02-27T18:43:46Z</time>
      </trkpt>
      <trkpt lat="59.9904034352" lon="23.3944590718">
        <ele>33.8</ele>
        <time>2012-02-27T18:43:47Z</time>
      </trkpt>
      <trkpt lat="59.9903577538" lon="23.3946646798">
        <ele>33.6</ele>
        <time>2012-02-27T18:43:49Z</time>
      </trkpt>
      <trkpt lat="59.9902414969" lon="23.3951006224">
        <ele>33.4</ele>
        <time>2012-02-27T18:43:54Z</time>
      </trkpt>
      <trkpt lat="59.9902207098" lon="23.395200367">
        <ele>33.4</ele>
        <time>2012-02-27T18:43:55Z</time>
      </trkpt>
      <trkpt lat="59.990178465" lon="23.3955016125">
        <ele>33.4</ele>
        <time>2012-02-27T18:43:58Z</time>
      </trkpt>
      <trkpt lat="59.9902216318" lon="23.3958480365">
        <ele>33.2</ele>
        <time>2012-02-27T18:44:02Z</time>
      </trkpt>
      <trkpt lat="59.9902706659" lon="23.3959762795">
        <ele>33.2</ele>
        <time>2012-02-27T18:44:04Z</time>
      </trkpt>
      <trkpt lat="59.9903110666" lon="23.3960944643">
        <ele>33.2</ele>
        <time>2012-02-27T18:44:06Z</time>
      </trkpt>
      <trkpt lat="59.9903414929" lon="23.3963251342">
        <ele>33.2</ele>
        <time>2012-02-27T18:44:10Z</time>
      </trkpt>
      <trkpt lat="59.9902963145" lon="23.3966952789">
        <ele>33.2</ele>
        <time>2012-02-27T18:44:15Z</time>
      </trkpt>
      <trkpt lat="59.9902466936" lon="23.3968811894">
        <ele>33.2</ele>
        <time>2012-02-27T18:44:18Z</time>
      </trkpt>
      <trkpt lat="59.9901562529" lon="23.3971330655">
        <ele>33.2</ele>
        <time>2012-02-27T18:44:22Z</time>
      </trkpt>
      <trkpt lat="59.9900540776" lon="23.3974136916">
        <ele>33.2</ele>
        <time>2012-02-27T18:44:26Z</time>
      </trkpt>
      <trkpt lat="59.9900305244" lon="23.397482926">
        <ele>33.2</ele>
        <time>2012-02-27T18:44:27Z</time>
      </trkpt>
      <trkpt lat="59.9900106593" lon="23.3975503165">
        <ele>33.2</ele>
        <time>2012-02-27T18:44:28Z</time>
      </trkpt>
      <trkpt lat="59.9899744495" lon="23.397828428">
        <ele>33.2</ele>
        <time>2012-02-27T18:44:33Z</time>
      </trkpt>
      <trkpt lat="59.9899749525" lon="23.397887688">
        <ele>33.2</ele>
        <time>2012-02-27T18:44:34Z</time>
      </trkpt>
      <trkpt lat="59.9900724339" lon="23.3983185177">
        <ele>33.2</ele>
        <time>2012-02-27T18:44:43Z</time>
      </trkpt>
      <trkpt lat="59.9901649701" lon="23.3987041689">
        <ele>33.2</ele>
        <time>2012-02-27T18:44:50Z</time>
      </trkpt>
      <trkpt lat="59.9901064645" lon="23.399016227">
        <ele>33.2</ele>
        <time>2012-02-27T18:44:53Z</time>
      </trkpt>
      <trkpt lat="59.990071009" lon="23.3990936758">
        <ele>33.2</ele>
        <time>2012-02-27T18:44:54Z</time>
      </trkpt>
      <trkpt lat="59.9899144351" lon="23.3992929135">
        <ele>32.4</ele>
        <time>2012-02-27T18:44:59Z</time>
      </trkpt>
      <trkpt lat="59.9898965817" lon="23.3993204062">
        <ele>32.4</ele>
        <time>2012-02-27T18:45:00Z</time>
      </trkpt>
      <trkpt lat="59.9897854377" lon="23.3994797461">
        <ele>31.8</ele>
        <time>2012-02-27T18:45:05Z</time>
      </trkpt>
      <trkpt lat="59.9896647383" lon="23.3996607951">
        <ele>31.4</ele>
        <time>2012-02-27T18:45:11Z</time>
      </trkpt>
      <trkpt lat="59.9895548516" lon="23.3998394972">
        <ele>31.4</ele>
        <time>2012-02-27T18:45:16Z</time>
      </trkpt>
      <trkpt lat="59.9894507484" lon="23.3999788882">
        <ele>31.2</ele>
        <time>2012-02-27T18:45:21Z</time>
      </trkpt>
      <trkpt lat="59.9894230043" lon="23.4000310237">
        <ele>31.2</ele>
        <time>2012-02-27T18:45:26Z</time>
      </trkpt>
      <trkpt lat="59.9894294584" lon="23.4000161039">
        <ele>31.2</ele>
        <time>2012-02-27T18:45:32Z</time>
      </trkpt>
      <trkpt lat="59.9894311348" lon="23.4000213845">
        <ele>31.2</ele>
        <time>2012-02-27T18:45:34Z</time>
      </trkpt>
      <trkpt lat="59.989339353" lon="23.4003640365">
        <ele>31.2</ele>
        <time>2012-02-27T18:45:43Z</time>
      </trkpt>
      <trkpt lat="59.9892956833" lon="23.400617589">
        <ele>32</ele>
        <time>2012-02-27T18:45:49Z</time>
      </trkpt>
      <trkpt lat="59.9892861279" lon="23.4006757594">
        <ele>32</ele>
        <time>2012-02-27T18:45:50Z</time>
      </trkpt>
      <trkpt lat="59.9892923305" lon="23.4008839658">
        <ele>32.2</ele>
        <time>2012-02-27T18:45:52Z</time>
      </trkpt>
      <trkpt lat="59.9894302966" lon="23.4014147077">
        <ele>32.6</ele>
        <time>2012-02-27T18:45:56Z</time>
      </trkpt>
      <trkpt lat="59.9894872097" lon="23.4016966748">
        <ele>32.8</ele>
        <time>2012-02-27T18:46:00Z</time>
      </trkpt>
      <trkpt lat="59.989500034" lon="23.4017544261">
        <ele>32.8</ele>
        <time>2012-02-27T18:46:04Z</time>
      </trkpt>
      <trkpt lat="59.9894857848" lon="23.4018963317">
        <ele>33.2</ele>
        <time>2012-02-27T18:46:09Z</time>
      </trkpt>
      <trkpt lat="59.9893987806" lon="23.4021582661">
        <ele>34</ele>
        <time>2012-02-27T18:46:15Z</time>
      </trkpt>
      <trkpt lat="59.989274058" lon="23.4024922009">
        <ele>34.4</ele>
        <time>2012-02-27T18:46:19Z</time>
      </trkpt>
      <trkpt lat="59.9891432165" lon="23.4029079432">
        <ele>34.4</ele>
        <time>2012-02-27T18:46:23Z</time>
      </trkpt>
      <trkpt lat="59.9890417117" lon="23.4032778364">
        <ele>34</ele>
        <time>2012-02-27T18:46:26Z</time>
      </trkpt>
      <trkpt lat="59.9889399554" lon="23.403621662">
        <ele>33.4</ele>
        <time>2012-02-27T18:46:29Z</time>
      </trkpt>
      <trkpt lat="59.988922102" lon="23.4037034693">
        <ele>33</ele>
        <time>2012-02-27T18:46:30Z</time>
      </trkpt>
      <trkpt lat="59.9889618322" lon="23.403820313">
        <ele>32.4</ele>
        <time>2012-02-27T18:46:33Z</time>
      </trkpt>
      <trkpt lat="59.9890242774" lon="23.4037657468">
        <ele>32</ele>
        <time>2012-02-27T18:46:35Z</time>
      </trkpt>
      <trkpt lat="59.9891343317" lon="23.4035775732">
        <ele>31</ele>
        <time>2012-02-27T18:46:38Z</time>
      </trkpt>
      <trkpt lat="59.9893012991" lon="23.4033574645">
        <ele>29.8</ele>
        <time>2012-02-27T18:46:42Z</time>
      </trkpt>
      <trkpt lat="59.9894233396" lon="23.4032549538">
        <ele>28.6</ele>
        <time>2012-02-27T18:46:46Z</time>
      </trkpt>
      <trkpt lat="59.9896131896" lon="23.4033598952">
        <ele>27.2</ele>
        <time>2012-02-27T18:46:51Z</time>
      </trkpt>
      <trkpt lat="59.9896488965" lon="23.4033904054">
        <ele>27</ele>
        <time>2012-02-27T18:46:52Z</time>
      </trkpt>
      <trkpt lat="59.9897863597" lon="23.4034976099">
        <ele>26</ele>
        <time>2012-02-27T18:46:56Z</time>
      </trkpt>
      <trkpt lat="59.9898273472" lon="23.4035399384">
        <ele>25.4</ele>
        <time>2012-02-27T18:47:00Z</time>
      </trkpt>
      <trkpt lat="59.9898488049" lon="23.4035527628">
        <ele>24.2</ele>
        <time>2012-02-27T18:47:05Z</time>
      </trkpt>
      <trkpt lat="59.9898836736" lon="23.4035753101">
        <ele>23.2</ele>
        <time>2012-02-27T18:47:11Z</time>
      </trkpt>
      <trkpt lat="59.9899071429" lon="23.4036002043">
        <ele>22.8</ele>
        <time>2012-02-27T18:47:15Z</time>
      </trkpt>
      <trkpt lat="59.9899451967" lon="23.4036294571">
        <ele>22.6</ele>
        <time>2012-02-27T18:47:21Z</time>
      </trkpt>
      <trkpt lat="59.989983502" lon="23.4036476459">
        <ele>23.4</ele>
        <time>2012-02-27T18:47:27Z</time>
      </trkpt>
      <trkpt lat="59.9900201309" lon="23.4036734621">
        <ele>24.4</ele>
        <time>2012-02-27T18:47:33Z</time>
      </trkpt>
      <trkpt lat="59.9900891977" lon="23.4037325545">
        <ele>25.8</ele>
        <time>2012-02-27T18:47:41Z</time>
      </trkpt>
      <trkpt lat="59.9901484578" lon="23.4037924013">
        <ele>27</ele>
        <time>2012-02-27T18:47:47Z</time>
      </trkpt>
      <trkpt lat="59.9902699115" lon="23.4039028747">
        <ele>27.6</ele>
        <time>2012-02-27T18:47:53Z</time>
      </trkpt>
      <trkpt lat="59.9904501224" lon="23.4040056368">
        <ele>28</ele>
        <time>2012-02-27T18:47:58Z</time>
      </trkpt>
      <trkpt lat="59.9906522938" lon="23.4040288547">
        <ele>28.2</ele>
        <time>2012-02-27T18:48:03Z</time>
      </trkpt>
      <trkpt lat="59.990699903" lon="23.4040291061">
        <ele>28.2</ele>
        <time>2012-02-27T18:48:04Z</time>
      </trkpt>
      <trkpt lat="59.9908905912" lon="23.4042383184">
        <ele>28.2</ele>
        <time>2012-02-27T18:48:08Z</time>
      </trkpt>
      <trkpt lat="59.9909215204" lon="23.404465384">
        <ele>28.2</ele>
        <time>2012-02-27T18:48:10Z</time>
      </trkpt>
      <trkpt lat="59.9909449059" lon="23.4047082915">
        <ele>28.2</ele>
        <time>2012-02-27T18:48:12Z</time>
      </trkpt>
      <trkpt lat="59.9909574788" lon="23.4050434837">
        <ele>28.2</ele>
        <time>2012-02-27T18:48:15Z</time>
      </trkpt>
      <trkpt lat="59.9909433972" lon="23.4052903306">
        <ele>28</ele>
        <time>2012-02-27T18:48:18Z</time>
      </trkpt>
      <trkpt lat="59.990938368" lon="23.4055341601">
        <ele>27.4</ele>
        <time>2012-02-27T18:48:22Z</time>
      </trkpt>
      <trkpt lat="59.9909402959" lon="23.405662487">
        <ele>27.2</ele>
        <time>2012-02-27T18:48:24Z</time>
      </trkpt>
      <trkpt lat="59.9910099495" lon="23.4059395088">
        <ele>27</ele>
        <time>2012-02-27T18:48:28Z</time>
      </trkpt>
      <trkpt lat="59.9911530285" lon="23.4060537541">
        <ele>26.8</ele>
        <time>2012-02-27T18:48:32Z</time>
      </trkpt>
      <trkpt lat="59.991183371" lon="23.4060473">
        <ele>26.6</ele>
        <time>2012-02-27T18:48:33Z</time>
      </trkpt>
      <trkpt lat="59.9913271206" lon="23.40599265">
        <ele>26.6</ele>
        <time>2012-02-27T18:48:38Z</time>
      </trkpt>
      <trkpt lat="59.9914939204" lon="23.4059210686">
        <ele>26.4</ele>
        <time>2012-02-27T18:48:45Z</time>
      </trkpt>
      <trkpt lat="59.9916312159" lon="23.4058784885">
        <ele>26.4</ele>
        <time>2012-02-27T18:48:51Z</time>
      </trkpt>
      <trkpt lat="59.9917202317" lon="23.4058554383">
        <ele>26.4</ele>
        <time>2012-02-27T18:48:55Z</time>
      </trkpt>
      <trkpt lat="59.991884936" lon="23.4057564481">
        <ele>26.4</ele>
        <time>2012-02-27T18:49:02Z</time>
      </trkpt>
      <trkpt lat="59.9919852673" lon="23.4056295461">
        <ele>26.4</ele>
        <time>2012-02-27T18:49:07Z</time>
      </trkpt>
      <trkpt lat="59.9920510653" lon="23.4054627463">
        <ele>26.4</ele>
        <time>2012-02-27T18:49:12Z</time>
      </trkpt>
      <trkpt lat="59.9921092356" lon="23.4052844633">
        <ele>26.4</ele>
        <time>2012-02-27T18:49:17Z</time>
      </trkpt>
      <trkpt lat="59.9922052084" lon="23.4051069347">
        <ele>26.4</ele>
        <time>2012-02-27T18:49:23Z</time>
      </trkpt>
      <trkpt lat="59.9922854232" lon="23.4050202658">
        <ele>26.4</ele>
        <time>2012-02-27T18:49:27Z</time>
      </trkpt>
      <trkpt lat="59.9923913704" lon="23.4049230358">
        <ele>26.4</ele>
        <time>2012-02-27T18:49:31Z</time>
      </trkpt>
      <trkpt lat="59.9924782907" lon="23.4047616004">
        <ele>26.4</ele>
        <time>2012-02-27T18:49:36Z</time>
      </trkpt>
      <trkpt lat="59.9925539793" lon="23.404591364">
        <ele>26.4</ele>
        <time>2012-02-27T18:49:47Z</time>
      </trkpt>
      <trkpt lat="59.9926635307" lon="23.4044216305">
        <ele>26.4</ele>
        <time>2012-02-27T18:49:52Z</time>
      </trkpt>
      <trkpt lat="59.9928130638" lon="23.4043152642">
        <ele>26.4</ele>
        <time>2012-02-27T18:49:58Z</time>
      </trkpt>
      <trkpt lat="59.9928860701" lon="23.4042268352">
        <ele>26.4</ele>
        <time>2012-02-27T18:50:02Z</time>
      </trkpt>
      <trkpt lat="59.9929447434" lon="23.4040017811">
        <ele>26.4</ele>
        <time>2012-02-27T18:50:08Z</time>
      </trkpt>
      <trkpt lat="59.9929948672" lon="23.4035938341">
        <ele>26.4</ele>
        <time>2012-02-27T18:50:13Z</time>
      </trkpt>
      <trkpt lat="59.9930647722" lon="23.4032536966">
        <ele>26.4</ele>
        <time>2012-02-27T18:50:16Z</time>
      </trkpt>
      <trkpt lat="59.9930849726" lon="23.4031207596">
        <ele>26.4</ele>
        <time>2012-02-27T18:50:17Z</time>
      </trkpt>
      <trkpt lat="59.9931029099" lon="23.4027916862">
        <ele>26.4</ele>
        <time>2012-02-27T18:50:20Z</time>
      </trkpt>
      <trkpt lat="59.9931103698" lon="23.4025005828">
        <ele>26.4</ele>
        <time>2012-02-27T18:50:24Z</time>
      </trkpt>
      <trkpt lat="59.993107017" lon="23.4024548177">
        <ele>26.4</ele>
        <time>2012-02-27T18:50:25Z</time>
      </trkpt>
      <trkpt lat="59.9930873196" lon="23.4022479524">
        <ele>26.4</ele>
        <time>2012-02-27T18:50:30Z</time>
      </trkpt>
      <trkpt lat="59.9930643532" lon="23.4020144326">
        <ele>26.4</ele>
        <time>2012-02-27T18:50:36Z</time>
      </trkpt>
      <trkpt lat="59.993021354" lon="23.4017131872">
        <ele>26.4</ele>
        <time>2012-02-27T18:50:43Z</time>
      </trkpt>
      <trkpt lat="59.9929987229" lon="23.4013684396">
        <ele>26.4</ele>
        <time>2012-02-27T18:50:50Z</time>
      </trkpt>
      <trkpt lat="59.9930002316" lon="23.4011160606">
        <ele>26.4</ele>
        <time>2012-02-27T18:50:56Z</time>
      </trkpt>
      <trkpt lat="59.9929981361" lon="23.4008335906">
        <ele>26.4</ele>
        <time>2012-02-27T18:51:01Z</time>
      </trkpt>
      <trkpt lat="59.9929934423" lon="23.4005781103">
        <ele>26.4</ele>
        <time>2012-02-27T18:51:06Z</time>
      </trkpt>
      <trkpt lat="59.9929817076" lon="23.4003757712">
        <ele>26.4</ele>
        <time>2012-02-27T18:51:11Z</time>
      </trkpt>
      <trkpt lat="59.9929383732" lon="23.4001884357">
        <ele>26.4</ele>
        <time>2012-02-27T18:51:17Z</time>
      </trkpt>
      <trkpt lat="59.9928940329" lon="23.4000661438">
        <ele>26.6</ele>
        <time>2012-02-27T18:51:22Z</time>
      </trkpt>
      <trkpt lat="59.9927936178" lon="23.3999196282">
        <ele>27.4</ele>
        <time>2012-02-27T18:51:28Z</time>
      </trkpt>
      <trkpt lat="59.9927127324" lon="23.3998485497">
        <ele>27.8</ele>
        <time>2012-02-27T18:51:32Z</time>
      </trkpt>
      <trkpt lat="59.9925488663" lon="23.3997318736">
        <ele>28.2</ele>
        <time>2012-02-27T18:51:41Z</time>
      </trkpt>
      <trkpt lat="59.9923710024" lon="23.3995696001">
        <ele>28.2</ele>
        <time>2012-02-27T18:51:46Z</time>
      </trkpt>
      <trkpt lat="59.9921893666" lon="23.3992739704">
        <ele>28.4</ele>
        <time>2012-02-27T18:51:50Z</time>
      </trkpt>
      <trkpt lat="59.9920232374" lon="23.399005582">
        <ele>28.4</ele>
        <time>2012-02-27T18:51:53Z</time>
      </trkpt>
      <trkpt lat="59.9919633906" lon="23.398929642">
        <ele>28.4</ele>
        <time>2012-02-27T18:51:54Z</time>
      </trkpt>
      <trkpt lat="59.9917199802" lon="23.3987789354">
        <ele>28.4</ele>
        <time>2012-02-27T18:51:58Z</time>
      </trkpt>
      <trkpt lat="59.9915389312" lon="23.3988380278">
        <ele>28.4</ele>
        <time>2012-02-27T18:52:02Z</time>
      </trkpt>
      <trkpt lat="59.9914795873" lon="23.3988744891">
        <ele>28.4</ele>
        <time>2012-02-27T18:52:04Z</time>
      </trkpt>
      <trkpt lat="59.991426949" lon="23.39891665">
        <ele>28.4</ele>
        <time>2012-02-27T18:52:06Z</time>
      </trkpt>
      <trkpt lat="59.9912825289" lon="23.3990469048">
        <ele>28.4</ele>
        <time>2012-02-27T18:52:11Z</time>
      </trkpt>
      <trkpt lat="59.9912233526" lon="23.3991143791">
        <ele>28.4</ele>
        <time>2012-02-27T18:52:13Z</time>
      </trkpt>
      <trkpt lat="59.9910982947" lon="23.3992292949">
        <ele>28.4</ele>
        <time>2012-02-27T18:52:18Z</time>
      </trkpt>
      <trkpt lat="59.9909766733" lon="23.3992189852">
        <ele>28.4</ele>
        <time>2012-02-27T18:52:22Z</time>
      </trkpt>
      <trkpt lat="59.9908727378" lon="23.3991432966">
        <ele>28.4</ele>
        <time>2012-02-27T18:52:26Z</time>
      </trkpt>
      <trkpt lat="59.9908001505" lon="23.3990096053">
        <ele>28.4</ele>
        <time>2012-02-27T18:52:31Z</time>
      </trkpt>
      <trkpt lat="59.9907292396" lon="23.398848589">
        <ele>28.4</ele>
        <time>2012-02-27T18:52:36Z</time>
      </trkpt>
      <trkpt lat="59.9906332669" lon="23.3987100362">
        <ele>28.4</ele>
        <time>2012-02-27T18:52:42Z</time>
      </trkpt>
      <trkpt lat="59.9905667984" lon="23.3986742455">
        <ele>28.6</ele>
        <time>2012-02-27T18:52:46Z</time>
      </trkpt>
      <trkpt lat="59.9904606836" lon="23.3986998941">
        <ele>29.4</ele>
        <time>2012-02-27T18:52:51Z</time>
      </trkpt>
      <trkpt lat="59.990326657" lon="23.3988378602">
        <ele>29.8</ele>
        <time>2012-02-27T18:52:56Z</time>
      </trkpt>
      <trkpt lat="59.9902967336" lon="23.3988718069">
        <ele>29.8</ele>
        <time>2012-02-27T18:52:57Z</time>
      </trkpt>
      <trkpt lat="59.9902060414" lon="23.3989683664">
        <ele>30</ele>
        <time>2012-02-27T18:53:01Z</time>
      </trkpt>
      <trkpt lat="59.9901233959" lon="23.3990557896">
        <ele>30.4</ele>
        <time>2012-02-27T18:53:04Z</time>
      </trkpt>
      <trkpt lat="59.9900194603" lon="23.3992116091">
        <ele>31</ele>
        <time>2012-02-27T18:53:08Z</time>
      </trkpt>
      <trkpt lat="59.9899321209" lon="23.3993594658">
        <ele>31.6</ele>
        <time>2012-02-27T18:53:12Z</time>
      </trkpt>
      <trkpt lat="59.9898135171" lon="23.3995413531">
        <ele>32</ele>
        <time>2012-02-27T18:53:18Z</time>
      </trkpt>
      <trkpt lat="59.9897206456" lon="23.3996722783">
        <ele>32.8</ele>
        <time>2012-02-27T18:53:23Z</time>
      </trkpt>
      <trkpt lat="59.9896399279" lon="23.3997792314">
        <ele>33.4</ele>
        <time>2012-02-27T18:53:27Z</time>
      </trkpt>
      <trkpt lat="59.9895635688" lon="23.3998880284">
        <ele>33.8</ele>
        <time>2012-02-27T18:53:31Z</time>
      </trkpt>
      <trkpt lat="59.9893990321" lon="23.4002873422">
        <ele>34.4</ele>
        <time>2012-02-27T18:53:42Z</time>
      </trkpt>
      <trkpt lat="59.9893565359" lon="23.4004677206">
        <ele>34.4</ele>
        <time>2012-02-27T18:53:47Z</time>
      </trkpt>
      <trkpt lat="59.9893210804" lon="23.4007531243">
        <ele>34.6</ele>
        <time>2012-02-27T18:53:51Z</time>
      </trkpt>
      <trkpt lat="59.9893705336" lon="23.4011403681">
        <ele>34.6</ele>
        <time>2012-02-27T18:53:54Z</time>
      </trkpt>
      <trkpt lat="59.9894421151" lon="23.4013839461">
        <ele>34.6</ele>
        <time>2012-02-27T18:53:56Z</time>
      </trkpt>
      <trkpt lat="59.9894986091" lon="23.4016566932">
        <ele>34.6</ele>
        <time>2012-02-27T18:53:59Z</time>
      </trkpt>
      <trkpt lat="59.9895127745" lon="23.4017390872">
        <ele>34.6</ele>
        <time>2012-02-27T18:54:04Z</time>
      </trkpt>
      <trkpt lat="59.9895074939" lon="23.4018297794">
        <ele>36.2</ele>
        <time>2012-02-27T18:54:17Z</time>
      </trkpt>
      <trkpt lat="59.9894039774" lon="23.402156422">
        <ele>36.4</ele>
        <time>2012-02-27T18:54:25Z</time>
      </trkpt>
      <trkpt lat="59.989274058" lon="23.4025135748">
        <ele>36.6</ele>
        <time>2012-02-27T18:54:29Z</time>
      </trkpt>
      <trkpt lat="59.9891764088" lon="23.4028335957">
        <ele>36.6</ele>
        <time>2012-02-27T18:54:32Z</time>
      </trkpt>
      <trkpt lat="59.9890662707" lon="23.4032360108">
        <ele>36.6</ele>
        <time>2012-02-27T18:54:35Z</time>
      </trkpt>
      <trkpt lat="59.9889252033" lon="23.4037322192">
        <ele>36.6</ele>
        <time>2012-02-27T18:54:40Z</time>
      </trkpt>
      <trkpt lat="59.9889569707" lon="23.4038151162">
        <ele>36.6</ele>
        <time>2012-02-27T18:54:42Z</time>
      </trkpt>
      <trkpt lat="59.9890694558" lon="23.4036899745">
        <ele>36</ele>
        <time>2012-02-27T18:54:46Z</time>
      </trkpt>
      <trkpt lat="59.9891023128" lon="23.4036266073">
        <ele>36</ele>
        <time>2012-02-27T18:54:47Z</time>
      </trkpt>
      <trkpt lat="59.9892568751" lon="23.4033810176">
        <ele>34.8</ele>
        <time>2012-02-27T18:54:51Z</time>
      </trkpt>
      <trkpt lat="59.9893619003" lon="23.4032348373">
        <ele>34.2</ele>
        <time>2012-02-27T18:54:54Z</time>
      </trkpt>
      <trkpt lat="59.9895429493" lon="23.4032448117">
        <ele>32.8</ele>
        <time>2012-02-27T18:54:59Z</time>
      </trkpt>
      <trkpt lat="59.9895806679" lon="23.4032740646">
        <ele>32.6</ele>
        <time>2012-02-27T18:55:00Z</time>
      </trkpt>
      <trkpt lat="59.9896121838" lon="23.4033059996">
        <ele>32.4</ele>
        <time>2012-02-27T18:55:01Z</time>
      </trkpt>
      <trkpt lat="59.9897515748" lon="23.4034348294">
        <ele>31.6</ele>
        <time>2012-02-27T18:55:05Z</time>
      </trkpt>
      <trkpt lat="59.9898153611" lon="23.4034610648">
        <ele>30.4</ele>
        <time>2012-02-27T18:55:10Z</time>
      </trkpt>
      <trkpt lat="59.9898540855" lon="23.4034986157">
        <ele>29.4</ele>
        <time>2012-02-27T18:55:16Z</time>
      </trkpt>
      <trkpt lat="59.98990664" lon="23.403551254">
        <ele>28.8</ele>
        <time>2012-02-27T18:55:23Z</time>
      </trkpt>
      <trkpt lat="59.9899213921" lon="23.4035740528">
        <ele>29.2</ele>
        <time>2012-02-27T18:55:32Z</time>
      </trkpt>
      <trkpt lat="59.989962212" lon="23.4036176387">
        <ele>29.8</ele>
        <time>2012-02-27T18:55:39Z</time>
      </trkpt>
      <trkpt lat="59.990005714" lon="23.4036452989">
        <ele>30.6</ele>
        <time>2012-02-27T18:55:46Z</time>
      </trkpt>
      <trkpt lat="59.9900527365" lon="23.4036864541">
        <ele>31.6</ele>
        <time>2012-02-27T18:55:53Z</time>
      </trkpt>
      <trkpt lat="59.990084923" lon="23.4037250108">
        <ele>32</ele>
        <time>2012-02-27T18:55:57Z</time>
      </trkpt>
      <trkpt lat="59.990103447" lon="23.4037457141">
        <ele>32.2</ele>
        <time>2012-02-27T18:55:59Z</time>
      </trkpt>
      <trkpt lat="59.9901401597" lon="23.4037709436">
        <ele>32.2</ele>
        <time>2012-02-27T18:56:02Z</time>
      </trkpt>
      <trkpt lat="59.9902187819" lon="23.4038510746">
        <ele>32.6</ele>
        <time>2012-02-27T18:56:07Z</time>
      </trkpt>
      <trkpt lat="59.9902404072" lon="23.4038737895">
        <ele>32.8</ele>
        <time>2012-02-27T18:56:08Z</time>
      </trkpt>
      <trkpt lat="59.9904055307" lon="23.4039865261">
        <ele>33.6</ele>
        <time>2012-02-27T18:56:13Z</time>
      </trkpt>
      <trkpt lat="59.9906056904" lon="23.4040302796">
        <ele>34</ele>
        <time>2012-02-27T18:56:18Z</time>
      </trkpt>
      <trkpt lat="59.9907487695" lon="23.4040352249">
        <ele>34.2</ele>
        <time>2012-02-27T18:56:21Z</time>
      </trkpt>
      <trkpt lat="59.9909289803" lon="23.4043412481">
        <ele>33.6</ele>
        <time>2012-02-27T18:56:25Z</time>
      </trkpt>
      <trkpt lat="59.9909413855" lon="23.4044578403">
        <ele>33.6</ele>
        <time>2012-02-27T18:56:26Z</time>
      </trkpt>
      <trkpt lat="59.9909697163" lon="23.4048264763">
        <ele>33.2</ele>
        <time>2012-02-27T18:56:29Z</time>
      </trkpt>
      <trkpt lat="59.9909750808" lon="23.4051455752">
        <ele>32.6</ele>
        <time>2012-02-27T18:56:32Z</time>
      </trkpt>
      <trkpt lat="59.9909506894" lon="23.4055712919">
        <ele>31.6</ele>
        <time>2012-02-27T18:56:38Z</time>
      </trkpt>
      <trkpt lat="59.9909511923" lon="23.4056297976">
        <ele>31.4</ele>
        <time>2012-02-27T18:56:39Z</time>
      </trkpt>
      <trkpt lat="59.9910367715" lon="23.4059657441">
        <ele>31</ele>
        <time>2012-02-27T18:56:44Z</time>
      </trkpt>
      <trkpt lat="59.9910699639" lon="23.406027854">
        <ele>31</ele>
        <time>2012-02-27T18:56:45Z</time>
      </trkpt>
      <trkpt lat="59.9911015636" lon="23.4060404269">
        <ele>31</ele>
        <time>2012-02-27T18:56:46Z</time>
      </trkpt>
      <trkpt lat="59.9912286332" lon="23.4060379123">
        <ele>30</ele>
        <time>2012-02-27T18:56:50Z</time>
      </trkpt>
      <trkpt lat="59.9912541142" lon="23.4060255909">
        <ele>30</ele>
        <time>2012-02-27T18:56:51Z</time>
      </trkpt>
      <trkpt lat="59.9914001269" lon="23.4059509082">
        <ele>29.2</ele>
        <time>2012-02-27T18:56:57Z</time>
      </trkpt>
      <trkpt lat="59.9915529289" lon="23.4059037181">
        <ele>28.8</ele>
        <time>2012-02-27T18:57:04Z</time>
      </trkpt>
      <trkpt lat="59.9916471415" lon="23.4058843559">
        <ele>28.6</ele>
        <time>2012-02-27T18:57:08Z</time>
      </trkpt>
      <trkpt lat="59.9917494007" lon="23.4058547678">
        <ele>28.6</ele>
        <time>2012-02-27T18:57:12Z</time>
      </trkpt>
      <trkpt lat="59.9919045496" lon="23.4057598847">
        <ele>28.4</ele>
        <time>2012-02-27T18:57:18Z</time>
      </trkpt>
      <trkpt lat="59.9919968344" lon="23.4056367546">
        <ele>28.4</ele>
        <time>2012-02-27T18:57:23Z</time>
      </trkpt>
      <trkpt lat="59.9920653983" lon="23.4054777499">
        <ele>28.4</ele>
        <time>2012-02-27T18:57:28Z</time>
      </trkpt>
      <trkpt lat="59.9921271729" lon="23.4052827031">
        <ele>27.6</ele>
        <time>2012-02-27T18:57:33Z</time>
      </trkpt>
      <trkpt lat="59.9921906239" lon="23.405152616">
        <ele>27.2</ele>
        <time>2012-02-27T18:57:37Z</time>
      </trkpt>
      <trkpt lat="59.9922135903" lon="23.4051278894">
        <ele>27.2</ele>
        <time>2012-02-27T18:57:38Z</time>
      </trkpt>
      <trkpt lat="59.992305875" lon="23.4050358561">
        <ele>26.8</ele>
        <time>2012-02-27T18:57:42Z</time>
      </trkpt>
      <trkpt lat="59.9924440087" lon="23.4049420627">
        <ele>26.6</ele>
        <time>2012-02-27T18:57:47Z</time>
      </trkpt>
      <trkpt lat="59.9924694059" lon="23.4048802043">
        <ele>26.6</ele>
        <time>2012-02-27T18:57:48Z</time>
      </trkpt>
      <trkpt lat="59.9925607686" lon="23.4046164259">
        <ele>26.6</ele>
        <time>2012-02-27T18:57:53Z</time>
      </trkpt>
      <trkpt lat="59.9926880058" lon="23.4044455189">
        <ele>26.2</ele>
        <time>2012-02-27T18:57:58Z</time>
      </trkpt>
      <trkpt lat="59.9928375389" lon="23.4043259092">
        <ele>25.4</ele>
        <time>2012-02-27T18:58:04Z</time>
      </trkpt>
      <trkpt lat="59.9929186757" lon="23.4041822434">
        <ele>25</ele>
        <time>2012-02-27T18:58:09Z</time>
      </trkpt>
      <trkpt lat="59.9929620102" lon="23.4039099993">
        <ele>24.6</ele>
        <time>2012-02-27T18:58:14Z</time>
      </trkpt>
      <trkpt lat="59.9930168278" lon="23.4035386812">
        <ele>24.6</ele>
        <time>2012-02-27T18:58:18Z</time>
      </trkpt>
      <trkpt lat="59.9930837992" lon="23.403180774">
        <ele>24.4</ele>
        <time>2012-02-27T18:58:21Z</time>
      </trkpt>
      <trkpt lat="59.9930979646" lon="23.4030678698">
        <ele>24.2</ele>
        <time>2012-02-27T18:58:22Z</time>
      </trkpt>
      <trkpt lat="59.9931101183" lon="23.4026942886">
        <ele>23.6</ele>
        <time>2012-02-27T18:58:26Z</time>
      </trkpt>
      <trkpt lat="59.9931030775" lon="23.402549617">
        <ele>23.2</ele>
        <time>2012-02-27T18:58:28Z</time>
      </trkpt>
      <trkpt lat="59.9930761716" lon="23.4022751936">
        <ele>22.8</ele>
        <time>2012-02-27T18:58:33Z</time>
      </trkpt>
      <trkpt lat="59.9930506068" lon="23.4019800669">
        <ele>22.6</ele>
        <time>2012-02-27T18:58:40Z</time>
      </trkpt>
      <trkpt lat="59.9930013213" lon="23.4016708586">
        <ele>22.4</ele>
        <time>2012-02-27T18:58:47Z</time>
      </trkpt>
      <trkpt lat="59.992984306" lon="23.4013950102">
        <ele>22.2</ele>
        <time>2012-02-27T18:58:53Z</time>
      </trkpt>
      <trkpt lat="59.99298154" lon="23.401207088">
        <ele>22.2</ele>
        <time>2012-02-27T18:58:57Z</time>
      </trkpt>
      <trkpt lat="59.9929760917" lon="23.4009552958">
        <ele>22.4</ele>
        <time>2012-02-27T18:59:02Z</time>
      </trkpt>
      <trkpt lat="59.9929646085" lon="23.4006992287">
        <ele>23</ele>
        <time>2012-02-27T18:59:06Z</time>
      </trkpt>
      <trkpt lat="59.9929681289" lon="23.4005096301">
        <ele>23.4</ele>
        <time>2012-02-27T18:59:10Z</time>
      </trkpt>
      <trkpt lat="59.9929534606" lon="23.4002973166">
        <ele>23.8</ele>
        <time>2012-02-27T18:59:15Z</time>
      </trkpt>
      <trkpt lat="59.9929224476" lon="23.4001377252">
        <ele>24</ele>
        <time>2012-02-27T18:59:20Z</time>
      </trkpt>
      <trkpt lat="59.9928566497" lon="23.3999783015">
        <ele>24</ele>
        <time>2012-02-27T18:59:25Z</time>
      </trkpt>
      <trkpt lat="59.9927039315" lon="23.3998073107">
        <ele>24.2</ele>
        <time>2012-02-27T18:59:32Z</time>
      </trkpt>
      <trkpt lat="59.9925383051" lon="23.3996960829">
        <ele>25</ele>
        <time>2012-02-27T18:59:40Z</time>
      </trkpt>
      <trkpt lat="59.9923395703" lon="23.3994940791">
        <ele>25.6</ele>
        <time>2012-02-27T18:59:45Z</time>
      </trkpt>
      <trkpt lat="59.9921955692" lon="23.3992583801">
        <ele>25.8</ele>
        <time>2012-02-27T18:59:48Z</time>
      </trkpt>
      <trkpt lat="59.9920326251" lon="23.3989989603">
        <ele>26</ele>
        <time>2012-02-27T18:59:51Z</time>
      </trkpt>
      <trkpt lat="59.9916254324" lon="23.3987926817">
        <ele>26.2</ele>
        <time>2012-02-27T18:59:58Z</time>
      </trkpt>
      <trkpt lat="59.991405156" lon="23.3989599845">
        <ele>26.2</ele>
        <time>2012-02-27T19:00:04Z</time>
      </trkpt>
      <trkpt lat="59.9913645038" lon="23.398988902">
        <ele>26</ele>
        <time>2012-02-27T19:00:05Z</time>
      </trkpt>
      <trkpt lat="59.9913101053" lon="23.3990394449">
        <ele>25.6</ele>
        <time>2012-02-27T19:00:07Z</time>
      </trkpt>
      <trkpt lat="59.9911733965" lon="23.3991400277">
        <ele>25.2</ele>
        <time>2012-02-27T19:00:11Z</time>
      </trkpt>
      <trkpt lat="59.9911381925" lon="23.3991681909">
        <ele>25</ele>
        <time>2012-02-27T19:00:12Z</time>
      </trkpt>
      <trkpt lat="59.9910321615" lon="23.399219991">
        <ele>24.6</ele>
        <time>2012-02-27T19:00:16Z</time>
      </trkpt>
      <trkpt lat="59.9909034993" lon="23.3991854576">
        <ele>23.6</ele>
        <time>2012-02-27T19:00:21Z</time>
      </trkpt>
      <trkpt lat="59.9908149865" lon="23.3990868026">
        <ele>23</ele>
        <time>2012-02-27T19:00:26Z</time>
      </trkpt>
      <trkpt lat="59.9907486018" lon="23.3989561288">
        <ele>22.6</ele>
        <time>2012-02-27T19:00:31Z</time>
      </trkpt>
      <trkpt lat="59.9906995677" lon="23.3988261255">
        <ele>22.6</ele>
        <time>2012-02-27T19:00:35Z</time>
      </trkpt>
      <trkpt lat="59.9906210293" lon="23.3987206812">
        <ele>22.6</ele>
        <time>2012-02-27T19:00:40Z</time>
      </trkpt>
      <trkpt lat="59.9904027646" lon="23.3987273867">
        <ele>23.8</ele>
        <time>2012-02-27T19:00:52Z</time>
      </trkpt>
      <trkpt lat="59.9903756911" lon="23.3987577292">
        <ele>24.2</ele>
        <time>2012-02-27T19:00:53Z</time>
      </trkpt>
      <trkpt lat="59.9903186104" lon="23.3988211802">
        <ele>24.6</ele>
        <time>2012-02-27T19:00:55Z</time>
      </trkpt>
      <trkpt lat="59.9902230567" lon="23.3989282171">
        <ele>25.2</ele>
        <time>2012-02-27T19:00:59Z</time>
      </trkpt>
      <trkpt lat="59.990199755" lon="23.398952776">
        <ele>25.4</ele>
        <time>2012-02-27T19:01:00Z</time>
      </trkpt>
      <trkpt lat="59.9901088114" lon="23.3990513472">
        <ele>25.8</ele>
        <time>2012-02-27T19:01:04Z</time>
      </trkpt>
      <trkpt lat="59.9900064684" lon="23.3992073343">
        <ele>26</ele>
        <time>2012-02-27T19:01:08Z</time>
      </trkpt>
      <trkpt lat="59.9899272594" lon="23.3993572865">
        <ele>26.2</ele>
        <time>2012-02-27T19:01:12Z</time>
      </trkpt>
      <trkpt lat="59.9897919756" lon="23.3995458793">
        <ele>26.4</ele>
        <time>2012-02-27T19:01:18Z</time>
      </trkpt>
      <trkpt lat="59.9896754672" lon="23.3997022855">
        <ele>26.4</ele>
        <time>2012-02-27T19:01:23Z</time>
      </trkpt>
      <trkpt lat="59.98959081" lon="23.3998175367">
        <ele>26.4</ele>
        <time>2012-02-27T19:01:27Z</time>
      </trkpt>
      <trkpt lat="59.9894917359" lon="23.3999278425">
        <ele>26.4</ele>
        <time>2012-02-27T19:01:31Z</time>
      </trkpt>
      <trkpt lat="59.9894084198" lon="23.4000352984">
        <ele>26.4</ele>
        <time>2012-02-27T19:01:35Z</time>
      </trkpt>
      <trkpt lat="59.9893344915" lon="23.4002916169">
        <ele>26.4</ele>
        <time>2012-02-27T19:01:41Z</time>
      </trkpt>
      <trkpt lat="59.9893223377" lon="23.4003376336">
        <ele>26.4</ele>
        <time>2012-02-27T19:01:42Z</time>
      </trkpt>
      <trkpt lat="59.9892762373" lon="23.400682884">
        <ele>26.4</ele>
        <time>2012-02-27T19:01:47Z</time>
      </trkpt>
      <trkpt lat="59.9892798415" lon="23.4009193374">
        <ele>26.4</ele>
        <time>2012-02-27T19:01:49Z</time>
      </trkpt>
      <trkpt lat="59.9894173885" lon="23.401440524">
        <ele>26.4</ele>
        <time>2012-02-27T19:01:53Z</time>
      </trkpt>
      <trkpt lat="59.9894385947" lon="23.4015461359">
        <ele>26.4</ele>
        <time>2012-02-27T19:01:54Z</time>
      </trkpt>
      <trkpt lat="59.9894618964" lon="23.4017243351">
        <ele>26.4</ele>
        <time>2012-02-27T19:01:57Z</time>
      </trkpt>
      <trkpt lat="59.9894780734" lon="23.4017648197">
        <ele>26.4</ele>
        <time>2012-02-27T19:02:02Z</time>
      </trkpt>
      <trkpt lat="59.9894644947" lon="23.4018764666">
        <ele>27</ele>
        <time>2012-02-27T19:02:08Z</time>
      </trkpt>
      <trkpt lat="59.9894580407" lon="23.4019062223">
        <ele>27.2</ele>
        <time>2012-02-27T19:02:09Z</time>
      </trkpt>
      <trkpt lat="59.989378245" lon="23.4021520634">
        <ele>27.8</ele>
        <time>2012-02-27T19:02:15Z</time>
      </trkpt>
      <trkpt lat="59.9892588029" lon="23.4024818912">
        <ele>28</ele>
        <time>2012-02-27T19:02:19Z</time>
      </trkpt>
      <trkpt lat="59.989135589" lon="23.4028897545">
        <ele>28.2</ele>
        <time>2012-02-27T19:02:23Z</time>
      </trkpt>
      <trkpt lat="59.9890308152" lon="23.403267862">
        <ele>28.4</ele>
        <time>2012-02-27T19:02:26Z</time>
      </trkpt>
      <trkpt lat="59.9889215153" lon="23.4036111846">
        <ele>28.4</ele>
        <time>2012-02-27T19:02:29Z</time>
      </trkpt>
      <trkpt lat="59.9889020693" lon="23.4036886334">
        <ele>28.4</ele>
        <time>2012-02-27T19:02:30Z</time>
      </trkpt>
      <trkpt lat="59.9889319088" lon="23.4038157868">
        <ele>27.8</ele>
        <time>2012-02-27T19:02:33Z</time>
      </trkpt>
      <trkpt lat="59.9890150573" lon="23.4037339794">
        <ele>27.6</ele>
        <time>2012-02-27T19:02:36Z</time>
      </trkpt>
      <trkpt lat="59.9890433043" lon="23.4036877113">
        <ele>27.4</ele>
        <time>2012-02-27T19:02:37Z</time>
      </trkpt>
      <trkpt lat="59.9890829507" lon="23.4036074127">
        <ele>27.4</ele>
        <time>2012-02-27T19:02:38Z</time>
      </trkpt>
      <trkpt lat="59.9892853735" lon="23.4033180696">
        <ele>26.8</ele>
        <time>2012-02-27T19:02:43Z</time>
      </trkpt>
      <trkpt lat="59.9893162189" lon="23.4032834523">
        <ele>26.6</ele>
        <time>2012-02-27T19:02:44Z</time>
      </trkpt>
      <trkpt lat="59.9894024687" lon="23.4032224321">
        <ele>25.8</ele>
        <time>2012-02-27T19:02:48Z</time>
      </trkpt>
      <trkpt lat="59.9895312147" lon="23.4032525231">
        <ele>25.2</ele>
        <time>2012-02-27T19:02:53Z</time>
      </trkpt>
      <trkpt lat="59.9897515748" lon="23.4034531858">
        <ele>24.6</ele>
        <time>2012-02-27T19:03:00Z</time>
      </trkpt>
      <trkpt lat="59.9898066439" lon="23.4035251863">
        <ele>23.8</ele>
        <time>2012-02-27T19:03:04Z</time>
      </trkpt>
      <trkpt lat="59.9898181271" lon="23.403520241">
        <ele>23</ele>
        <time>2012-02-27T19:03:12Z</time>
      </trkpt>
      <trkpt lat="59.9898388304" lon="23.4035282038">
        <ele>22.8</ele>
        <time>2012-02-27T19:03:17Z</time>
      </trkpt>
      <trkpt lat="59.9898733638" lon="23.4035429559">
        <ele>23</ele>
        <time>2012-02-27T19:03:27Z</time>
      </trkpt>
      <trkpt lat="59.9898958273" lon="23.4035678502">
        <ele>23.8</ele>
        <time>2012-02-27T19:03:33Z</time>
      </trkpt>
      <trkpt lat="59.9899276785" lon="23.4036079157">
        <ele>25</ele>
        <time>2012-02-27T19:03:41Z</time>
      </trkpt>
      <trkpt lat="59.9899343002" lon="23.403613783">
        <ele>25.2</ele>
        <time>2012-02-27T19:03:42Z</time>
      </trkpt>
      <trkpt lat="59.9899847593" lon="23.4036458018">
        <ele>26.4</ele>
        <time>2012-02-27T19:03:49Z</time>
      </trkpt>
      <trkpt lat="59.9900481264" lon="23.4036820117">
        <ele>28.4</ele>
        <time>2012-02-27T19:03:57Z</time>
      </trkpt>
      <trkpt lat="59.9901359687" lon="23.4037800799">
        <ele>30.2</ele>
        <time>2012-02-27T19:04:06Z</time>
      </trkpt>
      <trkpt lat="59.9902194525" lon="23.4038690118">
        <ele>31.6</ele>
        <time>2012-02-27T19:04:11Z</time>
      </trkpt>
      <trkpt lat="59.9903677283" lon="23.4039757972">
        <ele>32.2</ele>
        <time>2012-02-27T19:04:15Z</time>
      </trkpt>
      <trkpt lat="59.990545676" lon="23.4040417628">
        <ele>32.6</ele>
        <time>2012-02-27T19:04:19Z</time>
      </trkpt>
      <trkpt lat="59.9907409743" lon="23.4040521564">
        <ele>32.8</ele>
        <time>2012-02-27T19:04:23Z</time>
      </trkpt>
      <trkpt lat="59.9908009049" lon="23.4040719376">
        <ele>32.8</ele>
        <time>2012-02-27T19:04:24Z</time>
      </trkpt>
      <trkpt lat="59.9909188382" lon="23.4043233108">
        <ele>32.8</ele>
        <time>2012-02-27T19:04:27Z</time>
      </trkpt>
      <trkpt lat="59.9909397091" lon="23.4045671403">
        <ele>32.6</ele>
        <time>2012-02-27T19:04:29Z</time>
      </trkpt>
      <trkpt lat="59.9909616697" lon="23.4051309069">
        <ele>31.4</ele>
        <time>2012-02-27T19:04:34Z</time>
      </trkpt>
      <trkpt lat="59.990954126" lon="23.4054607347">
        <ele>30.4</ele>
        <time>2012-02-27T19:04:38Z</time>
      </trkpt>
      <trkpt lat="59.9909517791" lon="23.4055414523">
        <ele>30.2</ele>
        <time>2012-02-27T19:04:39Z</time>
      </trkpt>
      <trkpt lat="59.9910099495" lon="23.4059171291">
        <ele>29</ele>
        <time>2012-02-27T19:04:44Z</time>
      </trkpt>
      <trkpt lat="59.9911670263" lon="23.4060596214">
        <ele>27.8</ele>
        <time>2012-02-27T19:04:49Z</time>
      </trkpt>
      <trkpt lat="59.9913589718" lon="23.4059769759">
        <ele>26.2</ele>
        <time>2012-02-27T19:04:56Z</time>
      </trkpt>
      <trkpt lat="59.9914801741" lon="23.4059363237">
        <ele>25.8</ele>
        <time>2012-02-27T19:05:01Z</time>
      </trkpt>
      <trkpt lat="59.9916147874" lon="23.4058816737">
        <ele>25.4</ele>
        <time>2012-02-27T19:05:06Z</time>
      </trkpt>
      <trkpt lat="59.9917600457" lon="23.4058394289">
        <ele>25.2</ele>
        <time>2012-02-27T19:05:11Z</time>
      </trkpt>
      <trkpt lat="59.99189885" lon="23.4057625669">
        <ele>25</ele>
        <time>2012-02-27T19:05:16Z</time>
      </trkpt>
      <trkpt lat="59.9920102454" lon="23.4056139558">
        <ele>25</ele>
        <time>2012-02-27T19:05:21Z</time>
      </trkpt>
      <trkpt lat="59.9920886162" lon="23.4053745687">
        <ele>25</ele>
        <time>2012-02-27T19:05:27Z</time>
      </trkpt>
      <trkpt lat="59.992175285" lon="23.4051209324">
        <ele>24</ele>
        <time>2012-02-27T19:05:33Z</time>
      </trkpt>
      <trkpt lat="59.9923443479" lon="23.4049531268">
        <ele>23.4</ele>
        <time>2012-02-27T19:05:39Z</time>
      </trkpt>
      <trkpt lat="59.9925699049" lon="23.4045149211">
        <ele>21.8</ele>
        <time>2012-02-27T19:05:50Z</time>
      </trkpt>
      <trkpt lat="59.9927521274" lon="23.4043182817">
        <ele>21.4</ele>
        <time>2012-02-27T19:05:56Z</time>
      </trkpt>
      <trkpt lat="59.9928771015" lon="23.4042104066">
        <ele>21.2</ele>
        <time>2012-02-27T19:06:00Z</time>
      </trkpt>
      <trkpt lat="59.9929556399" lon="23.40394579">
        <ele>21</ele>
        <time>2012-02-27T19:06:06Z</time>
      </trkpt>
      <trkpt lat="59.9930275566" lon="23.4035154633">
        <ele>21</ele>
        <time>2012-02-27T19:06:11Z</time>
      </trkpt>
      <trkpt lat="59.9930527023" lon="23.4033919979">
        <ele>20.8</ele>
        <time>2012-02-27T19:06:12Z</time>
      </trkpt>
      <trkpt lat="59.9930989704" lon="23.403145151">
        <ele>20.8</ele>
        <time>2012-02-27T19:06:14Z</time>
      </trkpt>
      <trkpt lat="59.9931314084" lon="23.4029393753">
        <ele>20.8</ele>
        <time>2012-02-27T19:06:16Z</time>
      </trkpt>
      <trkpt lat="59.9931201766" lon="23.4025283269">
        <ele>20.8</ele>
        <time>2012-02-27T19:06:21Z</time>
      </trkpt>
      <trkpt lat="59.9931118785" lon="23.4024698213">
        <ele>20.8</ele>
        <time>2012-02-27T19:06:22Z</time>
      </trkpt>
      <trkpt lat="59.9930990542" lon="23.4023803864">
        <ele>20.4</ele>
        <time>2012-02-27T19:06:24Z</time>
      </trkpt>
      <trkpt lat="59.9930804464" lon="23.4021255766">
        <ele>19.6</ele>
        <time>2012-02-27T19:06:30Z</time>
      </trkpt>
      <trkpt lat="59.9930585696" lon="23.4019659853">
        <ele>19.4</ele>
        <time>2012-02-27T19:06:34Z</time>
      </trkpt>
      <trkpt lat="59.9930305741" lon="23.4017404283">
        <ele>19.2</ele>
        <time>2012-02-27T19:06:39Z</time>
      </trkpt>
      <trkpt lat="59.9930066019" lon="23.4014856186">
        <ele>19</ele>
        <time>2012-02-27T19:06:44Z</time>
      </trkpt>
      <trkpt lat="59.9930074401" lon="23.4011900728">
        <ele>18.8</ele>
        <time>2012-02-27T19:06:50Z</time>
      </trkpt>
      <trkpt lat="59.9929908439" lon="23.4008920962">
        <ele>18.8</ele>
        <time>2012-02-27T19:06:56Z</time>
      </trkpt>
      <trkpt lat="59.9929689671" lon="23.4005870789">
        <ele>18.8</ele>
        <time>2012-02-27T19:07:01Z</time>
      </trkpt>
      <trkpt lat="59.9929582383" lon="23.4003604323">
        <ele>18.8</ele>
        <time>2012-02-27T19:07:06Z</time>
      </trkpt>
      <trkpt lat="59.992932422" lon="23.4001751085">
        <ele>18.8</ele>
        <time>2012-02-27T19:07:11Z</time>
      </trkpt>
      <trkpt lat="59.9928936977" lon="23.4000611147">
        <ele>18.8</ele>
        <time>2012-02-27T19:07:16Z</time>
      </trkpt>
      <trkpt lat="59.9928485192" lon="23.3999704225">
        <ele>19.6</ele>
        <time>2012-02-27T19:07:24Z</time>
      </trkpt>
      <trkpt lat="59.9927667957" lon="23.399889621">
        <ele>20.6</ele>
        <time>2012-02-27T19:07:30Z</time>
      </trkpt>
      <trkpt lat="59.9926866647" lon="23.3998208056">
        <ele>21.4</ele>
        <time>2012-02-27T19:07:34Z</time>
      </trkpt>
      <trkpt lat="59.9925033526" lon="23.3997022017">
        <ele>22.2</ele>
        <time>2012-02-27T19:07:41Z</time>
      </trkpt>
      <trkpt lat="59.9923861736" lon="23.3995811671">
        <ele>22.2</ele>
        <time>2012-02-27T19:07:44Z</time>
      </trkpt>
      <trkpt lat="59.9922439328" lon="23.3993573703">
        <ele>22.4</ele>
        <time>2012-02-27T19:07:47Z</time>
      </trkpt>
      <trkpt lat="59.9920907955" lon="23.399089401">
        <ele>22.6</ele>
        <time>2012-02-27T19:07:50Z</time>
      </trkpt>
      <trkpt lat="59.9919762987" lon="23.3989304802">
        <ele>22.6</ele>
        <time>2012-02-27T19:07:52Z</time>
      </trkpt>
      <trkpt lat="59.9917320501" lon="23.3987741577">
        <ele>22.6</ele>
        <time>2012-02-27T19:07:56Z</time>
      </trkpt>
      <trkpt lat="59.9915506658" lon="23.3988567195">
        <ele>22.8</ele>
        <time>2012-02-27T19:08:00Z</time>
      </trkpt>
      <trkpt lat="59.9915214968" lon="23.3988891574">
        <ele>22.8</ele>
        <time>2012-02-27T19:08:01Z</time>
      </trkpt>
      <trkpt lat="59.9914899809" lon="23.3989267921">
        <ele>22.8</ele>
        <time>2012-02-27T19:08:02Z</time>
      </trkpt>
      <trkpt lat="59.9913710417" lon="23.399014383">
        <ele>22.6</ele>
        <time>2012-02-27T19:08:06Z</time>
      </trkpt>
      <trkpt lat="59.9912353388" lon="23.399107925">
        <ele>22</ele>
        <time>2012-02-27T19:08:10Z</time>
      </trkpt>
      <trkpt lat="59.9911242786" lon="23.3992073343">
        <ele>21.6</ele>
        <time>2012-02-27T19:08:14Z</time>
      </trkpt>
      <trkpt lat="59.9910344246" lon="23.3992177279">
        <ele>21.2</ele>
        <time>2012-02-27T19:08:18Z</time>
      </trkpt>
      <trkpt lat="59.9909921798" lon="23.3992126149">
        <ele>21.2</ele>
        <time>2012-02-27T19:08:20Z</time>
      </trkpt>
      <trkpt lat="59.9908889986" lon="23.3991298856">
        <ele>21</ele>
        <time>2012-02-27T19:08:26Z</time>
      </trkpt>
      <trkpt lat="59.990873073" lon="23.3991070868">
        <ele>21</ele>
        <time>2012-02-27T19:08:27Z</time>
      </trkpt>
      <trkpt lat="59.9908007372" lon="23.3989758263">
        <ele>20.8</ele>
        <time>2012-02-27T19:08:32Z</time>
      </trkpt>
      <trkpt lat="59.9907283176" lon="23.3988314899">
        <ele>20.8</ele>
        <time>2012-02-27T19:08:37Z</time>
      </trkpt>
      <trkpt lat="59.9905266491" lon="23.3986417237">
        <ele>20.8</ele>
        <time>2012-02-27T19:08:48Z</time>
      </trkpt>
      <trkpt lat="59.9904589234" lon="23.3986553024">
        <ele>21.4</ele>
        <time>2012-02-27T19:08:51Z</time>
      </trkpt>
      <trkpt lat="59.9902907824" lon="23.3988506845">
        <ele>22.2</ele>
        <time>2012-02-27T19:08:58Z</time>
      </trkpt>
      <trkpt lat="59.9901912893" lon="23.3989522731">
        <ele>23</ele>
        <time>2012-02-27T19:09:02Z</time>
      </trkpt>
      <trkpt lat="59.9900948974" lon="23.39906392">
        <ele>23.8</ele>
        <time>2012-02-27T19:09:06Z</time>
      </trkpt>
      <trkpt lat="59.9899769641" lon="23.3992529319">
        <ele>24.2</ele>
        <time>2012-02-27T19:09:11Z</time>
      </trkpt>
      <trkpt lat="59.9898913849" lon="23.3993831866">
        <ele>25.2</ele>
        <time>2012-02-27T19:09:15Z</time>
      </trkpt>
      <trkpt lat="59.9897901316" lon="23.3995237511">
        <ele>26</ele>
        <time>2012-02-27T19:09:20Z</time>
      </trkpt>
      <trkpt lat="59.9897133534" lon="23.3996336378">
        <ele>26.4</ele>
        <time>2012-02-27T19:09:24Z</time>
      </trkpt>
      <trkpt lat="59.9896053945" lon="23.399774789">
        <ele>26.6</ele>
        <time>2012-02-27T19:09:29Z</time>
      </trkpt>
      <trkpt lat="59.9895421111" lon="23.3998502261">
        <ele>26.8</ele>
        <time>2012-02-27T19:09:32Z</time>
      </trkpt>
      <trkpt lat="59.9894466413" lon="23.3999928022">
        <ele>27.6</ele>
        <time>2012-02-27T19:09:37Z</time>
      </trkpt>
      <trkpt lat="59.9893780774" lon="23.4002131623">
        <ele>28.2</ele>
        <time>2012-02-27T19:09:42Z</time>
      </trkpt>
      <trkpt lat="59.9893354973" lon="23.4004287448">
        <ele>28.6</ele>
        <time>2012-02-27T19:09:47Z</time>
      </trkpt>
      <trkpt lat="59.989305071" lon="23.4007851432">
        <ele>28.8</ele>
        <time>2012-02-27T19:09:51Z</time>
      </trkpt>
      <trkpt lat="59.9893204099" lon="23.4009168228">
        <ele>28.8</ele>
        <time>2012-02-27T19:09:52Z</time>
      </trkpt>
      <trkpt lat="59.989450497" lon="23.401446978">
        <ele>29.2</ele>
        <time>2012-02-27T19:09:56Z</time>
      </trkpt>
      <trkpt lat="59.9894742177" lon="23.4015584573">
        <ele>29.4</ele>
        <time>2012-02-27T19:09:57Z</time>
      </trkpt>
      <trkpt lat="59.9894879641" lon="23.4016310445">
        <ele>29.6</ele>
        <time>2012-02-27T19:09:58Z</time>
      </trkpt>
      <trkpt lat="59.9895087512" lon="23.4017259276">
        <ele>30.4</ele>
        <time>2012-02-27T19:10:03Z</time>
      </trkpt>
      <trkpt lat="59.9894905624" lon="23.4018463756">
        <ele>31.2</ele>
        <time>2012-02-27T19:10:08Z</time>
      </trkpt>
      <trkpt lat="59.9894752236" lon="23.4019069767">
        <ele>31.6</ele>
        <time>2012-02-27T19:10:10Z</time>
      </trkpt>
      <trkpt lat="59.9893804243" lon="23.4021827412">
        <ele>32.4</ele>
        <time>2012-02-27T19:10:16Z</time>
      </trkpt>
      <trkpt lat="59.9892435479" lon="23.4025621898">
        <ele>32.8</ele>
        <time>2012-02-27T19:10:20Z</time>
      </trkpt>
      <trkpt lat="59.9891424621" lon="23.4029068535">
        <ele>33</ele>
        <time>2012-02-27T19:10:23Z</time>
      </trkpt>
      <trkpt lat="59.9890274625" lon="23.4033134595">
        <ele>32.6</ele>
        <time>2012-02-27T19:10:26Z</time>
      </trkpt>
      <trkpt lat="59.9889272988" lon="23.4036623142">
        <ele>32.2</ele>
        <time>2012-02-27T19:10:29Z</time>
      </trkpt>
      <trkpt lat="59.9889171567" lon="23.4037459655">
        <ele>32</ele>
        <time>2012-02-27T19:10:30Z</time>
      </trkpt>
      <trkpt lat="59.9889726448" lon="23.4038152839">
        <ele>31.4</ele>
        <time>2012-02-27T19:10:33Z</time>
      </trkpt>
      <trkpt lat="59.9890555418" lon="23.4036945845">
        <ele>31</ele>
        <time>2012-02-27T19:10:36Z</time>
      </trkpt>
      <trkpt lat="59.9892630777" lon="23.4033907406">
        <ele>29.6</ele>
        <time>2012-02-27T19:10:41Z</time>
      </trkpt>
      <trkpt lat="59.9893002095" lon="23.403341958">
        <ele>29.4</ele>
        <time>2012-02-27T19:10:42Z</time>
      </trkpt>
      <trkpt lat="59.9894785763" lon="23.4032409561">
        <ele>28.2</ele>
        <time>2012-02-27T19:10:48Z</time>
      </trkpt>
      <trkpt lat="59.9895511636" lon="23.4032901578">
        <ele>27.6</ele>
        <time>2012-02-27T19:10:50Z</time>
      </trkpt>
      <trkpt lat="59.9897392534" lon="23.403457712">
        <ele>26.4</ele>
        <time>2012-02-27T19:10:56Z</time>
      </trkpt>
      <trkpt lat="59.9897961665" lon="23.4035102665">
        <ele>25.2</ele>
        <time>2012-02-27T19:11:00Z</time>
      </trkpt>
      <trkpt lat="59.9898187977" lon="23.4035228394">
        <ele>24.4</ele>
        <time>2012-02-27T19:11:04Z</time>
      </trkpt>
      <trkpt lat="59.9898585279" lon="23.4035612285">
        <ele>23.6</ele>
        <time>2012-02-27T19:11:10Z</time>
      </trkpt>
      <trkpt lat="59.9899029519" lon="23.4035958457">
        <ele>23.4</ele>
        <time>2012-02-27T19:11:15Z</time>
      </trkpt>
      <trkpt lat="59.9899078973" lon="23.4036008749">
        <ele>23.4</ele>
        <time>2012-02-27T19:11:16Z</time>
      </trkpt>
      <trkpt lat="59.989916363" lon="23.4036067422">
        <ele>23.2</ele>
        <time>2012-02-27T19:11:17Z</time>
      </trkpt>
      <trkpt lat="59.9899588592" lon="23.4036354083">
        <ele>23.6</ele>
        <time>2012-02-27T19:11:24Z</time>
      </trkpt>
      <trkpt lat="59.9899749525" lon="23.4036386772">
        <ele>24.6</ele>
        <time>2012-02-27T19:11:31Z</time>
      </trkpt>
      <trkpt lat="59.9900033671" lon="23.4036482326">
        <ele>25.6</ele>
        <time>2012-02-27T19:11:36Z</time>
      </trkpt>
      <trkpt lat="59.9900502219" lon="23.4036871246">
        <ele>26.6</ele>
        <time>2012-02-27T19:11:42Z</time>
      </trkpt>
      <trkpt lat="59.9901593543" lon="23.4037724524">
        <ele>28</ele>
        <time>2012-02-27T19:11:51Z</time>
      </trkpt>
      <trkpt lat="59.9902357134" lon="23.4038854404">
        <ele>28.4</ele>
        <time>2012-02-27T19:11:56Z</time>
      </trkpt>
      <trkpt lat="59.9903927063" lon="23.4039970873">
        <ele>28.8</ele>
        <time>2012-02-27T19:12:01Z</time>
      </trkpt>
      <trkpt lat="59.9905884237" lon="23.4040554253">
        <ele>28.8</ele>
        <time>2012-02-27T19:12:06Z</time>
      </trkpt>
      <trkpt lat="59.9907303293" lon="23.4040643101">
        <ele>29</ele>
        <time>2012-02-27T19:12:09Z</time>
      </trkpt>
      <trkpt lat="59.9909107916" lon="23.4043198742">
        <ele>29</ele>
        <time>2012-02-27T19:12:13Z</time>
      </trkpt>
      <trkpt lat="59.9909412179" lon="23.4045597642">
        <ele>29</ele>
        <time>2012-02-27T19:12:15Z</time>
      </trkpt>
      <trkpt lat="59.9909634299" lon="23.4050315814">
        <ele>28.8</ele>
        <time>2012-02-27T19:12:19Z</time>
      </trkpt>
      <trkpt lat="59.9909622565" lon="23.4052939348">
        <ele>28.4</ele>
        <time>2012-02-27T19:12:22Z</time>
      </trkpt>
      <trkpt lat="59.9909528687" lon="23.4054469883">
        <ele>28</ele>
        <time>2012-02-27T19:12:24Z</time>
      </trkpt>
      <trkpt lat="59.9909866478" lon="23.405881506">
        <ele>27.6</ele>
        <time>2012-02-27T19:12:30Z</time>
      </trkpt>
      <trkpt lat="59.9911098617" lon="23.4060754632">
        <ele>26.6</ele>
        <time>2012-02-27T19:12:34Z</time>
      </trkpt>
      <trkpt lat="59.9913047409" lon="23.4060519101">
        <ele>26</ele>
        <time>2012-02-27T19:12:40Z</time>
      </trkpt>
      <trkpt lat="59.9915847802" lon="23.405914866">
        <ele>25.2</ele>
        <time>2012-02-27T19:12:52Z</time>
      </trkpt>
      <trkpt lat="59.9917371631" lon="23.4058720345">
        <ele>25.2</ele>
        <time>2012-02-27T19:12:58Z</time>
      </trkpt>
      <trkpt lat="59.9918623887" lon="23.4057948372">
        <ele>25</ele>
        <time>2012-02-27T19:13:03Z</time>
      </trkpt>
      <trkpt lat="59.9919762987" lon="23.4056738864">
        <ele>25</ele>
        <time>2012-02-27T19:13:08Z</time>
      </trkpt>
      <trkpt lat="59.9920667394" lon="23.4054624949">
        <ele>25</ele>
        <time>2012-02-27T19:13:14Z</time>
      </trkpt>
      <trkpt lat="59.9921357225" lon="23.4052815296">
        <ele>25</ele>
        <time>2012-02-27T19:13:19Z</time>
      </trkpt>
      <trkpt lat="59.9922258279" lon="23.4051241175">
        <ele>25</ele>
        <time>2012-02-27T19:13:24Z</time>
      </trkpt>
      <trkpt lat="59.9923442641" lon="23.4050059328">
        <ele>25</ele>
        <time>2012-02-27T19:13:29Z</time>
      </trkpt>
      <trkpt lat="59.9924770334" lon="23.4048454194">
        <ele>25</ele>
        <time>2012-02-27T19:13:34Z</time>
      </trkpt>
      <trkpt lat="59.9924881813" lon="23.4047859917">
        <ele>25</ele>
        <time>2012-02-27T19:13:35Z</time>
      </trkpt>
      <trkpt lat="59.9925637023" lon="23.4045784559">
        <ele>25</ele>
        <time>2012-02-27T19:13:39Z</time>
      </trkpt>
      <trkpt lat="59.9927054402" lon="23.4044051182">
        <ele>24.6</ele>
        <time>2012-02-27T19:13:44Z</time>
      </trkpt>
      <trkpt lat="59.9928779397" lon="23.4042613686">
        <ele>23.8</ele>
        <time>2012-02-27T19:13:51Z</time>
      </trkpt>
      <trkpt lat="59.992937535" lon="23.4040707642">
        <ele>23.2</ele>
        <time>2012-02-27T19:13:57Z</time>
      </trkpt>
      <trkpt lat="59.9929844736" lon="23.4037941615">
        <ele>23</ele>
        <time>2012-02-27T19:14:01Z</time>
      </trkpt>
      <trkpt lat="59.9930720645" lon="23.4033476577">
        <ele>23</ele>
        <time>2012-02-27T19:14:05Z</time>
      </trkpt>
      <trkpt lat="59.9931137225" lon="23.4030994696">
        <ele>23</ele>
        <time>2012-02-27T19:14:07Z</time>
      </trkpt>
      <trkpt lat="59.9931134711" lon="23.4026294965">
        <ele>22.8</ele>
        <time>2012-02-27T19:14:12Z</time>
      </trkpt>
      <trkpt lat="59.9930972102" lon="23.402418105">
        <ele>22.4</ele>
        <time>2012-02-27T19:14:16Z</time>
      </trkpt>
      <trkpt lat="59.9930846374" lon="23.4023171031">
        <ele>22.2</ele>
        <time>2012-02-27T19:14:18Z</time>
      </trkpt>
      <trkpt lat="59.9930573124" lon="23.4020478764">
        <ele>21.4</ele>
        <time>2012-02-27T19:14:24Z</time>
      </trkpt>
      <trkpt lat="59.9930227789" lon="23.4017997722">
        <ele>21.2</ele>
        <time>2012-02-27T19:14:30Z</time>
      </trkpt>
      <trkpt lat="59.9930022433" lon="23.4016286138">
        <ele>21</ele>
        <time>2012-02-27T19:14:34Z</time>
      </trkpt>
      <trkpt lat="59.9929975494" lon="23.4012842015">
        <ele>20.8</ele>
        <time>2012-02-27T19:14:40Z</time>
      </trkpt>
      <trkpt lat="59.9929932746" lon="23.4010288888">
        <ele>20.8</ele>
        <time>2012-02-27T19:14:45Z</time>
      </trkpt>
      <trkpt lat="59.9929831325" lon="23.4006571516">
        <ele>20.8</ele>
        <time>2012-02-27T19:14:51Z</time>
      </trkpt>
      <trkpt lat="59.9929750859" lon="23.4003683951">
        <ele>20.8</ele>
        <time>2012-02-27T19:14:57Z</time>
      </trkpt>
      <trkpt lat="59.9929444082" lon="23.4002031041">
        <ele>20.8</ele>
        <time>2012-02-27T19:15:02Z</time>
      </trkpt>
      <trkpt lat="59.9928926918" lon="23.400062372">
        <ele>20.8</ele>
        <time>2012-02-27T19:15:08Z</time>
      </trkpt>
      <trkpt lat="59.9927812964" lon="23.3998897048">
        <ele>21</ele>
        <time>2012-02-27T19:15:15Z</time>
      </trkpt>
      <trkpt lat="59.9926938732" lon="23.399819716">
        <ele>22</ele>
        <time>2012-02-27T19:15:22Z</time>
      </trkpt>
      <trkpt lat="59.9926021752" lon="23.3997541695">
        <ele>22.2</ele>
        <time>2012-02-27T19:15:27Z</time>
      </trkpt>
      <trkpt lat="59.9924456851" lon="23.3996370744">
        <ele>22.4</ele>
        <time>2012-02-27T19:15:32Z</time>
      </trkpt>
      <trkpt lat="59.9922795559" lon="23.399410344">
        <ele>22.6</ele>
        <time>2012-02-27T19:15:36Z</time>
      </trkpt>
      <trkpt lat="59.9921370636" lon="23.3991520976">
        <ele>22.6</ele>
        <time>2012-02-27T19:15:39Z</time>
      </trkpt>
      <trkpt lat="59.9919549249" lon="23.3988915882">
        <ele>22.6</ele>
        <time>2012-02-27T19:15:42Z</time>
      </trkpt>
      <trkpt lat="59.9918918092" lon="23.3988290592">
        <ele>22.6</ele>
        <time>2012-02-27T19:15:43Z</time>
      </trkpt>
      <trkpt lat="59.9917229977" lon="23.3987666979">
        <ele>22.8</ele>
        <time>2012-02-27T19:15:46Z</time>
      </trkpt>
      <trkpt lat="59.9916717005" lon="23.398776337">
        <ele>22.8</ele>
        <time>2012-02-27T19:15:47Z</time>
      </trkpt>
      <trkpt lat="59.9915442956" lon="23.3988391175">
        <ele>22.8</ele>
        <time>2012-02-27T19:15:50Z</time>
      </trkpt>
      <trkpt lat="59.9915078343" lon="23.3988627544">
        <ele>22.8</ele>
        <time>2012-02-27T19:15:51Z</time>
      </trkpt>
      <trkpt lat="59.9913674375" lon="23.3989976192">
        <ele>22.8</ele>
        <time>2012-02-27T19:15:56Z</time>
      </trkpt>
      <trkpt lat="59.9912769968" lon="23.3990800971">
        <ele>22.8</ele>
        <time>2012-02-27T19:15:59Z</time>
      </trkpt>
      <trkpt lat="59.9911687865" lon="23.3991910735">
        <ele>22.8</ele>
        <time>2012-02-27T19:16:03Z</time>
      </trkpt>
      <trkpt lat="59.9910877335" lon="23.3992360843">
        <ele>22.8</ele>
        <time>2012-02-27T19:16:06Z</time>
      </trkpt>
      <trkpt lat="59.9910590674" lon="23.3992361681">
        <ele>22.8</ele>
        <time>2012-02-27T19:16:07Z</time>
      </trkpt>
      <trkpt lat="59.9909334227" lon="23.3992048198">
        <ele>22.8</ele>
        <time>2012-02-27T19:16:12Z</time>
      </trkpt>
      <trkpt lat="59.9908496037" lon="23.3991121998">
        <ele>22.8</ele>
        <time>2012-02-27T19:16:17Z</time>
      </trkpt>
      <trkpt lat="59.9907799501" lon="23.3989846273">
        <ele>22.8</ele>
        <time>2012-02-27T19:16:22Z</time>
      </trkpt>
      <trkpt lat="59.990721193" lon="23.3988559651">
        <ele>22.8</ele>
        <time>2012-02-27T19:16:26Z</time>
      </trkpt>
      <trkpt lat="59.9906315905" lon="23.398714311">
        <ele>23.2</ele>
        <time>2012-02-27T19:16:32Z</time>
      </trkpt>
      <trkpt lat="59.9905828917" lon="23.3986789394">
        <ele>23.6</ele>
        <time>2012-02-27T19:16:35Z</time>
      </trkpt>
      <trkpt lat="59.9905334384" lon="23.3986665341">
        <ele>24</ele>
        <time>2012-02-27T19:16:38Z</time>
      </trkpt>
      <trkpt lat="59.990466048" lon="23.3986822083">
        <ele>24.2</ele>
        <time>2012-02-27T19:16:41Z</time>
      </trkpt>
      <trkpt lat="59.9903399004" lon="23.3988186656">
        <ele>24.4</ele>
        <time>2012-02-27T19:16:46Z</time>
      </trkpt>
      <trkpt lat="59.9902689895" lon="23.3988896603">
        <ele>24.8</ele>
        <time>2012-02-27T19:16:49Z</time>
      </trkpt>
      <trkpt lat="59.9901036146" lon="23.3990675242">
        <ele>25.8</ele>
        <time>2012-02-27T19:16:56Z</time>
      </trkpt>
      <trkpt lat="59.9899823285" lon="23.3992395208">
        <ele>26.4</ele>
        <time>2012-02-27T19:17:01Z</time>
      </trkpt>
      <trkpt lat="59.9899187937" lon="23.3993355774">
        <ele>26.6</ele>
        <time>2012-02-27T19:17:05Z</time>
      </trkpt>
      <trkpt lat="59.9898223181" lon="23.399471448">
        <ele>26.6</ele>
        <time>2012-02-27T19:17:11Z</time>
      </trkpt>
      <trkpt lat="59.9897334699" lon="23.3996007807">
        <ele>26.8</ele>
        <time>2012-02-27T19:17:16Z</time>
      </trkpt>
      <trkpt lat="59.9896553506" lon="23.399726593">
        <ele>26.8</ele>
        <time>2012-02-27T19:17:21Z</time>
      </trkpt>
      <trkpt lat="59.9895782371" lon="23.3998423471">
        <ele>27.2</ele>
        <time>2012-02-27T19:17:25Z</time>
      </trkpt>
      <trkpt lat="59.9894799174" lon="23.399963717">
        <ele>28</ele>
        <time>2012-02-27T19:17:30Z</time>
      </trkpt>
      <trkpt lat="59.9894012952" lon="23.4001556625">
        <ele>28.4</ele>
        <time>2012-02-27T19:17:35Z</time>
      </trkpt>
      <trkpt lat="59.989302305" lon="23.4006702273">
        <ele>28.6</ele>
        <time>2012-02-27T19:17:43Z</time>
      </trkpt>
      <trkpt lat="59.9892996228" lon="23.4007830477">
        <ele>28.6</ele>
        <time>2012-02-27T19:17:44Z</time>
      </trkpt>
      <trkpt lat="59.9893980263" lon="23.4012596426">
        <ele>28.8</ele>
        <time>2012-02-27T19:17:48Z</time>
      </trkpt>
      <trkpt lat="59.9894934961" lon="23.4016747142">
        <ele>28.8</ele>
        <time>2012-02-27T19:17:52Z</time>
      </trkpt>
      <trkpt lat="59.9895082483" lon="23.4017229102">
        <ele>28.8</ele>
        <time>2012-02-27T19:17:57Z</time>
      </trkpt>
      <trkpt lat="59.9895069072" lon="23.4017727825">
        <ele>28.8</ele>
        <time>2012-02-27T19:18:03Z</time>
      </trkpt>
      <trkpt lat="59.9894650815" lon="23.4019454496">
        <ele>29</ele>
        <time>2012-02-27T19:18:10Z</time>
      </trkpt>
      <trkpt lat="59.9893699469" lon="23.4021974933">
        <ele>29</ele>
        <time>2012-02-27T19:18:15Z</time>
      </trkpt>
      <trkpt lat="59.9892360041" lon="23.4025606811">
        <ele>29</ele>
        <time>2012-02-27T19:18:19Z</time>
      </trkpt>
      <trkpt lat="59.9891417078" lon="23.4028896706">
        <ele>29</ele>
        <time>2012-02-27T19:18:22Z</time>
      </trkpt>
      <trkpt lat="59.989022601" lon="23.4033106097">
        <ele>28.8</ele>
        <time>2012-02-27T19:18:25Z</time>
      </trkpt>
      <trkpt lat="59.9889179949" lon="23.403637839">
        <ele>28.2</ele>
        <time>2012-02-27T19:18:28Z</time>
      </trkpt>
      <trkpt lat="59.9889070146" lon="23.4037089176">
        <ele>28</ele>
        <time>2012-02-27T19:18:29Z</time>
      </trkpt>
      <trkpt lat="59.9889595691" lon="23.4037949997">
        <ele>27.8</ele>
        <time>2012-02-27T19:18:32Z</time>
      </trkpt>
      <trkpt lat="59.9890560448" lon="23.4036773178">
        <ele>27</ele>
        <time>2012-02-27T19:18:35Z</time>
      </trkpt>
      <trkpt lat="59.989091584" lon="23.403614705">
        <ele>26.8</ele>
        <time>2012-02-27T19:18:36Z</time>
      </trkpt>
      <trkpt lat="59.9892894807" lon="23.4033307262">
        <ele>26</ele>
        <time>2012-02-27T19:18:41Z</time>
      </trkpt>
      <trkpt lat="59.9893194041" lon="23.4032895711">
        <ele>25.8</ele>
        <time>2012-02-27T19:18:42Z</time>
      </trkpt>
      <trkpt lat="59.9893944221" lon="23.4032288861">
        <ele>25</ele>
        <time>2012-02-27T19:18:45Z</time>
      </trkpt>
      <trkpt lat="59.989439349" lon="23.4032170677">
        <ele>24.6</ele>
        <time>2012-02-27T19:18:47Z</time>
      </trkpt>
      <trkpt lat="59.9895929054" lon="23.4033134595">
        <ele>23.8</ele>
        <time>2012-02-27T19:18:52Z</time>
      </trkpt>
      <trkpt lat="59.989719053" lon="23.4034159701">
        <ele>23.4</ele>
        <time>2012-02-27T19:18:56Z</time>
      </trkpt>
      <trkpt lat="59.9897665784" lon="23.4034562871">
        <ele>23.4</ele>
        <time>2012-02-27T19:18:58Z</time>
      </trkpt>
      <trkpt lat="59.9897905506" lon="23.4034774095">
        <ele>23.2</ele>
        <time>2012-02-27T19:19:00Z</time>
      </trkpt>
      <trkpt lat="59.9897994355" lon="23.403481349">
        <ele>22.8</ele>
        <time>2012-02-27T19:19:02Z</time>
      </trkpt>
      <trkpt lat="59.9898248326" lon="23.4034994539">
        <ele>21.8</ele>
        <time>2012-02-27T19:19:08Z</time>
      </trkpt>
      <trkpt lat="59.989859366" lon="23.4035359151">
        <ele>21.4</ele>
        <time>2012-02-27T19:19:14Z</time>
      </trkpt>
      <trkpt lat="59.9898854338" lon="23.403561899">
        <ele>21</ele>
        <time>2012-02-27T19:19:19Z</time>
      </trkpt>
      <trkpt lat="59.9899120044" lon="23.403586458">
        <ele>21.6</ele>
        <time>2012-02-27T19:19:23Z</time>
      </trkpt>
      <trkpt lat="59.9899287682" lon="23.4035981088">
        <ele>22</ele>
        <time>2012-02-27T19:19:27Z</time>
      </trkpt>
      <trkpt lat="59.9899784728" lon="23.4036425329">
        <ele>23.2</ele>
        <time>2012-02-27T19:19:34Z</time>
      </trkpt>
      <trkpt lat="59.990028429" lon="23.4036639067">
        <ele>24.4</ele>
        <time>2012-02-27T19:19:40Z</time>
      </trkpt>
      <trkpt lat="59.9901323645" lon="23.4037804152">
        <ele>26.8</ele>
        <time>2012-02-27T19:19:53Z</time>
      </trkpt>
      <trkpt lat="59.9901420875" lon="23.4037942453">
        <ele>27</ele>
        <time>2012-02-27T19:19:54Z</time>
      </trkpt>
      <trkpt lat="59.9901995036" lon="23.4038672516">
        <ele>27.8</ele>
        <time>2012-02-27T19:19:59Z</time>
      </trkpt>
      <trkpt lat="59.990339146" lon="23.4039770545">
        <ele>28.4</ele>
        <time>2012-02-27T19:20:04Z</time>
      </trkpt>
      <trkpt lat="59.9905296666" lon="23.4040534136">
        <ele>28.6</ele>
        <time>2012-02-27T19:20:09Z</time>
      </trkpt>
      <trkpt lat="59.9907029205" lon="23.4040565149">
        <ele>28.8</ele>
        <time>2012-02-27T19:20:13Z</time>
      </trkpt>
      <trkpt lat="59.9908803653" lon="23.4042868496">
        <ele>28.6</ele>
        <time>2012-02-27T19:20:17Z</time>
      </trkpt>
      <trkpt lat="59.9908974644" lon="23.4043976583">
        <ele>28.4</ele>
        <time>2012-02-27T19:20:18Z</time>
      </trkpt>
      <trkpt lat="59.9909379489" lon="23.404951618">
        <ele>27.8</ele>
        <time>2012-02-27T19:20:23Z</time>
      </trkpt>
      <trkpt lat="59.9909394577" lon="23.4050549669">
        <ele>27.6</ele>
        <time>2012-02-27T19:20:24Z</time>
      </trkpt>
      <trkpt lat="59.9909296509" lon="23.4053691205">
        <ele>26.6</ele>
        <time>2012-02-27T19:20:28Z</time>
      </trkpt>
      <trkpt lat="59.9909359373" lon="23.4057712002">
        <ele>25.8</ele>
        <time>2012-02-27T19:20:34Z</time>
      </trkpt>
      <trkpt lat="59.9910608276" lon="23.4060571907">
        <ele>24.8</ele>
        <time>2012-02-27T19:20:39Z</time>
      </trkpt>
      <trkpt lat="59.9911241109" lon="23.4060763852">
        <ele>24.4</ele>
        <time>2012-02-27T19:20:41Z</time>
      </trkpt>
      <trkpt lat="59.9913193254" lon="23.4060086595">
        <ele>23.6</ele>
        <time>2012-02-27T19:20:48Z</time>
      </trkpt>
      <trkpt lat="59.9914634103" lon="23.4059654089">
        <ele>23</ele>
        <time>2012-02-27T19:20:54Z</time>
      </trkpt>
      <trkpt lat="59.9915768174" lon="23.4059369942">
        <ele>22</ele>
        <time>2012-02-27T19:20:59Z</time>
      </trkpt>
      <trkpt lat="59.9916855306" lon="23.405893576">
        <ele>21.4</ele>
        <time>2012-02-27T19:21:04Z</time>
      </trkpt>
      <trkpt lat="59.9918144442" lon="23.40582409">
        <ele>21.2</ele>
        <time>2012-02-27T19:21:09Z</time>
      </trkpt>
      <trkpt lat="59.9919534999" lon="23.4057003732">
        <ele>21</ele>
        <time>2012-02-27T19:21:15Z</time>
      </trkpt>
      <trkpt lat="59.9920329604" lon="23.4055406142">
        <ele>21</ele>
        <time>2012-02-27T19:21:20Z</time>
      </trkpt>
      <trkpt lat="59.9920842576" lon="23.4054038216">
        <ele>21.8</ele>
        <time>2012-02-27T19:21:25Z</time>
      </trkpt>
      <trkpt lat="59.9921619578" lon="23.4052001414">
        <ele>22.2</ele>
        <time>2012-02-27T19:21:31Z</time>
      </trkpt>
      <trkpt lat="59.9922266661" lon="23.4050868181">
        <ele>22.4</ele>
        <time>2012-02-27T19:21:35Z</time>
      </trkpt>
      <trkpt lat="59.9923578428" lon="23.404980368">
        <ele>22.6</ele>
        <time>2012-02-27T19:21:41Z</time>
      </trkpt>
      <trkpt lat="59.9924706632" lon="23.4049382908">
        <ele>22.6</ele>
        <time>2012-02-27T19:21:47Z</time>
      </trkpt>
      <trkpt lat="59.9926669673" lon="23.405013225">
        <ele>22.8</ele>
        <time>2012-02-27T19:21:55Z</time>
      </trkpt>
      <trkpt lat="59.9928813763" lon="23.4050248759">
        <ele>22.8</ele>
        <time>2012-02-27T19:22:00Z</time>
      </trkpt>
      <trkpt lat="59.99307877" lon="23.4049279811">
        <ele>22.8</ele>
        <time>2012-02-27T19:22:04Z</time>
      </trkpt>
      <trkpt lat="59.9931305702" lon="23.4048811263">
        <ele>22.8</ele>
        <time>2012-02-27T19:22:05Z</time>
      </trkpt>
      <trkpt lat="59.9931785984" lon="23.4048287394">
        <ele>22.8</ele>
        <time>2012-02-27T19:22:06Z</time>
      </trkpt>
      <trkpt lat="59.9933391118" lon="23.4044191159">
        <ele>22.2</ele>
        <time>2012-02-27T19:22:10Z</time>
      </trkpt>
      <trkpt lat="59.9933914149" lon="23.404068082">
        <ele>21.6</ele>
        <time>2012-02-27T19:22:14Z</time>
      </trkpt>
      <trkpt lat="59.9934036525" lon="23.4040072294">
        <ele>21.6</ele>
        <time>2012-02-27T19:22:15Z</time>
      </trkpt>
      <trkpt lat="59.9934212545" lon="23.4039057246">
        <ele>21.4</ele>
        <time>2012-02-27T19:22:17Z</time>
      </trkpt>
      <trkpt lat="59.9934516808" lon="23.4036582909">
        <ele>20.6</ele>
        <time>2012-02-27T19:22:23Z</time>
      </trkpt>
      <trkpt lat="59.9934968592" lon="23.4033902377">
        <ele>19.6</ele>
        <time>2012-02-27T19:22:29Z</time>
      </trkpt>
      <trkpt lat="59.9935521797" lon="23.4031287224">
        <ele>19.2</ele>
        <time>2012-02-27T19:22:35Z</time>
      </trkpt>
      <trkpt lat="59.9936729629" lon="23.4025652073">
        <ele>18.2</ele>
        <time>2012-02-27T19:22:46Z</time>
      </trkpt>
      <trkpt lat="59.9937275291" lon="23.4023454339">
        <ele>17.6</ele>
        <time>2012-02-27T19:22:51Z</time>
      </trkpt>
      <trkpt lat="59.9937759765" lon="23.40213882">
        <ele>17.2</ele>
        <time>2012-02-27T19:22:56Z</time>
      </trkpt>
      <trkpt lat="59.9938134436" lon="23.4019700086">
        <ele>17</ele>
        <time>2012-02-27T19:23:01Z</time>
      </trkpt>
      <trkpt lat="59.9938912276" lon="23.4017421047">
        <ele>16.8</ele>
        <time>2012-02-27T19:23:08Z</time>
      </trkpt>
      <trkpt lat="59.9939576122" lon="23.401620651">
        <ele>16.8</ele>
        <time>2012-02-27T19:23:12Z</time>
      </trkpt>
      <trkpt lat="59.9940519924" lon="23.4015361614">
        <ele>16.8</ele>
        <time>2012-02-27T19:23:16Z</time>
      </trkpt>
      <trkpt lat="59.9940834246" lon="23.4015143685">
        <ele>16.6</ele>
        <time>2012-02-27T19:23:17Z</time>
      </trkpt>
      <trkpt lat="59.9942219774" lon="23.401371038">
        <ele>16.6</ele>
        <time>2012-02-27T19:23:22Z</time>
      </trkpt>
      <trkpt lat="59.994347622" lon="23.4012421244">
        <ele>16.6</ele>
        <time>2012-02-27T19:23:26Z</time>
      </trkpt>
      <trkpt lat="59.9945149248" lon="23.4011109476">
        <ele>16.6</ele>
        <time>2012-02-27T19:23:32Z</time>
      </trkpt>
      <trkpt lat="59.9946357079" lon="23.4009815311">
        <ele>16.6</ele>
        <time>2012-02-27T19:23:38Z</time>
      </trkpt>
      <trkpt lat="59.9947306749" lon="23.4008388712">
        <ele>16.6</ele>
        <time>2012-02-27T19:23:43Z</time>
      </trkpt>
      <trkpt lat="59.9948113926" lon="23.4007355223">
        <ele>16.6</ele>
        <time>2012-02-27T19:23:48Z</time>
      </trkpt>
      <trkpt lat="59.9948220376" lon="23.4006775196">
        <ele>16.6</ele>
        <time>2012-02-27T19:23:52Z</time>
      </trkpt>
      <trkpt lat="59.9948609296" lon="23.4006019149">
        <ele>16.6</ele>
        <time>2012-02-27T19:23:57Z</time>
      </trkpt>
      <trkpt lat="59.9948969718" lon="23.4005336024">
        <ele>17.4</ele>
        <time>2012-02-27T19:24:02Z</time>
      </trkpt>
      <trkpt lat="59.9949452515" lon="23.40042447">
        <ele>18.2</ele>
        <time>2012-02-27T19:24:09Z</time>
      </trkpt>
      <trkpt lat="59.9949818804" lon="23.4003362924">
        <ele>19.4</ele>
        <time>2012-02-27T19:24:15Z</time>
      </trkpt>
      <trkpt lat="59.9949895079" lon="23.4003209536">
        <ele>19.6</ele>
        <time>2012-02-27T19:24:16Z</time>
      </trkpt>
      <trkpt lat="59.9950237061" lon="23.4002193649">
        <ele>20.6</ele>
        <time>2012-02-27T19:24:22Z</time>
      </trkpt>
      <trkpt lat="59.995036698" lon="23.4001757791">
        <ele>21.4</ele>
        <time>2012-02-27T19:24:26Z</time>
      </trkpt>
      <trkpt lat="59.9950522046" lon="23.4001230569">
        <ele>21.8</ele>
        <time>2012-02-27T19:24:29Z</time>
      </trkpt>
      <trkpt lat="59.9950606703" lon="23.4000896131">
        <ele>22</ele>
        <time>2012-02-27T19:24:31Z</time>
      </trkpt>
      <trkpt lat="59.9950757577" lon="23.4000188699">
        <ele>22.8</ele>
        <time>2012-02-27T19:24:35Z</time>
      </trkpt>
      <trkpt lat="59.9950952875" lon="23.3998273435">
        <ele>24.2</ele>
        <time>2012-02-27T19:24:44Z</time>
      </trkpt>
      <trkpt lat="59.9950943655" lon="23.3996778942">
        <ele>25.8</ele>
        <time>2012-02-27T19:24:51Z</time>
      </trkpt>
      <trkpt lat="59.9950811221" lon="23.3995633974">
        <ele>27.2</ele>
        <time>2012-02-27T19:24:57Z</time>
      </trkpt>
      <trkpt lat="59.9950579042" lon="23.3994423628">
        <ele>28.2</ele>
        <time>2012-02-27T19:25:03Z</time>
      </trkpt>
      <trkpt lat="59.9950511149" lon="23.3994244255">
        <ele>28.2</ele>
        <time>2012-02-27T19:25:04Z</time>
      </trkpt>
      <trkpt lat="59.9949866581" lon="23.3993193165">
        <ele>29.2</ele>
        <time>2012-02-27T19:25:09Z</time>
      </trkpt>
      <trkpt lat="59.9948745921" lon="23.3992202425">
        <ele>30</ele>
        <time>2012-02-27T19:25:13Z</time>
      </trkpt>
      <trkpt lat="59.9947587542" lon="23.3991229286">
        <ele>30.4</ele>
        <time>2012-02-27T19:25:17Z</time>
      </trkpt>
      <trkpt lat="59.9946692355" lon="23.3989830347">
        <ele>30.8</ele>
        <time>2012-02-27T19:25:22Z</time>
      </trkpt>
      <trkpt lat="59.994644006" lon="23.3988619162">
        <ele>31</ele>
        <time>2012-02-27T19:25:26Z</time>
      </trkpt>
      <trkpt lat="59.9946205367" lon="23.3986892491">
        <ele>31</ele>
        <time>2012-02-27T19:25:30Z</time>
      </trkpt>
      <trkpt lat="59.9945860871" lon="23.3984709006">
        <ele>31.2</ele>
        <time>2012-02-27T19:25:34Z</time>
      </trkpt>
      <trkpt lat="59.9945118235" lon="23.3982559887">
        <ele>31.2</ele>
        <time>2012-02-27T19:25:40Z</time>
      </trkpt>
      <trkpt lat="59.9942487156" lon="23.3979852533">
        <ele>31.2</ele>
        <time>2012-02-27T19:25:49Z</time>
      </trkpt>
      <trkpt lat="59.9941503121" lon="23.3977868537">
        <ele>31.2</ele>
        <time>2012-02-27T19:25:55Z</time>
      </trkpt>
      <trkpt lat="59.9941006913" lon="23.3976047989">
        <ele>31.2</ele>
        <time>2012-02-27T19:26:01Z</time>
      </trkpt>
      <trkpt lat="59.9940479691" lon="23.3973508273">
        <ele>31.2</ele>
        <time>2012-02-27T19:26:06Z</time>
      </trkpt>
      <trkpt lat="59.9939355678" lon="23.3969557884">
        <ele>31.2</ele>
        <time>2012-02-27T19:26:11Z</time>
      </trkpt>
      <trkpt lat="59.9937976018" lon="23.3965894155">
        <ele>31.2</ele>
        <time>2012-02-27T19:26:14Z</time>
      </trkpt>
      <trkpt lat="59.9936646648" lon="23.3962870804">
        <ele>30.6</ele>
        <time>2012-02-27T19:26:17Z</time>
      </trkpt>
      <trkpt lat="59.993593754" lon="23.3961343622">
        <ele>30.4</ele>
        <time>2012-02-27T19:26:19Z</time>
      </trkpt>
      <trkpt lat="59.9935370085" lon="23.3960355396">
        <ele>30</ele>
        <time>2012-02-27T19:26:21Z</time>
      </trkpt>
      <trkpt lat="59.9934678578" lon="23.3958873476">
        <ele>29</ele>
        <time>2012-02-27T19:26:25Z</time>
      </trkpt>
      <trkpt lat="59.9933808537" lon="23.3957254931">
        <ele>28.2</ele>
        <time>2012-02-27T19:26:30Z</time>
      </trkpt>
      <trkpt lat="59.9933271257" lon="23.395613008">
        <ele>27.8</ele>
        <time>2012-02-27T19:26:34Z</time>
      </trkpt>
      <trkpt lat="59.9931665285" lon="23.3953031291">
        <ele>27.2</ele>
        <time>2012-02-27T19:26:45Z</time>
      </trkpt>
      <trkpt lat="59.9930964558" lon="23.3951692702">
        <ele>27</ele>
        <time>2012-02-27T19:26:50Z</time>
      </trkpt>
      <trkpt lat="59.9930118825" lon="23.3949990338">
        <ele>27</ele>
        <time>2012-02-27T19:26:56Z</time>
      </trkpt>
      <trkpt lat="59.9929143171" lon="23.3948119498">
        <ele>27</ele>
        <time>2012-02-27T19:27:03Z</time>
      </trkpt>
      <trkpt lat="59.9928109683" lon="23.3946077667">
        <ele>27.8</ele>
        <time>2012-02-27T19:27:10Z</time>
      </trkpt>
      <trkpt lat="59.9927332681" lon="23.3944417213">
        <ele>28.2</ele>
        <time>2012-02-27T19:27:16Z</time>
      </trkpt>
      <trkpt lat="59.9926372953" lon="23.3942641926">
        <ele>28.6</ele>
        <time>2012-02-27T19:27:22Z</time>
      </trkpt>
      <trkpt lat="59.9925864172" lon="23.3941627716">
        <ele>28.8</ele>
        <time>2012-02-27T19:27:27Z</time>
      </trkpt>
      <trkpt lat="59.9925629479" lon="23.3941358657">
        <ele>28.8</ele>
        <time>2012-02-27T19:27:31Z</time>
      </trkpt>
      <trkpt lat="59.9924953898" lon="23.394000079">
        <ele>28.8</ele>
        <time>2012-02-27T19:27:37Z</time>
      </trkpt>
      <trkpt lat="59.9923960643" lon="23.3937730133">
        <ele>29</ele>
        <time>2012-02-27T19:27:44Z</time>
      </trkpt>
      <trkpt lat="59.9923232256" lon="23.3935465344">
        <ele>30</ele>
        <time>2012-02-27T19:27:51Z</time>
      </trkpt>
      <trkpt lat="59.9922721798" lon="23.3933496435">
        <ele>30.4</ele>
        <time>2012-02-27T19:27:57Z</time>
      </trkpt>
      <trkpt lat="59.9922265822" lon="23.3931847715">
        <ele>30.6</ele>
        <time>2012-02-27T19:28:01Z</time>
      </trkpt>
      <trkpt lat="59.9921827449" lon="23.3930055665">
        <ele>30.8</ele>
        <time>2012-02-27T19:28:05Z</time>
      </trkpt>
      <trkpt lat="59.9921155221" lon="23.3928246851">
        <ele>30.8</ele>
        <time>2012-02-27T19:28:10Z</time>
      </trkpt>
      <trkpt lat="59.9920622132" lon="23.392733071">
        <ele>30.8</ele>
        <time>2012-02-27T19:28:13Z</time>
      </trkpt>
      <trkpt lat="59.9919656537" lon="23.3926000502">
        <ele>30.8</ele>
        <time>2012-02-27T19:28:17Z</time>
      </trkpt>
      <trkpt lat="59.9918493967" lon="23.3925364316">
        <ele>31.6</ele>
        <time>2012-02-27T19:28:21Z</time>
      </trkpt>
      <trkpt lat="59.9917224948" lon="23.3927268684">
        <ele>32.2</ele>
        <time>2012-02-27T19:28:26Z</time>
      </trkpt>
      <trkpt lat="59.9916163799" lon="23.3929380922">
        <ele>32.6</ele>
        <time>2012-02-27T19:28:31Z</time>
      </trkpt>
      <trkpt lat="59.991535327" lon="23.3929922393">
        <ele>32.6</ele>
        <time>2012-02-27T19:28:35Z</time>
      </trkpt>
      <trkpt lat="59.9914517594" lon="23.3930092546">
        <ele>32.8</ele>
        <time>2012-02-27T19:28:40Z</time>
      </trkpt>
      <trkpt lat="59.9912841214" lon="23.3931228293">
        <ele>33</ele>
        <time>2012-02-27T19:28:48Z</time>
      </trkpt>
      <trkpt lat="59.9910847998" lon="23.3931468015">
        <ele>33</ele>
        <time>2012-02-27T19:28:54Z</time>
      </trkpt>
      <trkpt lat="59.990865194" lon="23.3931963386">
        <ele>33</ele>
        <time>2012-02-27T19:28:59Z</time>
      </trkpt>
      <trkpt lat="59.9906517071" lon="23.3933324606">
        <ele>33</ele>
        <time>2012-02-27T19:29:03Z</time>
      </trkpt>
      <trkpt lat="59.9906018348" lon="23.3933782258">
        <ele>33</ele>
        <time>2012-02-27T19:29:04Z</time>
      </trkpt>
      <trkpt lat="59.9904738431" lon="23.3936308563">
        <ele>33</ele>
        <time>2012-02-27T19:29:07Z</time>
      </trkpt>
      <trkpt lat="59.9904349511" lon="23.3939155894">
        <ele>33</ele>
        <time>2012-02-27T19:29:10Z</time>
      </trkpt>
      <trkpt lat="59.9904275751" lon="23.3941258075">
        <ele>33</ele>
        <time>2012-02-27T19:29:13Z</time>
      </trkpt>
      <trkpt lat="59.9904046925" lon="23.3944641848">
        <ele>33</ele>
        <time>2012-02-27T19:29:19Z</time>
      </trkpt>
      <trkpt lat="59.9903202029" lon="23.3948162246">
        <ele>33</ele>
        <time>2012-02-27T19:29:25Z</time>
      </trkpt>
      <trkpt lat="59.9902247331" lon="23.3951318869">
        <ele>33</ele>
        <time>2012-02-27T19:29:30Z</time>
      </trkpt>
      <trkpt lat="59.9901538222" lon="23.3955716014">
        <ele>33</ele>
        <time>2012-02-27T19:29:36Z</time>
      </trkpt>
      <trkpt lat="59.9901537384" lon="23.3956447754">
        <ele>33</ele>
        <time>2012-02-27T19:29:37Z</time>
      </trkpt>
      <trkpt lat="59.9902472804" lon="23.3959535646">
        <ele>33</ele>
        <time>2012-02-27T19:29:42Z</time>
      </trkpt>
      <trkpt lat="59.9903369667" lon="23.3962585819">
        <ele>32.8</ele>
        <time>2012-02-27T19:29:48Z</time>
      </trkpt>
      <trkpt lat="59.9903071271" lon="23.3965876553">
        <ele>32.2</ele>
        <time>2012-02-27T19:29:52Z</time>
      </trkpt>
      <trkpt lat="59.9902315224" lon="23.3968987076">
        <ele>31.6</ele>
        <time>2012-02-27T19:29:56Z</time>
      </trkpt>
      <trkpt lat="59.9902052871" lon="23.396969367">
        <ele>31.4</ele>
        <time>2012-02-27T19:29:57Z</time>
      </trkpt>
      <trkpt lat="59.9901791355" lon="23.3970277051">
        <ele>31.2</ele>
        <time>2012-02-27T19:29:58Z</time>
      </trkpt>
      <trkpt lat="59.9901047881" lon="23.397167599">
        <ele>30.8</ele>
        <time>2012-02-27T19:30:00Z</time>
      </trkpt>
      <trkpt lat="59.9899873577" lon="23.3974696826">
        <ele>29.8</ele>
        <time>2012-02-27T19:30:04Z</time>
      </trkpt>
      <trkpt lat="59.9899277624" lon="23.3977320361">
        <ele>28.8</ele>
        <time>2012-02-27T19:30:08Z</time>
      </trkpt>
      <trkpt lat="59.9899322048" lon="23.3979955631">
        <ele>27.4</ele>
        <time>2012-02-27T19:30:13Z</time>
      </trkpt>
      <trkpt lat="59.9899847593" lon="23.3982171805">
        <ele>26.2</ele>
        <time>2012-02-27T19:30:18Z</time>
      </trkpt>
      <trkpt lat="59.9900368109" lon="23.3983792026">
        <ele>25.6</ele>
        <time>2012-02-27T19:30:23Z</time>
      </trkpt>
      <trkpt lat="59.9901051234" lon="23.3985933602">
        <ele>25</ele>
        <time>2012-02-27T19:30:28Z</time>
      </trkpt>
      <trkpt lat="59.9900628786" lon="23.3989661871">
        <ele>24.8</ele>
        <time>2012-02-27T19:30:32Z</time>
      </trkpt>
      <trkpt lat="59.9899429336" lon="23.3991807637">
        <ele>24.8</ele>
        <time>2012-02-27T19:30:36Z</time>
      </trkpt>
      <trkpt lat="59.9898590308" lon="23.3992903151">
        <ele>24.6</ele>
        <time>2012-02-27T19:30:40Z</time>
      </trkpt>
      <trkpt lat="59.989778816" lon="23.3994152893">
        <ele>24.6</ele>
        <time>2012-02-27T19:30:44Z</time>
      </trkpt>
      <trkpt lat="59.989640347" lon="23.3996026247">
        <ele>24.6</ele>
        <time>2012-02-27T19:30:50Z</time>
      </trkpt>
      <trkpt lat="59.9895675921" lon="23.399720139">
        <ele>24.4</ele>
        <time>2012-02-27T19:30:54Z</time>
      </trkpt>
      <trkpt lat="59.9895452963" lon="23.3997527446">
        <ele>24.4</ele>
        <time>2012-02-27T19:30:55Z</time>
      </trkpt>
      <trkpt lat="59.9894218309" lon="23.3999372302">
        <ele>24.4</ele>
        <time>2012-02-27T19:31:01Z</time>
      </trkpt>
      <trkpt lat="59.989343041" lon="23.4001374738">
        <ele>25.2</ele>
        <time>2012-02-27T19:31:06Z</time>
      </trkpt>
      <trkpt lat="59.9893135367" lon="23.4002720033">
        <ele>25.6</ele>
        <time>2012-02-27T19:31:09Z</time>
      </trkpt>
      <trkpt lat="59.9892681906" lon="23.4005205266">
        <ele>26</ele>
        <time>2012-02-27T19:31:14Z</time>
      </trkpt>
      <trkpt lat="59.9892553663" lon="23.4008342611">
        <ele>26.2</ele>
        <time>2012-02-27T19:31:17Z</time>
      </trkpt>
      <trkpt lat="59.9893482378" lon="23.4012224269">
        <ele>26.2</ele>
        <time>2012-02-27T19:31:20Z</time>
      </trkpt>
      <trkpt lat="59.9893818492" lon="23.4013380133">
        <ele>26.2</ele>
        <time>2012-02-27T19:31:21Z</time>
      </trkpt>
      <trkpt lat="59.9894447135" lon="23.4016095869">
        <ele>26.4</ele>
        <time>2012-02-27T19:31:24Z</time>
      </trkpt>
      <trkpt lat="59.9894533468" lon="23.4016245905">
        <ele>26.4</ele>
        <time>2012-02-27T19:31:25Z</time>
      </trkpt>
      <trkpt lat="59.9894659197" lon="23.4016606326">
        <ele>26.4</ele>
        <time>2012-02-27T19:31:30Z</time>
      </trkpt>
      <trkpt lat="59.9894673446" lon="23.4017360697">
        <ele>26.4</ele>
        <time>2012-02-27T19:31:35Z</time>
      </trkpt>
      <trkpt lat="59.9894534306" lon="23.4018444477">
        <ele>26.6</ele>
        <time>2012-02-27T19:31:40Z</time>
      </trkpt>
      <trkpt lat="59.9893736349" lon="23.4021093996">
        <ele>26.6</ele>
        <time>2012-02-27T19:31:46Z</time>
      </trkpt>
      <trkpt lat="59.9892395245" lon="23.4024799634">
        <ele>26.6</ele>
        <time>2012-02-27T19:31:50Z</time>
      </trkpt>
      <trkpt lat="59.9891423783" lon="23.4027958772">
        <ele>26.6</ele>
        <time>2012-02-27T19:31:53Z</time>
      </trkpt>
      <trkpt lat="59.9890350062" lon="23.4031873119">
        <ele>26.6</ele>
        <time>2012-02-27T19:31:56Z</time>
      </trkpt>
      <trkpt lat="59.9889597367" lon="23.4034488272">
        <ele>26.6</ele>
        <time>2012-02-27T19:31:58Z</time>
      </trkpt>
      <trkpt lat="59.98889989" lon="23.403622584">
        <ele>26.6</ele>
        <time>2012-02-27T19:32:00Z</time>
      </trkpt>
      <trkpt lat="59.9889225211" lon="23.4038106738">
        <ele>26.4</ele>
        <time>2012-02-27T19:32:04Z</time>
      </trkpt>
      <trkpt lat="59.9889561325" lon="23.4037983524">
        <ele>26.2</ele>
        <time>2012-02-27T19:32:05Z</time>
      </trkpt>
      <trkpt lat="59.98903048" lon="23.4037227477">
        <ele>25.8</ele>
        <time>2012-02-27T19:32:07Z</time>
      </trkpt>
      <trkpt lat="59.98919904" lon="23.4034656748">
        <ele>25.4</ele>
        <time>2012-02-27T19:32:11Z</time>
      </trkpt>
      <trkpt lat="59.989308759" lon="23.4033182372">
        <ele>25.2</ele>
        <time>2012-02-27T19:32:14Z</time>
      </trkpt>
      <trkpt lat="59.9894416122" lon="23.4032366813">
        <ele>25</ele>
        <time>2012-02-27T19:32:19Z</time>
      </trkpt>
      <trkpt lat="59.9895385069" lon="23.4032868889">
        <ele>24.8</ele>
        <time>2012-02-27T19:32:22Z</time>
      </trkpt>
      <trkpt lat="59.9897414327" lon="23.4034729671">
        <ele>24.2</ele>
        <time>2012-02-27T19:32:28Z</time>
      </trkpt>
      <trkpt lat="59.989810751" lon="23.4035592168">
        <ele>23.6</ele>
        <time>2012-02-27T19:32:32Z</time>
      </trkpt>
      <trkpt lat="59.9898313705" lon="23.4035610608">
        <ele>23.2</ele>
        <time>2012-02-27T19:32:38Z</time>
      </trkpt>
      <trkpt lat="59.9898461226" lon="23.403558211">
        <ele>22.8</ele>
        <time>2012-02-27T19:32:45Z</time>
      </trkpt>
      <trkpt lat="59.9898677479" lon="23.4035722926">
        <ele>22.8</ele>
        <time>2012-02-27T19:32:49Z</time>
      </trkpt>
      <trkpt lat="59.9899040416" lon="23.4036054849">
        <ele>22.6</ele>
        <time>2012-02-27T19:32:55Z</time>
      </trkpt>
      <trkpt lat="59.9899374015" lon="23.4036354921">
        <ele>22.6</ele>
        <time>2012-02-27T19:33:00Z</time>
      </trkpt>
      <trkpt lat="59.9899638883" lon="23.4036473944">
        <ele>23.2</ele>
        <time>2012-02-27T19:33:03Z</time>
      </trkpt>
      <trkpt lat="59.990008061" lon="23.4036737136">
        <ele>24</ele>
        <time>2012-02-27T19:33:09Z</time>
      </trkpt>
      <trkpt lat="59.9900495514" lon="23.4037012062">
        <ele>25</ele>
        <time>2012-02-27T19:33:14Z</time>
      </trkpt>
      <trkpt lat="59.9901119127" lon="23.4037679261">
        <ele>26.6</ele>
        <time>2012-02-27T19:33:22Z</time>
      </trkpt>
      <trkpt lat="59.9901902835" lon="23.403842525">
        <ele>27.6</ele>
        <time>2012-02-27T19:33:28Z</time>
      </trkpt>
      <trkpt lat="59.990346103" lon="23.4039728636">
        <ele>28.2</ele>
        <time>2012-02-27T19:33:34Z</time>
      </trkpt>
      <trkpt lat="59.9905486935" lon="23.404049558">
        <ele>28.4</ele>
        <time>2012-02-27T19:33:39Z</time>
      </trkpt>
      <trkpt lat="59.9907273118" lon="23.4040588619">
        <ele>28.6</ele>
        <time>2012-02-27T19:33:43Z</time>
      </trkpt>
      <trkpt lat="59.9908672895" lon="23.4041825787">
        <ele>28.6</ele>
        <time>2012-02-27T19:33:46Z</time>
      </trkpt>
      <trkpt lat="59.9908950336" lon="23.4042784677">
        <ele>28.6</ele>
        <time>2012-02-27T19:33:47Z</time>
      </trkpt>
      <trkpt lat="59.9909254599" lon="23.4045184415">
        <ele>28.8</ele>
        <time>2012-02-27T19:33:49Z</time>
      </trkpt>
      <trkpt lat="59.9909488454" lon="23.4048653683">
        <ele>28.4</ele>
        <time>2012-02-27T19:33:52Z</time>
      </trkpt>
      <trkpt lat="59.9909508571" lon="23.4051581481">
        <ele>28</ele>
        <time>2012-02-27T19:33:55Z</time>
      </trkpt>
      <trkpt lat="59.9909331713" lon="23.4054758221">
        <ele>27.2</ele>
        <time>2012-02-27T19:34:01Z</time>
      </trkpt>
      <trkpt lat="59.9909418884" lon="23.4057207412">
        <ele>26</ele>
        <time>2012-02-27T19:34:07Z</time>
      </trkpt>
      <trkpt lat="59.9910086922" lon="23.4059724496">
        <ele>25.4</ele>
        <time>2012-02-27T19:34:12Z</time>
      </trkpt>
      <trkpt lat="59.9910969536" lon="23.4061881998">
        <ele>24.2</ele>
        <time>2012-02-27T19:34:17Z</time>
      </trkpt>
      <trkpt lat="59.9911749891" lon="23.40655298">
        <ele>23.4</ele>
        <time>2012-02-27T19:34:23Z</time>
      </trkpt>
      <trkpt lat="59.9912573831" lon="23.4069667944">
        <ele>22.6</ele>
        <time>2012-02-27T19:34:28Z</time>
      </trkpt>
      <trkpt lat="59.9912752366" lon="23.4070732446">
        <ele>22.4</ele>
        <time>2012-02-27T19:34:29Z</time>
      </trkpt>
      <trkpt lat="59.9913643362" lon="23.407507427">
        <ele>21.6</ele>
        <time>2012-02-27T19:34:33Z</time>
      </trkpt>
      <trkpt lat="59.9914338221" lon="23.4078865403">
        <ele>20.8</ele>
        <time>2012-02-27T19:34:36Z</time>
      </trkpt>
      <trkpt lat="59.9913844528" lon="23.4088250617">
        <ele>18.4</ele>
        <time>2012-02-27T19:34:45Z</time>
      </trkpt>
      <trkpt lat="59.9910911701" lon="23.40894903">
        <ele>16</ele>
        <time>2012-02-27T19:34:55Z</time>
      </trkpt>
      <trkpt lat="59.9910113744" lon="23.40883973">
        <ele>15.4</ele>
        <time>2012-02-27T19:34:59Z</time>
      </trkpt>
      <trkpt lat="59.9909517791" lon="23.4086371395">
        <ele>14.6</ele>
        <time>2012-02-27T19:35:04Z</time>
      </trkpt>
      <trkpt lat="59.9908973805" lon="23.4084529053">
        <ele>13.6</ele>
        <time>2012-02-27T19:35:08Z</time>
      </trkpt>
      <trkpt lat="59.9908338457" lon="23.408253919">
        <ele>12.8</ele>
        <time>2012-02-27T19:35:13Z</time>
      </trkpt>
      <trkpt lat="59.990776765" lon="23.408071948">
        <ele>12.4</ele>
        <time>2012-02-27T19:35:18Z</time>
      </trkpt>
      <trkpt lat="59.9906983104" lon="23.4078554435">
        <ele>12</ele>
        <time>2012-02-27T19:35:24Z</time>
      </trkpt>
      <trkpt lat="59.9906235439" lon="23.4076242707">
        <ele>11.8</ele>
        <time>2012-02-27T19:35:30Z</time>
      </trkpt>
      <trkpt lat="59.9906077021" lon="23.4076080098">
        <ele>11.8</ele>
        <time>2012-02-27T19:35:31Z</time>
      </trkpt>
      <trkpt lat="59.9905078737" lon="23.4075845405">
        <ele>11.8</ele>
        <time>2012-02-27T19:35:36Z</time>
      </trkpt>
      <trkpt lat="59.9904315145" lon="23.407572722">
        <ele>11.8</ele>
        <time>2012-02-27T19:35:41Z</time>
      </trkpt>
      <trkpt lat="59.9904186064" lon="23.4076136257">
        <ele>11.8</ele>
        <time>2012-02-27T19:36:03Z</time>
      </trkpt>
      <trkpt lat="59.9904161757" lon="23.407614883">
        <ele>11.8</ele>
        <time>2012-02-27T19:36:09Z</time>
      </trkpt>
    </trkseg>
  </trk>
</gpx>